<?xml version="1.0" encoding="UTF-8"?>
<gpx version="1.1" creator="Endomondo.com" xsi:schemaLocation="http://www.topografix.com/GPX/1/1 http://www.topografix.com/GPX/1/1/gpx.xsd http://www.garmin.com/xmlschemas/GpxExtensions/v3 http://www.garmin.com/xmlschemas/GpxExtensionsv3.xsd http://www.garmin.com/xmlschemas/TrackPointExtension/v1 http://www.garmin.com/xmlschemas/TrackPointExtensionv1.xsd" xmlns="http://www.topografix.com/GPX/1/1" xmlns:gpxtpx="http://www.garmin.com/xmlschemas/TrackPointExtension/v1" xmlns:gpxx="http://www.garmin.com/xmlschemas/GpxExtensions/v3" xmlns:xsi="http://www.w3.org/2001/XMLSchema-instance">
  <metadata>
    <author>
      <name>Edward Goldenshtein</name>
      <email id="edigo68" domain="gmail.com"/>
    </author>
    <link href="http://www.endomondo.com">
      <text>Endomondo</text>
    </link>
    <time>2011-12-24T16:09:19Z</time>
    <bounds minlat="31.8095225" minlon="35.0194336" maxlat="31.8095151" maxlon="35.0194933"/>
  </metadata>
  <trk>
    <src>http://www.endomondo.com/</src>
    <link href="http://www.endomondo.com/workouts/u8xVDFOkRlk">
      <text>endomondo</text>
    </link>
    <type>MOUNTAIN_BIKING</type>
    <trkseg>
      <trkpt lat="31.8095225" lon="35.0194336">
        <time>2011-10-14T04:59:08Z</time>
      </trkpt>
      <trkpt lat="31.8095225" lon="35.0194336">
        <ele>315.5</ele>
        <time>2011-10-14T04:59:09Z</time>
      </trkpt>
      <trkpt lat="31.8096643" lon="35.01944">
        <ele>324.5</ele>
        <time>2011-10-14T05:00:06Z</time>
      </trkpt>
      <trkpt lat="31.8096701" lon="35.0192249">
        <ele>322.5</ele>
        <time>2011-10-14T05:00:15Z</time>
      </trkpt>
      <trkpt lat="31.8096761" lon="35.0190347">
        <ele>322.5</ele>
        <time>2011-10-14T05:00:20Z</time>
      </trkpt>
      <trkpt lat="31.8097862" lon="35.0188951">
        <ele>323.5</ele>
        <time>2011-10-14T05:00:25Z</time>
      </trkpt>
      <trkpt lat="31.8099131" lon="35.0189153">
        <ele>323.5</ele>
        <time>2011-10-14T05:00:29Z</time>
      </trkpt>
      <trkpt lat="31.8100378" lon="35.0190098">
        <ele>321.5</ele>
        <time>2011-10-14T05:00:35Z</time>
      </trkpt>
      <trkpt lat="31.81015" lon="35.0191116">
        <ele>321.5</ele>
        <time>2011-10-14T05:00:41Z</time>
      </trkpt>
      <trkpt lat="31.8102996" lon="35.0192406">
        <ele>319.5</ele>
        <time>2011-10-14T05:00:49Z</time>
      </trkpt>
      <trkpt lat="31.8104672" lon="35.019313">
        <ele>320.5</ele>
        <time>2011-10-14T05:00:57Z</time>
      </trkpt>
      <trkpt lat="31.8106344" lon="35.0194247">
        <ele>323.5</ele>
        <time>2011-10-14T05:01:05Z</time>
      </trkpt>
      <trkpt lat="31.8107854" lon="35.0195582">
        <ele>325.5</ele>
        <time>2011-10-14T05:01:12Z</time>
      </trkpt>
      <trkpt lat="31.8109915" lon="35.0197499">
        <ele>330.5</ele>
        <time>2011-10-14T05:01:20Z</time>
      </trkpt>
      <trkpt lat="31.8111207" lon="35.0198494">
        <ele>337.5</ele>
        <time>2011-10-14T05:01:38Z</time>
      </trkpt>
      <trkpt lat="31.8112494" lon="35.0199299">
        <ele>336.5</ele>
        <time>2011-10-14T05:01:49Z</time>
      </trkpt>
      <trkpt lat="31.8113613" lon="35.0200453">
        <ele>334.5</ele>
        <time>2011-10-14T05:01:54Z</time>
      </trkpt>
      <trkpt lat="31.8114763" lon="35.0201688">
        <ele>333.5</ele>
        <time>2011-10-14T05:02:00Z</time>
      </trkpt>
      <trkpt lat="31.8116194" lon="35.0202937">
        <ele>335.5</ele>
        <time>2011-10-14T05:02:07Z</time>
      </trkpt>
      <trkpt lat="31.8117491" lon="35.0203916">
        <ele>337.5</ele>
        <time>2011-10-14T05:02:14Z</time>
      </trkpt>
      <trkpt lat="31.8118952" lon="35.0204118">
        <ele>339.5</ele>
        <time>2011-10-14T05:02:22Z</time>
      </trkpt>
      <trkpt lat="31.8118986" lon="35.0202445">
        <ele>340.5</ele>
        <time>2011-10-14T05:02:30Z</time>
      </trkpt>
      <trkpt lat="31.8118663" lon="35.0200732">
        <ele>341.5</ele>
        <time>2011-10-14T05:02:38Z</time>
      </trkpt>
      <trkpt lat="31.8118635" lon="35.019913">
        <ele>338.5</ele>
        <time>2011-10-14T05:02:47Z</time>
      </trkpt>
      <trkpt lat="31.8118931" lon="35.0197444">
        <ele>338.5</ele>
        <time>2011-10-14T05:02:54Z</time>
      </trkpt>
      <trkpt lat="31.8119338" lon="35.0195688">
        <ele>341.5</ele>
        <time>2011-10-14T05:03:01Z</time>
      </trkpt>
      <trkpt lat="31.8119717" lon="35.0194142">
        <ele>341.5</ele>
        <time>2011-10-14T05:03:07Z</time>
      </trkpt>
      <trkpt lat="31.8120113" lon="35.0192449">
        <ele>341.5</ele>
        <time>2011-10-14T05:03:14Z</time>
      </trkpt>
      <trkpt lat="31.8120529" lon="35.0190811">
        <ele>342.5</ele>
        <time>2011-10-14T05:03:21Z</time>
      </trkpt>
      <trkpt lat="31.8120999" lon="35.0189071">
        <ele>342.5</ele>
        <time>2011-10-14T05:03:28Z</time>
      </trkpt>
      <trkpt lat="31.8121558" lon="35.0187583">
        <ele>343.5</ele>
        <time>2011-10-14T05:03:34Z</time>
      </trkpt>
      <trkpt lat="31.8122757" lon="35.0186588">
        <ele>345.5</ele>
        <time>2011-10-14T05:03:40Z</time>
      </trkpt>
      <trkpt lat="31.8124413" lon="35.0186132">
        <ele>347.5</ele>
        <time>2011-10-14T05:03:48Z</time>
      </trkpt>
      <trkpt lat="31.8125819" lon="35.0186679">
        <ele>347.5</ele>
        <time>2011-10-14T05:03:56Z</time>
      </trkpt>
      <trkpt lat="31.8127134" lon="35.0187523">
        <ele>347.5</ele>
        <time>2011-10-14T05:04:06Z</time>
      </trkpt>
      <trkpt lat="31.8128423" lon="35.0188275">
        <ele>348.5</ele>
        <time>2011-10-14T05:04:16Z</time>
      </trkpt>
      <trkpt lat="31.8129814" lon="35.0188718">
        <ele>349.5</ele>
        <time>2011-10-14T05:04:24Z</time>
      </trkpt>
      <trkpt lat="31.8131166" lon="35.018889">
        <ele>348.5</ele>
        <time>2011-10-14T05:04:32Z</time>
      </trkpt>
      <trkpt lat="31.8132674" lon="35.0188917">
        <ele>348.5</ele>
        <time>2011-10-14T05:04:42Z</time>
      </trkpt>
      <trkpt lat="31.813411" lon="35.0188719">
        <ele>351.5</ele>
        <time>2011-10-14T05:04:51Z</time>
      </trkpt>
      <trkpt lat="31.8135887" lon="35.0188297">
        <ele>351.5</ele>
        <time>2011-10-14T05:05:02Z</time>
      </trkpt>
      <trkpt lat="31.8137243" lon="35.0188182">
        <ele>350.5</ele>
        <time>2011-10-14T05:05:11Z</time>
      </trkpt>
      <trkpt lat="31.8138716" lon="35.0187996">
        <ele>352.5</ele>
        <time>2011-10-14T05:05:22Z</time>
      </trkpt>
      <trkpt lat="31.8140203" lon="35.0187941">
        <ele>357.5</ele>
        <time>2011-10-14T05:05:32Z</time>
      </trkpt>
      <trkpt lat="31.8141581" lon="35.0187923">
        <ele>360.5</ele>
        <time>2011-10-14T05:05:39Z</time>
      </trkpt>
      <trkpt lat="31.8143072" lon="35.0187888">
        <ele>360.5</ele>
        <time>2011-10-14T05:05:46Z</time>
      </trkpt>
      <trkpt lat="31.814453" lon="35.018805">
        <ele>359.5</ele>
        <time>2011-10-14T05:05:53Z</time>
      </trkpt>
      <trkpt lat="31.8146409" lon="35.0188172">
        <ele>359.5</ele>
        <time>2011-10-14T05:06:03Z</time>
      </trkpt>
      <trkpt lat="31.8147785" lon="35.0188178">
        <ele>359.5</ele>
        <time>2011-10-14T05:06:12Z</time>
      </trkpt>
      <trkpt lat="31.8149261" lon="35.0188067">
        <ele>362.5</ele>
        <time>2011-10-14T05:06:22Z</time>
      </trkpt>
      <trkpt lat="31.8150587" lon="35.0188416">
        <ele>364.5</ele>
        <time>2011-10-14T05:06:34Z</time>
      </trkpt>
      <trkpt lat="31.8151958" lon="35.0187688">
        <ele>363.5</ele>
        <time>2011-10-14T05:08:17Z</time>
      </trkpt>
      <trkpt lat="31.8152857" lon="35.0186451">
        <ele>364.5</ele>
        <time>2011-10-14T05:08:24Z</time>
      </trkpt>
      <trkpt lat="31.8153746" lon="35.0185228">
        <ele>363.5</ele>
        <time>2011-10-14T05:08:29Z</time>
      </trkpt>
      <trkpt lat="31.815492" lon="35.0184051">
        <ele>363.5</ele>
        <time>2011-10-14T05:08:35Z</time>
      </trkpt>
      <trkpt lat="31.8155246" lon="35.0182312">
        <ele>364.5</ele>
        <time>2011-10-14T05:08:41Z</time>
      </trkpt>
      <trkpt lat="31.8154373" lon="35.017993">
        <ele>361.5</ele>
        <time>2011-10-14T05:08:51Z</time>
      </trkpt>
      <trkpt lat="31.8153515" lon="35.0178522">
        <ele>362.5</ele>
        <time>2011-10-14T05:08:59Z</time>
      </trkpt>
      <trkpt lat="31.8152783" lon="35.0177002">
        <ele>366.5</ele>
        <time>2011-10-14T05:09:06Z</time>
      </trkpt>
      <trkpt lat="31.815203" lon="35.0175619">
        <ele>364.5</ele>
        <time>2011-10-14T05:09:12Z</time>
      </trkpt>
      <trkpt lat="31.8151123" lon="35.0174373">
        <ele>366.5</ele>
        <time>2011-10-14T05:09:18Z</time>
      </trkpt>
      <trkpt lat="31.8150343" lon="35.017303">
        <ele>369.5</ele>
        <time>2011-10-14T05:09:24Z</time>
      </trkpt>
      <trkpt lat="31.8149793" lon="35.0171714">
        <ele>373.5</ele>
        <time>2011-10-14T05:09:29Z</time>
      </trkpt>
      <trkpt lat="31.8149614" lon="35.0169912">
        <ele>375.5</ele>
        <time>2011-10-14T05:09:35Z</time>
      </trkpt>
      <trkpt lat="31.8149683" lon="35.0167771">
        <ele>376.5</ele>
        <time>2011-10-14T05:09:41Z</time>
      </trkpt>
      <trkpt lat="31.8149943" lon="35.0166006">
        <ele>375.5</ele>
        <time>2011-10-14T05:09:45Z</time>
      </trkpt>
      <trkpt lat="31.8150327" lon="35.0163538">
        <ele>372.5</ele>
        <time>2011-10-14T05:09:51Z</time>
      </trkpt>
      <trkpt lat="31.8150961" lon="35.0160063">
        <ele>373.5</ele>
        <time>2011-10-14T05:09:59Z</time>
      </trkpt>
      <trkpt lat="31.815158" lon="35.0156752">
        <ele>371.5</ele>
        <time>2011-10-14T05:10:06Z</time>
      </trkpt>
      <trkpt lat="31.8152549" lon="35.0152951">
        <ele>367.5</ele>
        <time>2011-10-14T05:10:14Z</time>
      </trkpt>
      <trkpt lat="31.8153133" lon="35.0150242">
        <ele>364.5</ele>
        <time>2011-10-14T05:10:20Z</time>
      </trkpt>
      <trkpt lat="31.8153771" lon="35.0148172">
        <ele>364.5</ele>
        <time>2011-10-14T05:10:26Z</time>
      </trkpt>
      <trkpt lat="31.8154372" lon="35.0146567">
        <ele>363.5</ele>
        <time>2011-10-14T05:10:30Z</time>
      </trkpt>
      <trkpt lat="31.8155735" lon="35.0143371">
        <ele>364.5</ele>
        <time>2011-10-14T05:10:38Z</time>
      </trkpt>
      <trkpt lat="31.8156787" lon="35.0140102">
        <ele>363.5</ele>
        <time>2011-10-14T05:10:45Z</time>
      </trkpt>
      <trkpt lat="31.815719" lon="35.0137782">
        <ele>362.5</ele>
        <time>2011-10-14T05:10:51Z</time>
      </trkpt>
      <trkpt lat="31.8157443" lon="35.0136192">
        <ele>366.5</ele>
        <time>2011-10-14T05:10:56Z</time>
      </trkpt>
      <trkpt lat="31.8157877" lon="35.0134519">
        <ele>367.5</ele>
        <time>2011-10-14T05:11:04Z</time>
      </trkpt>
      <trkpt lat="31.8158569" lon="35.0133154">
        <ele>368.5</ele>
        <time>2011-10-14T05:11:09Z</time>
      </trkpt>
      <trkpt lat="31.8159321" lon="35.0131427">
        <ele>366.5</ele>
        <time>2011-10-14T05:11:14Z</time>
      </trkpt>
      <trkpt lat="31.8160085" lon="35.0128711">
        <ele>366.5</ele>
        <time>2011-10-14T05:11:19Z</time>
      </trkpt>
      <trkpt lat="31.816098" lon="35.01246">
        <ele>365.5</ele>
        <time>2011-10-14T05:11:26Z</time>
      </trkpt>
      <trkpt lat="31.8161235" lon="35.0122559">
        <ele>364.5</ele>
        <time>2011-10-14T05:11:30Z</time>
      </trkpt>
      <trkpt lat="31.8162171" lon="35.0118217">
        <ele>369.5</ele>
        <time>2011-10-14T05:11:41Z</time>
      </trkpt>
      <trkpt lat="31.8163328" lon="35.011662">
        <ele>370.5</ele>
        <time>2011-10-14T05:11:48Z</time>
      </trkpt>
      <trkpt lat="31.8164583" lon="35.0114702">
        <ele>373.5</ele>
        <time>2011-10-14T05:11:54Z</time>
      </trkpt>
      <trkpt lat="31.816561" lon="35.0112468">
        <ele>372.5</ele>
        <time>2011-10-14T05:12:00Z</time>
      </trkpt>
      <trkpt lat="31.8166262" lon="35.0109482">
        <ele>375.5</ele>
        <time>2011-10-14T05:12:08Z</time>
      </trkpt>
      <trkpt lat="31.8166414" lon="35.0107564">
        <ele>375.5</ele>
        <time>2011-10-14T05:12:12Z</time>
      </trkpt>
      <trkpt lat="31.8166408" lon="35.0103839">
        <ele>376.5</ele>
        <time>2011-10-14T05:12:18Z</time>
      </trkpt>
      <trkpt lat="31.8166153" lon="35.010002">
        <ele>379.5</ele>
        <time>2011-10-14T05:12:23Z</time>
      </trkpt>
      <trkpt lat="31.8165975" lon="35.0095236">
        <ele>379.5</ele>
        <time>2011-10-14T05:12:28Z</time>
      </trkpt>
      <trkpt lat="31.8166356" lon="35.0090538">
        <ele>375.5</ele>
        <time>2011-10-14T05:12:32Z</time>
      </trkpt>
      <trkpt lat="31.8167615" lon="35.0085592">
        <ele>365.5</ele>
        <time>2011-10-14T05:12:37Z</time>
      </trkpt>
      <trkpt lat="31.8167521" lon="35.008202">
        <ele>359.5</ele>
        <time>2011-10-14T05:12:43Z</time>
      </trkpt>
      <trkpt lat="31.8169183" lon="35.0080722">
        <ele>353.5</ele>
        <time>2011-10-14T05:12:48Z</time>
      </trkpt>
      <trkpt lat="31.8170399" lon="35.0079414">
        <ele>351.5</ele>
        <time>2011-10-14T05:12:53Z</time>
      </trkpt>
      <trkpt lat="31.8171291" lon="35.0077975">
        <ele>350.5</ele>
        <time>2011-10-14T05:12:58Z</time>
      </trkpt>
      <trkpt lat="31.817237" lon="35.0076135">
        <ele>350.5</ele>
        <time>2011-10-14T05:13:04Z</time>
      </trkpt>
      <trkpt lat="31.8173506" lon="35.0074411">
        <ele>352.5</ele>
        <time>2011-10-14T05:13:10Z</time>
      </trkpt>
      <trkpt lat="31.8174728" lon="35.0072672">
        <ele>353.5</ele>
        <time>2011-10-14T05:13:16Z</time>
      </trkpt>
      <trkpt lat="31.8176074" lon="35.0070558">
        <ele>353.5</ele>
        <time>2011-10-14T05:13:23Z</time>
      </trkpt>
      <trkpt lat="31.8177532" lon="35.0068229">
        <ele>350.5</ele>
        <time>2011-10-14T05:13:30Z</time>
      </trkpt>
      <trkpt lat="31.817972" lon="35.0066108">
        <ele>351.5</ele>
        <time>2011-10-14T05:13:38Z</time>
      </trkpt>
      <trkpt lat="31.818093" lon="35.0064886">
        <ele>352.5</ele>
        <time>2011-10-14T05:13:42Z</time>
      </trkpt>
      <trkpt lat="31.8183238" lon="35.0062721">
        <ele>353.5</ele>
        <time>2011-10-14T05:13:50Z</time>
      </trkpt>
      <trkpt lat="31.8184351" lon="35.0061611">
        <ele>353.5</ele>
        <time>2011-10-14T05:13:55Z</time>
      </trkpt>
      <trkpt lat="31.8185455" lon="35.0060436">
        <ele>355.5</ele>
        <time>2011-10-14T05:14:00Z</time>
      </trkpt>
      <trkpt lat="31.8186543" lon="35.005935">
        <ele>354.5</ele>
        <time>2011-10-14T05:14:05Z</time>
      </trkpt>
      <trkpt lat="31.8187285" lon="35.0058274">
        <ele>354.5</ele>
        <time>2011-10-14T05:14:11Z</time>
      </trkpt>
      <trkpt lat="31.818717" lon="35.0056382">
        <ele>355.5</ele>
        <time>2011-10-14T05:14:17Z</time>
      </trkpt>
      <trkpt lat="31.8187085" lon="35.0054503">
        <ele>356.5</ele>
        <time>2011-10-14T05:14:22Z</time>
      </trkpt>
      <trkpt lat="31.8187171" lon="35.0052373">
        <ele>357.5</ele>
        <time>2011-10-14T05:14:27Z</time>
      </trkpt>
      <trkpt lat="31.818722" lon="35.0050437">
        <ele>359.5</ele>
        <time>2011-10-14T05:14:32Z</time>
      </trkpt>
      <trkpt lat="31.8187469" lon="35.0048634">
        <ele>361.5</ele>
        <time>2011-10-14T05:14:37Z</time>
      </trkpt>
      <trkpt lat="31.8187746" lon="35.0046891">
        <ele>362.5</ele>
        <time>2011-10-14T05:14:42Z</time>
      </trkpt>
      <trkpt lat="31.8188104" lon="35.0044965">
        <ele>361.5</ele>
        <time>2011-10-14T05:14:47Z</time>
      </trkpt>
      <trkpt lat="31.8188432" lon="35.0043223">
        <ele>360.5</ele>
        <time>2011-10-14T05:14:51Z</time>
      </trkpt>
      <trkpt lat="31.8189105" lon="35.0039049">
        <ele>354.5</ele>
        <time>2011-10-14T05:14:59Z</time>
      </trkpt>
      <trkpt lat="31.8189798" lon="35.0035431">
        <ele>348.5</ele>
        <time>2011-10-14T05:15:07Z</time>
      </trkpt>
      <trkpt lat="31.8190149" lon="35.003284">
        <ele>345.5</ele>
        <time>2011-10-14T05:15:13Z</time>
      </trkpt>
      <trkpt lat="31.8190559" lon="35.0029627">
        <ele>344.5</ele>
        <time>2011-10-14T05:15:21Z</time>
      </trkpt>
      <trkpt lat="31.8190923" lon="35.0026615">
        <ele>343.5</ele>
        <time>2011-10-14T05:15:28Z</time>
      </trkpt>
      <trkpt lat="31.8191209" lon="35.0024714">
        <ele>340.5</ele>
        <time>2011-10-14T05:15:32Z</time>
      </trkpt>
      <trkpt lat="31.8191412" lon="35.0022779">
        <ele>337.5</ele>
        <time>2011-10-14T05:15:36Z</time>
      </trkpt>
      <trkpt lat="31.8191322" lon="35.001827">
        <ele>337.5</ele>
        <time>2011-10-14T05:15:43Z</time>
      </trkpt>
      <trkpt lat="31.8191432" lon="35.0014117">
        <ele>335.5</ele>
        <time>2011-10-14T05:15:49Z</time>
      </trkpt>
      <trkpt lat="31.8191813" lon="35.0010513">
        <ele>334.5</ele>
        <time>2011-10-14T05:15:55Z</time>
      </trkpt>
      <trkpt lat="31.8191998" lon="35.0006136">
        <ele>333.5</ele>
        <time>2011-10-14T05:16:02Z</time>
      </trkpt>
      <trkpt lat="31.8191605" lon="35.0002226">
        <ele>330.5</ele>
        <time>2011-10-14T05:16:07Z</time>
      </trkpt>
      <trkpt lat="31.8191001" lon="34.9998978">
        <ele>329.5</ele>
        <time>2011-10-14T05:16:11Z</time>
      </trkpt>
      <trkpt lat="31.8191894" lon="34.9995835">
        <ele>324.5</ele>
        <time>2011-10-14T05:16:15Z</time>
      </trkpt>
      <trkpt lat="31.819354" lon="34.9991992">
        <ele>319.5</ele>
        <time>2011-10-14T05:16:21Z</time>
      </trkpt>
      <trkpt lat="31.8194335" lon="34.9989943">
        <ele>309.5</ele>
        <time>2011-10-14T05:16:26Z</time>
      </trkpt>
      <trkpt lat="31.8195108" lon="34.99882">
        <ele>298.5</ele>
        <time>2011-10-14T05:16:35Z</time>
      </trkpt>
      <trkpt lat="31.8196314" lon="34.9987062">
        <ele>295.5</ele>
        <time>2011-10-14T05:16:41Z</time>
      </trkpt>
      <trkpt lat="31.8198566" lon="34.9986839">
        <ele>292.5</ele>
        <time>2011-10-14T05:16:48Z</time>
      </trkpt>
      <trkpt lat="31.8199893" lon="34.9987408">
        <ele>290.5</ele>
        <time>2011-10-14T05:16:53Z</time>
      </trkpt>
      <trkpt lat="31.8201442" lon="34.9988307">
        <ele>288.5</ele>
        <time>2011-10-14T05:17:00Z</time>
      </trkpt>
      <trkpt lat="31.8202831" lon="34.9989687">
        <ele>285.5</ele>
        <time>2011-10-14T05:17:07Z</time>
      </trkpt>
      <trkpt lat="31.820393" lon="34.9990724">
        <ele>283.5</ele>
        <time>2011-10-14T05:17:13Z</time>
      </trkpt>
      <trkpt lat="31.8205656" lon="34.9992382">
        <ele>284.5</ele>
        <time>2011-10-14T05:17:24Z</time>
      </trkpt>
      <trkpt lat="31.8207533" lon="34.9992846">
        <ele>290.5</ele>
        <time>2011-10-14T05:17:34Z</time>
      </trkpt>
      <trkpt lat="31.8208935" lon="34.9992538">
        <ele>292.5</ele>
        <time>2011-10-14T05:17:39Z</time>
      </trkpt>
      <trkpt lat="31.8211696" lon="34.9991171">
        <ele>295.5</ele>
        <time>2011-10-14T05:17:46Z</time>
      </trkpt>
      <trkpt lat="31.8212996" lon="34.9990426">
        <ele>296.5</ele>
        <time>2011-10-14T05:17:50Z</time>
      </trkpt>
      <trkpt lat="31.8214449" lon="34.9989515">
        <ele>296.5</ele>
        <time>2011-10-14T05:17:55Z</time>
      </trkpt>
      <trkpt lat="31.8215638" lon="34.9988733">
        <ele>296.5</ele>
        <time>2011-10-14T05:17:59Z</time>
      </trkpt>
      <trkpt lat="31.8217099" lon="34.9986881">
        <ele>292.5</ele>
        <time>2011-10-14T05:18:06Z</time>
      </trkpt>
      <trkpt lat="31.8217732" lon="34.9985658">
        <ele>292.5</ele>
        <time>2011-10-14T05:18:10Z</time>
      </trkpt>
      <trkpt lat="31.8219443" lon="34.9982721">
        <ele>293.5</ele>
        <time>2011-10-14T05:18:18Z</time>
      </trkpt>
      <trkpt lat="31.8220903" lon="34.9981078">
        <ele>290.5</ele>
        <time>2011-10-14T05:18:23Z</time>
      </trkpt>
      <trkpt lat="31.8223202" lon="34.9978499">
        <ele>282.5</ele>
        <time>2011-10-14T05:18:30Z</time>
      </trkpt>
      <trkpt lat="31.8225419" lon="34.9975959">
        <ele>275.5</ele>
        <time>2011-10-14T05:18:38Z</time>
      </trkpt>
      <trkpt lat="31.8227632" lon="34.9974948">
        <ele>272.5</ele>
        <time>2011-10-14T05:18:45Z</time>
      </trkpt>
      <trkpt lat="31.822918" lon="34.9974556">
        <ele>270.5</ele>
        <time>2011-10-14T05:18:50Z</time>
      </trkpt>
      <trkpt lat="31.8230773" lon="34.9974254">
        <ele>266.5</ele>
        <time>2011-10-14T05:18:54Z</time>
      </trkpt>
      <trkpt lat="31.823272" lon="34.9975258">
        <ele>259.5</ele>
        <time>2011-10-14T05:19:00Z</time>
      </trkpt>
      <trkpt lat="31.823344" lon="34.9976702">
        <ele>256.5</ele>
        <time>2011-10-14T05:19:05Z</time>
      </trkpt>
      <trkpt lat="31.8234142" lon="34.9978163">
        <ele>253.5</ele>
        <time>2011-10-14T05:19:10Z</time>
      </trkpt>
      <trkpt lat="31.8234993" lon="34.9979676">
        <ele>252.5</ele>
        <time>2011-10-14T05:19:14Z</time>
      </trkpt>
      <trkpt lat="31.823606" lon="34.9982787">
        <ele>250.5</ele>
        <time>2011-10-14T05:19:20Z</time>
      </trkpt>
      <trkpt lat="31.8235856" lon="34.998447">
        <ele>249.5</ele>
        <time>2011-10-14T05:19:24Z</time>
      </trkpt>
      <trkpt lat="31.8235551" lon="34.9986358">
        <ele>249.5</ele>
        <time>2011-10-14T05:19:29Z</time>
      </trkpt>
      <trkpt lat="31.8235373" lon="34.9988271">
        <ele>249.5</ele>
        <time>2011-10-14T05:19:34Z</time>
      </trkpt>
      <trkpt lat="31.823599" lon="34.9989938">
        <ele>248.5</ele>
        <time>2011-10-14T05:19:39Z</time>
      </trkpt>
      <trkpt lat="31.8238486" lon="34.9992259">
        <ele>248.5</ele>
        <time>2011-10-14T05:19:46Z</time>
      </trkpt>
      <trkpt lat="31.8239994" lon="34.9994837">
        <ele>246.5</ele>
        <time>2011-10-14T05:19:51Z</time>
      </trkpt>
      <trkpt lat="31.8241625" lon="34.9998607">
        <ele>246.5</ele>
        <time>2011-10-14T05:19:57Z</time>
      </trkpt>
      <trkpt lat="31.8242852" lon="35.0001981">
        <ele>244.5</ele>
        <time>2011-10-14T05:20:03Z</time>
      </trkpt>
      <trkpt lat="31.8243519" lon="35.000382">
        <ele>243.5</ele>
        <time>2011-10-14T05:20:07Z</time>
      </trkpt>
      <trkpt lat="31.8244014" lon="35.0005437">
        <ele>241.5</ele>
        <time>2011-10-14T05:20:11Z</time>
      </trkpt>
      <trkpt lat="31.8245381" lon="35.000846">
        <ele>239.5</ele>
        <time>2011-10-14T05:20:20Z</time>
      </trkpt>
      <trkpt lat="31.8246209" lon="35.0010197">
        <ele>239.5</ele>
        <time>2011-10-14T05:20:25Z</time>
      </trkpt>
      <trkpt lat="31.8246907" lon="35.0011663">
        <ele>239.5</ele>
        <time>2011-10-14T05:20:29Z</time>
      </trkpt>
      <trkpt lat="31.8247978" lon="35.001418">
        <ele>238.5</ele>
        <time>2011-10-14T05:20:36Z</time>
      </trkpt>
      <trkpt lat="31.8248764" lon="35.0015945">
        <ele>240.5</ele>
        <time>2011-10-14T05:20:41Z</time>
      </trkpt>
      <trkpt lat="31.8249325" lon="35.0017529">
        <ele>241.5</ele>
        <time>2011-10-14T05:20:45Z</time>
      </trkpt>
      <trkpt lat="31.8250487" lon="35.0020807">
        <ele>240.5</ele>
        <time>2011-10-14T05:20:54Z</time>
      </trkpt>
      <trkpt lat="31.825126" lon="35.002316">
        <ele>242.5</ele>
        <time>2011-10-14T05:21:01Z</time>
      </trkpt>
      <trkpt lat="31.8251849" lon="35.002584">
        <ele>243.5</ele>
        <time>2011-10-14T05:21:09Z</time>
      </trkpt>
      <trkpt lat="31.8252005" lon="35.0027786">
        <ele>244.5</ele>
        <time>2011-10-14T05:21:15Z</time>
      </trkpt>
      <trkpt lat="31.8251921" lon="35.0029379">
        <ele>246.5</ele>
        <time>2011-10-14T05:21:20Z</time>
      </trkpt>
      <trkpt lat="31.825159" lon="35.0031373">
        <ele>249.5</ele>
        <time>2011-10-14T05:21:27Z</time>
      </trkpt>
      <trkpt lat="31.8251401" lon="35.003337">
        <ele>252.5</ele>
        <time>2011-10-14T05:21:34Z</time>
      </trkpt>
      <trkpt lat="31.8251302" lon="35.003512">
        <ele>254.5</ele>
        <time>2011-10-14T05:21:39Z</time>
      </trkpt>
      <trkpt lat="31.8251146" lon="35.0036978">
        <ele>256.5</ele>
        <time>2011-10-14T05:21:44Z</time>
      </trkpt>
      <trkpt lat="31.8251007" lon="35.0038813">
        <ele>258.5</ele>
        <time>2011-10-14T05:21:49Z</time>
      </trkpt>
      <trkpt lat="31.825077" lon="35.0040496">
        <ele>259.5</ele>
        <time>2011-10-14T05:21:54Z</time>
      </trkpt>
      <trkpt lat="31.8250456" lon="35.0042151">
        <ele>262.5</ele>
        <time>2011-10-14T05:21:59Z</time>
      </trkpt>
      <trkpt lat="31.8250196" lon="35.0043947">
        <ele>265.5</ele>
        <time>2011-10-14T05:22:04Z</time>
      </trkpt>
      <trkpt lat="31.8249694" lon="35.0047238">
        <ele>266.5</ele>
        <time>2011-10-14T05:22:12Z</time>
      </trkpt>
      <trkpt lat="31.8249209" lon="35.0049315">
        <ele>266.5</ele>
        <time>2011-10-14T05:22:17Z</time>
      </trkpt>
      <trkpt lat="31.8247954" lon="35.0051415">
        <ele>264.5</ele>
        <time>2011-10-14T05:22:23Z</time>
      </trkpt>
      <trkpt lat="31.824645" lon="35.0053601">
        <ele>263.5</ele>
        <time>2011-10-14T05:22:30Z</time>
      </trkpt>
      <trkpt lat="31.8245419" lon="35.005489">
        <ele>262.5</ele>
        <time>2011-10-14T05:22:35Z</time>
      </trkpt>
      <trkpt lat="31.8244525" lon="35.00561">
        <ele>260.5</ele>
        <time>2011-10-14T05:22:40Z</time>
      </trkpt>
      <trkpt lat="31.8243365" lon="35.0057567">
        <ele>262.5</ele>
        <time>2011-10-14T05:22:47Z</time>
      </trkpt>
      <trkpt lat="31.824227" lon="35.0058908">
        <ele>263.5</ele>
        <time>2011-10-14T05:22:53Z</time>
      </trkpt>
      <trkpt lat="31.8241303" lon="35.0060152">
        <ele>266.5</ele>
        <time>2011-10-14T05:22:58Z</time>
      </trkpt>
      <trkpt lat="31.8239797" lon="35.0062401">
        <ele>266.5</ele>
        <time>2011-10-14T05:23:07Z</time>
      </trkpt>
      <trkpt lat="31.8239004" lon="35.0063805">
        <ele>266.5</ele>
        <time>2011-10-14T05:23:12Z</time>
      </trkpt>
      <trkpt lat="31.8238163" lon="35.0065425">
        <ele>264.5</ele>
        <time>2011-10-14T05:23:17Z</time>
      </trkpt>
      <trkpt lat="31.8237319" lon="35.0066856">
        <ele>265.5</ele>
        <time>2011-10-14T05:23:21Z</time>
      </trkpt>
      <trkpt lat="31.8236434" lon="35.0068404">
        <ele>264.5</ele>
        <time>2011-10-14T05:23:26Z</time>
      </trkpt>
      <trkpt lat="31.8235771" lon="35.0069805">
        <ele>263.5</ele>
        <time>2011-10-14T05:23:30Z</time>
      </trkpt>
      <trkpt lat="31.8233979" lon="35.0072585">
        <ele>264.5</ele>
        <time>2011-10-14T05:23:38Z</time>
      </trkpt>
      <trkpt lat="31.8232367" lon="35.0075004">
        <ele>266.5</ele>
        <time>2011-10-14T05:23:46Z</time>
      </trkpt>
      <trkpt lat="31.8231126" lon="35.007703">
        <ele>266.5</ele>
        <time>2011-10-14T05:23:53Z</time>
      </trkpt>
      <trkpt lat="31.8230286" lon="35.0078523">
        <ele>266.5</ele>
        <time>2011-10-14T05:23:58Z</time>
      </trkpt>
      <trkpt lat="31.8229531" lon="35.008001">
        <ele>267.5</ele>
        <time>2011-10-14T05:24:03Z</time>
      </trkpt>
      <trkpt lat="31.8228823" lon="35.0081676">
        <ele>266.5</ele>
        <time>2011-10-14T05:24:08Z</time>
      </trkpt>
      <trkpt lat="31.8228043" lon="35.0083774">
        <ele>266.5</ele>
        <time>2011-10-14T05:24:14Z</time>
      </trkpt>
      <trkpt lat="31.8227455" lon="35.0085467">
        <ele>266.5</ele>
        <time>2011-10-14T05:24:19Z</time>
      </trkpt>
      <trkpt lat="31.8226948" lon="35.0087002">
        <ele>266.5</ele>
        <time>2011-10-14T05:24:24Z</time>
      </trkpt>
      <trkpt lat="31.8226219" lon="35.0088551">
        <ele>266.5</ele>
        <time>2011-10-14T05:24:29Z</time>
      </trkpt>
      <trkpt lat="31.8225328" lon="35.0089986">
        <ele>267.5</ele>
        <time>2011-10-14T05:24:34Z</time>
      </trkpt>
      <trkpt lat="31.8224325" lon="35.0091209">
        <ele>267.5</ele>
        <time>2011-10-14T05:24:39Z</time>
      </trkpt>
      <trkpt lat="31.8223025" lon="35.0092329">
        <ele>267.5</ele>
        <time>2011-10-14T05:24:45Z</time>
      </trkpt>
      <trkpt lat="31.8221763" lon="35.009319">
        <ele>269.5</ele>
        <time>2011-10-14T05:24:51Z</time>
      </trkpt>
      <trkpt lat="31.8220534" lon="35.0093941">
        <ele>268.5</ele>
        <time>2011-10-14T05:24:57Z</time>
      </trkpt>
      <trkpt lat="31.8219322" lon="35.0094797">
        <ele>268.5</ele>
        <time>2011-10-14T05:25:03Z</time>
      </trkpt>
      <trkpt lat="31.8218088" lon="35.0095747">
        <ele>270.5</ele>
        <time>2011-10-14T05:25:09Z</time>
      </trkpt>
      <trkpt lat="31.8216906" lon="35.0096858">
        <ele>269.5</ele>
        <time>2011-10-14T05:25:16Z</time>
      </trkpt>
      <trkpt lat="31.8216038" lon="35.009815">
        <ele>270.5</ele>
        <time>2011-10-14T05:25:23Z</time>
      </trkpt>
      <trkpt lat="31.8215338" lon="35.0099631">
        <ele>270.5</ele>
        <time>2011-10-14T05:25:30Z</time>
      </trkpt>
      <trkpt lat="31.8215136" lon="35.0101336">
        <ele>274.5</ele>
        <time>2011-10-14T05:25:37Z</time>
      </trkpt>
      <trkpt lat="31.8215265" lon="35.0103093">
        <ele>277.5</ele>
        <time>2011-10-14T05:25:43Z</time>
      </trkpt>
      <trkpt lat="31.8215639" lon="35.0104841">
        <ele>279.5</ele>
        <time>2011-10-14T05:25:49Z</time>
      </trkpt>
      <trkpt lat="31.821619" lon="35.0106291">
        <ele>281.5</ele>
        <time>2011-10-14T05:25:54Z</time>
      </trkpt>
      <trkpt lat="31.821727" lon="35.0109281">
        <ele>282.5</ele>
        <time>2011-10-14T05:26:01Z</time>
      </trkpt>
      <trkpt lat="31.8218139" lon="35.0112668">
        <ele>283.5</ele>
        <time>2011-10-14T05:26:07Z</time>
      </trkpt>
      <trkpt lat="31.8219098" lon="35.0116255">
        <ele>281.5</ele>
        <time>2011-10-14T05:26:14Z</time>
      </trkpt>
      <trkpt lat="31.8220028" lon="35.0119539">
        <ele>283.5</ele>
        <time>2011-10-14T05:26:22Z</time>
      </trkpt>
      <trkpt lat="31.8220211" lon="35.012147">
        <ele>283.5</ele>
        <time>2011-10-14T05:26:27Z</time>
      </trkpt>
      <trkpt lat="31.8219691" lon="35.0124813">
        <ele>282.5</ele>
        <time>2011-10-14T05:26:35Z</time>
      </trkpt>
      <trkpt lat="31.8219469" lon="35.012641">
        <ele>283.5</ele>
        <time>2011-10-14T05:26:39Z</time>
      </trkpt>
      <trkpt lat="31.8218763" lon="35.0129639">
        <ele>284.5</ele>
        <time>2011-10-14T05:26:47Z</time>
      </trkpt>
      <trkpt lat="31.821775" lon="35.0133097">
        <ele>281.5</ele>
        <time>2011-10-14T05:26:55Z</time>
      </trkpt>
      <trkpt lat="31.8217405" lon="35.0134775">
        <ele>280.5</ele>
        <time>2011-10-14T05:26:59Z</time>
      </trkpt>
      <trkpt lat="31.8217185" lon="35.0136482">
        <ele>280.5</ele>
        <time>2011-10-14T05:27:03Z</time>
      </trkpt>
      <trkpt lat="31.8216998" lon="35.0138142">
        <ele>279.5</ele>
        <time>2011-10-14T05:27:07Z</time>
      </trkpt>
      <trkpt lat="31.8216656" lon="35.0140016">
        <ele>279.5</ele>
        <time>2011-10-14T05:27:12Z</time>
      </trkpt>
      <trkpt lat="31.8216151" lon="35.0141665">
        <ele>279.5</ele>
        <time>2011-10-14T05:27:17Z</time>
      </trkpt>
      <trkpt lat="31.8215469" lon="35.014312">
        <ele>279.5</ele>
        <time>2011-10-14T05:27:22Z</time>
      </trkpt>
      <trkpt lat="31.82145" lon="35.0144279">
        <ele>279.5</ele>
        <time>2011-10-14T05:27:27Z</time>
      </trkpt>
      <trkpt lat="31.8212953" lon="35.0145711">
        <ele>280.5</ele>
        <time>2011-10-14T05:27:35Z</time>
      </trkpt>
      <trkpt lat="31.8211516" lon="35.014693">
        <ele>280.5</ele>
        <time>2011-10-14T05:27:42Z</time>
      </trkpt>
      <trkpt lat="31.8210103" lon="35.0148034">
        <ele>280.5</ele>
        <time>2011-10-14T05:27:49Z</time>
      </trkpt>
      <trkpt lat="31.8208784" lon="35.0148915">
        <ele>279.5</ele>
        <time>2011-10-14T05:27:56Z</time>
      </trkpt>
      <trkpt lat="31.8207482" lon="35.0149622">
        <ele>279.5</ele>
        <time>2011-10-14T05:28:02Z</time>
      </trkpt>
      <trkpt lat="31.8206211" lon="35.0150499">
        <ele>282.5</ele>
        <time>2011-10-14T05:28:08Z</time>
      </trkpt>
      <trkpt lat="31.8205079" lon="35.0151739">
        <ele>281.5</ele>
        <time>2011-10-14T05:28:14Z</time>
      </trkpt>
      <trkpt lat="31.8204398" lon="35.0153357">
        <ele>280.5</ele>
        <time>2011-10-14T05:28:20Z</time>
      </trkpt>
      <trkpt lat="31.8204491" lon="35.0155129">
        <ele>280.5</ele>
        <time>2011-10-14T05:28:26Z</time>
      </trkpt>
      <trkpt lat="31.820502" lon="35.0156641">
        <ele>281.5</ele>
        <time>2011-10-14T05:28:32Z</time>
      </trkpt>
      <trkpt lat="31.820615" lon="35.015781">
        <ele>283.5</ele>
        <time>2011-10-14T05:28:39Z</time>
      </trkpt>
      <trkpt lat="31.8207421" lon="35.015893">
        <ele>284.5</ele>
        <time>2011-10-14T05:28:45Z</time>
      </trkpt>
      <trkpt lat="31.820839" lon="35.0160217">
        <ele>286.5</ele>
        <time>2011-10-14T05:28:50Z</time>
      </trkpt>
      <trkpt lat="31.8208676" lon="35.0161934">
        <ele>286.5</ele>
        <time>2011-10-14T05:28:55Z</time>
      </trkpt>
      <trkpt lat="31.8208323" lon="35.0163469">
        <ele>286.5</ele>
        <time>2011-10-14T05:29:00Z</time>
      </trkpt>
      <trkpt lat="31.8207273" lon="35.0164875">
        <ele>286.5</ele>
        <time>2011-10-14T05:29:06Z</time>
      </trkpt>
      <trkpt lat="31.8206131" lon="35.0165979">
        <ele>284.5</ele>
        <time>2011-10-14T05:29:12Z</time>
      </trkpt>
      <trkpt lat="31.8204856" lon="35.0167025">
        <ele>284.5</ele>
        <time>2011-10-14T05:29:19Z</time>
      </trkpt>
      <trkpt lat="31.8203566" lon="35.0167924">
        <ele>282.5</ele>
        <time>2011-10-14T05:29:26Z</time>
      </trkpt>
      <trkpt lat="31.820225" lon="35.0168736">
        <ele>284.5</ele>
        <time>2011-10-14T05:29:33Z</time>
      </trkpt>
      <trkpt lat="31.8201049" lon="35.0169819">
        <ele>284.5</ele>
        <time>2011-10-14T05:29:40Z</time>
      </trkpt>
      <trkpt lat="31.8199858" lon="35.0170928">
        <ele>284.5</ele>
        <time>2011-10-14T05:29:47Z</time>
      </trkpt>
      <trkpt lat="31.8198634" lon="35.0172012">
        <ele>284.5</ele>
        <time>2011-10-14T05:29:53Z</time>
      </trkpt>
      <trkpt lat="31.8197673" lon="35.0173144">
        <ele>287.5</ele>
        <time>2011-10-14T05:29:59Z</time>
      </trkpt>
      <trkpt lat="31.8196694" lon="35.0174391">
        <ele>290.5</ele>
        <time>2011-10-14T05:30:06Z</time>
      </trkpt>
      <trkpt lat="31.819657" lon="35.0176071">
        <ele>292.5</ele>
        <time>2011-10-14T05:30:15Z</time>
      </trkpt>
      <trkpt lat="31.8197908" lon="35.0176761">
        <ele>294.5</ele>
        <time>2011-10-14T05:30:20Z</time>
      </trkpt>
      <trkpt lat="31.8199523" lon="35.0177572">
        <ele>295.5</ele>
        <time>2011-10-14T05:30:24Z</time>
      </trkpt>
      <trkpt lat="31.8202376" lon="35.017943">
        <ele>294.5</ele>
        <time>2011-10-14T05:30:30Z</time>
      </trkpt>
      <trkpt lat="31.8203683" lon="35.0181757">
        <ele>291.5</ele>
        <time>2011-10-14T05:30:35Z</time>
      </trkpt>
      <trkpt lat="31.8204133" lon="35.0185595">
        <ele>291.5</ele>
        <time>2011-10-14T05:30:41Z</time>
      </trkpt>
      <trkpt lat="31.820531" lon="35.0188411">
        <ele>289.5</ele>
        <time>2011-10-14T05:30:46Z</time>
      </trkpt>
      <trkpt lat="31.8207241" lon="35.0191791">
        <ele>289.5</ele>
        <time>2011-10-14T05:30:57Z</time>
      </trkpt>
      <trkpt lat="31.8208374" lon="35.0193034">
        <ele>286.5</ele>
        <time>2011-10-14T05:31:02Z</time>
      </trkpt>
      <trkpt lat="31.8209614" lon="35.0193742">
        <ele>285.5</ele>
        <time>2011-10-14T05:31:12Z</time>
      </trkpt>
      <trkpt lat="31.8211086" lon="35.0193823">
        <ele>283.5</ele>
        <time>2011-10-14T05:31:21Z</time>
      </trkpt>
      <trkpt lat="31.821236" lon="35.0192783">
        <ele>282.5</ele>
        <time>2011-10-14T05:31:27Z</time>
      </trkpt>
      <trkpt lat="31.8213306" lon="35.0191195">
        <ele>280.5</ele>
        <time>2011-10-14T05:31:32Z</time>
      </trkpt>
      <trkpt lat="31.8214121" lon="35.0189414">
        <ele>280.5</ele>
        <time>2011-10-14T05:31:37Z</time>
      </trkpt>
      <trkpt lat="31.82147" lon="35.0187454">
        <ele>281.5</ele>
        <time>2011-10-14T05:31:41Z</time>
      </trkpt>
      <trkpt lat="31.8215457" lon="35.0184356">
        <ele>282.5</ele>
        <time>2011-10-14T05:31:47Z</time>
      </trkpt>
      <trkpt lat="31.8215925" lon="35.0182405">
        <ele>284.5</ele>
        <time>2011-10-14T05:31:51Z</time>
      </trkpt>
      <trkpt lat="31.8216476" lon="35.0180569">
        <ele>284.5</ele>
        <time>2011-10-14T05:31:55Z</time>
      </trkpt>
      <trkpt lat="31.8217884" lon="35.0176977">
        <ele>282.5</ele>
        <time>2011-10-14T05:32:03Z</time>
      </trkpt>
      <trkpt lat="31.8218922" lon="35.0175587">
        <ele>283.5</ele>
        <time>2011-10-14T05:32:08Z</time>
      </trkpt>
      <trkpt lat="31.8220932" lon="35.0175966">
        <ele>285.5</ele>
        <time>2011-10-14T05:32:16Z</time>
      </trkpt>
      <trkpt lat="31.8222145" lon="35.0176768">
        <ele>282.5</ele>
        <time>2011-10-14T05:32:22Z</time>
      </trkpt>
      <trkpt lat="31.8222406" lon="35.0178449">
        <ele>282.5</ele>
        <time>2011-10-14T05:32:27Z</time>
      </trkpt>
      <trkpt lat="31.822273" lon="35.0180169">
        <ele>281.5</ele>
        <time>2011-10-14T05:32:34Z</time>
      </trkpt>
      <trkpt lat="31.8222019" lon="35.0182032">
        <ele>276.5</ele>
        <time>2011-10-14T05:33:44Z</time>
      </trkpt>
      <trkpt lat="31.8221694" lon="35.0183848">
        <ele>275.5</ele>
        <time>2011-10-14T05:33:50Z</time>
      </trkpt>
      <trkpt lat="31.8221246" lon="35.0186245">
        <ele>274.5</ele>
        <time>2011-10-14T05:33:59Z</time>
      </trkpt>
      <trkpt lat="31.8220849" lon="35.0187947">
        <ele>276.5</ele>
        <time>2011-10-14T05:34:06Z</time>
      </trkpt>
      <trkpt lat="31.8220391" lon="35.018948">
        <ele>277.5</ele>
        <time>2011-10-14T05:34:12Z</time>
      </trkpt>
      <trkpt lat="31.8219852" lon="35.0191014">
        <ele>278.5</ele>
        <time>2011-10-14T05:34:18Z</time>
      </trkpt>
      <trkpt lat="31.8219304" lon="35.0192595">
        <ele>278.5</ele>
        <time>2011-10-14T05:34:24Z</time>
      </trkpt>
      <trkpt lat="31.8218331" lon="35.0195057">
        <ele>280.5</ele>
        <time>2011-10-14T05:34:34Z</time>
      </trkpt>
      <trkpt lat="31.8217659" lon="35.019652">
        <ele>277.5</ele>
        <time>2011-10-14T05:34:41Z</time>
      </trkpt>
      <trkpt lat="31.821705" lon="35.0198431">
        <ele>276.5</ele>
        <time>2011-10-14T05:34:50Z</time>
      </trkpt>
      <trkpt lat="31.8216835" lon="35.0200052">
        <ele>278.5</ele>
        <time>2011-10-14T05:34:57Z</time>
      </trkpt>
      <trkpt lat="31.821603" lon="35.0201758">
        <ele>280.5</ele>
        <time>2011-10-14T05:35:05Z</time>
      </trkpt>
      <trkpt lat="31.821476" lon="35.0203009">
        <ele>282.5</ele>
        <time>2011-10-14T05:35:12Z</time>
      </trkpt>
      <trkpt lat="31.8213666" lon="35.0203991">
        <ele>281.5</ele>
        <time>2011-10-14T05:35:18Z</time>
      </trkpt>
      <trkpt lat="31.8212256" lon="35.0205175">
        <ele>284.5</ele>
        <time>2011-10-14T05:35:26Z</time>
      </trkpt>
      <trkpt lat="31.8211784" lon="35.0206714">
        <ele>283.5</ele>
        <time>2011-10-14T05:35:33Z</time>
      </trkpt>
      <trkpt lat="31.8211733" lon="35.020836">
        <ele>283.5</ele>
        <time>2011-10-14T05:35:39Z</time>
      </trkpt>
      <trkpt lat="31.8210497" lon="35.0209393">
        <ele>283.5</ele>
        <time>2011-10-14T05:35:47Z</time>
      </trkpt>
      <trkpt lat="31.8209087" lon="35.0209432">
        <ele>282.5</ele>
        <time>2011-10-14T05:35:54Z</time>
      </trkpt>
      <trkpt lat="31.8207712" lon="35.0210183">
        <ele>283.5</ele>
        <time>2011-10-14T05:36:02Z</time>
      </trkpt>
      <trkpt lat="31.8206717" lon="35.0211389">
        <ele>283.5</ele>
        <time>2011-10-14T05:36:09Z</time>
      </trkpt>
      <trkpt lat="31.820575" lon="35.0212743">
        <ele>283.5</ele>
        <time>2011-10-14T05:36:17Z</time>
      </trkpt>
      <trkpt lat="31.8204692" lon="35.0214034">
        <ele>285.5</ele>
        <time>2011-10-14T05:36:25Z</time>
      </trkpt>
      <trkpt lat="31.8203646" lon="35.0215096">
        <ele>284.5</ele>
        <time>2011-10-14T05:36:32Z</time>
      </trkpt>
      <trkpt lat="31.8202556" lon="35.0216094">
        <ele>284.5</ele>
        <time>2011-10-14T05:36:40Z</time>
      </trkpt>
      <trkpt lat="31.8201365" lon="35.0217085">
        <ele>283.5</ele>
        <time>2011-10-14T05:36:48Z</time>
      </trkpt>
      <trkpt lat="31.8200093" lon="35.0218094">
        <ele>284.5</ele>
        <time>2011-10-14T05:36:55Z</time>
      </trkpt>
      <trkpt lat="31.8199075" lon="35.0219403">
        <ele>284.5</ele>
        <time>2011-10-14T05:37:02Z</time>
      </trkpt>
      <trkpt lat="31.8198087" lon="35.0220735">
        <ele>284.5</ele>
        <time>2011-10-14T05:37:10Z</time>
      </trkpt>
      <trkpt lat="31.8196906" lon="35.0221952">
        <ele>285.5</ele>
        <time>2011-10-14T05:37:18Z</time>
      </trkpt>
      <trkpt lat="31.8195953" lon="35.0223298">
        <ele>286.5</ele>
        <time>2011-10-14T05:37:25Z</time>
      </trkpt>
      <trkpt lat="31.8194789" lon="35.0224486">
        <ele>287.5</ele>
        <time>2011-10-14T05:37:32Z</time>
      </trkpt>
      <trkpt lat="31.8193655" lon="35.0225444">
        <ele>287.5</ele>
        <time>2011-10-14T05:37:38Z</time>
      </trkpt>
      <trkpt lat="31.8193007" lon="35.0226847">
        <ele>288.5</ele>
        <time>2011-10-14T05:37:44Z</time>
      </trkpt>
      <trkpt lat="31.819244" lon="35.0228391">
        <ele>289.5</ele>
        <time>2011-10-14T05:37:50Z</time>
      </trkpt>
      <trkpt lat="31.8191794" lon="35.0229911">
        <ele>291.5</ele>
        <time>2011-10-14T05:37:56Z</time>
      </trkpt>
      <trkpt lat="31.8191137" lon="35.0231539">
        <ele>292.5</ele>
        <time>2011-10-14T05:38:03Z</time>
      </trkpt>
      <trkpt lat="31.8190548" lon="35.023308">
        <ele>293.5</ele>
        <time>2011-10-14T05:38:10Z</time>
      </trkpt>
      <trkpt lat="31.8190066" lon="35.0234578">
        <ele>293.5</ele>
        <time>2011-10-14T05:38:17Z</time>
      </trkpt>
      <trkpt lat="31.8190036" lon="35.0236211">
        <ele>293.5</ele>
        <time>2011-10-14T05:38:24Z</time>
      </trkpt>
      <trkpt lat="31.8190161" lon="35.0237892">
        <ele>294.5</ele>
        <time>2011-10-14T05:38:31Z</time>
      </trkpt>
      <trkpt lat="31.8190242" lon="35.0239629">
        <ele>296.5</ele>
        <time>2011-10-14T05:38:38Z</time>
      </trkpt>
      <trkpt lat="31.8190438" lon="35.0241468">
        <ele>297.5</ele>
        <time>2011-10-14T05:38:45Z</time>
      </trkpt>
      <trkpt lat="31.8190507" lon="35.0243211">
        <ele>297.5</ele>
        <time>2011-10-14T05:38:52Z</time>
      </trkpt>
      <trkpt lat="31.8191019" lon="35.0244715">
        <ele>298.5</ele>
        <time>2011-10-14T05:39:00Z</time>
      </trkpt>
      <trkpt lat="31.8191837" lon="35.0246014">
        <ele>300.5</ele>
        <time>2011-10-14T05:39:08Z</time>
      </trkpt>
      <trkpt lat="31.8192582" lon="35.0247398">
        <ele>300.5</ele>
        <time>2011-10-14T05:39:16Z</time>
      </trkpt>
      <trkpt lat="31.8193348" lon="35.0248913">
        <ele>302.5</ele>
        <time>2011-10-14T05:39:24Z</time>
      </trkpt>
      <trkpt lat="31.8194007" lon="35.025039">
        <ele>302.5</ele>
        <time>2011-10-14T05:39:32Z</time>
      </trkpt>
      <trkpt lat="31.8194767" lon="35.0251791">
        <ele>303.5</ele>
        <time>2011-10-14T05:39:40Z</time>
      </trkpt>
      <trkpt lat="31.8195665" lon="35.0253181">
        <ele>304.5</ele>
        <time>2011-10-14T05:39:48Z</time>
      </trkpt>
      <trkpt lat="31.8196826" lon="35.0254189">
        <ele>306.5</ele>
        <time>2011-10-14T05:39:56Z</time>
      </trkpt>
      <trkpt lat="31.8198185" lon="35.0254763">
        <ele>308.5</ele>
        <time>2011-10-14T05:40:04Z</time>
      </trkpt>
      <trkpt lat="31.8199636" lon="35.025526">
        <ele>310.5</ele>
        <time>2011-10-14T05:40:13Z</time>
      </trkpt>
      <trkpt lat="31.8201003" lon="35.0255661">
        <ele>313.5</ele>
        <time>2011-10-14T05:40:21Z</time>
      </trkpt>
      <trkpt lat="31.8202474" lon="35.025608">
        <ele>314.5</ele>
        <time>2011-10-14T05:40:28Z</time>
      </trkpt>
      <trkpt lat="31.8203886" lon="35.0256528">
        <ele>315.5</ele>
        <time>2011-10-14T05:40:35Z</time>
      </trkpt>
      <trkpt lat="31.8205275" lon="35.0257151">
        <ele>317.5</ele>
        <time>2011-10-14T05:40:42Z</time>
      </trkpt>
      <trkpt lat="31.8206552" lon="35.0257707">
        <ele>316.5</ele>
        <time>2011-10-14T05:40:47Z</time>
      </trkpt>
      <trkpt lat="31.8208038" lon="35.0258752">
        <ele>316.5</ele>
        <time>2011-10-14T05:40:52Z</time>
      </trkpt>
      <trkpt lat="31.8211029" lon="35.0260776">
        <ele>316.5</ele>
        <time>2011-10-14T05:41:00Z</time>
      </trkpt>
      <trkpt lat="31.8213985" lon="35.0262466">
        <ele>316.5</ele>
        <time>2011-10-14T05:41:06Z</time>
      </trkpt>
      <trkpt lat="31.8217353" lon="35.0264245">
        <ele>316.5</ele>
        <time>2011-10-14T05:41:12Z</time>
      </trkpt>
      <trkpt lat="31.8220536" lon="35.0265916">
        <ele>317.5</ele>
        <time>2011-10-14T05:41:18Z</time>
      </trkpt>
      <trkpt lat="31.8223774" lon="35.02676">
        <ele>316.5</ele>
        <time>2011-10-14T05:41:23Z</time>
      </trkpt>
      <trkpt lat="31.8227295" lon="35.0269455">
        <ele>317.5</ele>
        <time>2011-10-14T05:41:28Z</time>
      </trkpt>
      <trkpt lat="31.823027" lon="35.0271101">
        <ele>317.5</ele>
        <time>2011-10-14T05:41:33Z</time>
      </trkpt>
      <trkpt lat="31.8233118" lon="35.0273388">
        <ele>317.5</ele>
        <time>2011-10-14T05:41:42Z</time>
      </trkpt>
      <trkpt lat="31.8235245" lon="35.0275558">
        <ele>319.5</ele>
        <time>2011-10-14T05:41:50Z</time>
      </trkpt>
      <trkpt lat="31.8236312" lon="35.0276757">
        <ele>319.5</ele>
        <time>2011-10-14T05:41:54Z</time>
      </trkpt>
      <trkpt lat="31.8237622" lon="35.0278204">
        <ele>318.5</ele>
        <time>2011-10-14T05:41:59Z</time>
      </trkpt>
      <trkpt lat="31.8238918" lon="35.0279682">
        <ele>317.5</ele>
        <time>2011-10-14T05:42:04Z</time>
      </trkpt>
      <trkpt lat="31.8239943" lon="35.0280908">
        <ele>315.5</ele>
        <time>2011-10-14T05:42:08Z</time>
      </trkpt>
      <trkpt lat="31.8242038" lon="35.0283363">
        <ele>315.5</ele>
        <time>2011-10-14T05:42:16Z</time>
      </trkpt>
      <trkpt lat="31.824404" lon="35.0285772">
        <ele>314.5</ele>
        <time>2011-10-14T05:42:24Z</time>
      </trkpt>
      <trkpt lat="31.8245208" lon="35.0287202">
        <ele>314.5</ele>
        <time>2011-10-14T05:42:29Z</time>
      </trkpt>
      <trkpt lat="31.8247179" lon="35.0289467">
        <ele>314.5</ele>
        <time>2011-10-14T05:42:37Z</time>
      </trkpt>
      <trkpt lat="31.8248428" lon="35.0290943">
        <ele>313.5</ele>
        <time>2011-10-14T05:42:42Z</time>
      </trkpt>
      <trkpt lat="31.8249599" lon="35.0292354">
        <ele>313.5</ele>
        <time>2011-10-14T05:42:47Z</time>
      </trkpt>
      <trkpt lat="31.8250839" lon="35.0293669">
        <ele>313.5</ele>
        <time>2011-10-14T05:42:52Z</time>
      </trkpt>
      <trkpt lat="31.8252053" lon="35.0295008">
        <ele>314.5</ele>
        <time>2011-10-14T05:42:57Z</time>
      </trkpt>
      <trkpt lat="31.8253228" lon="35.029634">
        <ele>314.5</ele>
        <time>2011-10-14T05:43:02Z</time>
      </trkpt>
      <trkpt lat="31.8254433" lon="35.0297636">
        <ele>314.5</ele>
        <time>2011-10-14T05:43:07Z</time>
      </trkpt>
      <trkpt lat="31.8255542" lon="35.0298871">
        <ele>314.5</ele>
        <time>2011-10-14T05:43:12Z</time>
      </trkpt>
      <trkpt lat="31.8256637" lon="35.0300084">
        <ele>314.5</ele>
        <time>2011-10-14T05:43:17Z</time>
      </trkpt>
      <trkpt lat="31.8257763" lon="35.0301404">
        <ele>315.5</ele>
        <time>2011-10-14T05:43:22Z</time>
      </trkpt>
      <trkpt lat="31.8258928" lon="35.0302785">
        <ele>315.5</ele>
        <time>2011-10-14T05:43:27Z</time>
      </trkpt>
      <trkpt lat="31.8260084" lon="35.0304146">
        <ele>316.5</ele>
        <time>2011-10-14T05:43:32Z</time>
      </trkpt>
      <trkpt lat="31.8261207" lon="35.0305464">
        <ele>317.5</ele>
        <time>2011-10-14T05:43:37Z</time>
      </trkpt>
      <trkpt lat="31.8262466" lon="35.0306749">
        <ele>317.5</ele>
        <time>2011-10-14T05:43:42Z</time>
      </trkpt>
      <trkpt lat="31.8264287" lon="35.0307902">
        <ele>319.5</ele>
        <time>2011-10-14T05:43:48Z</time>
      </trkpt>
      <trkpt lat="31.826673" lon="35.0308663">
        <ele>319.5</ele>
        <time>2011-10-14T05:43:54Z</time>
      </trkpt>
      <trkpt lat="31.826984" lon="35.0309243">
        <ele>320.5</ele>
        <time>2011-10-14T05:44:02Z</time>
      </trkpt>
      <trkpt lat="31.8271865" lon="35.0310959">
        <ele>320.5</ele>
        <time>2011-10-14T05:44:13Z</time>
      </trkpt>
      <trkpt lat="31.8272159" lon="35.0313166">
        <ele>320.5</ele>
        <time>2011-10-14T05:44:20Z</time>
      </trkpt>
      <trkpt lat="31.8272559" lon="35.0315418">
        <ele>321.5</ele>
        <time>2011-10-14T05:44:27Z</time>
      </trkpt>
      <trkpt lat="31.8272884" lon="35.0317249">
        <ele>321.5</ele>
        <time>2011-10-14T05:44:33Z</time>
      </trkpt>
      <trkpt lat="31.8273142" lon="35.0319121">
        <ele>320.5</ele>
        <time>2011-10-14T05:44:39Z</time>
      </trkpt>
      <trkpt lat="31.8273344" lon="35.0320814">
        <ele>320.5</ele>
        <time>2011-10-14T05:44:45Z</time>
      </trkpt>
      <trkpt lat="31.8273633" lon="35.0322344">
        <ele>320.5</ele>
        <time>2011-10-14T05:44:51Z</time>
      </trkpt>
      <trkpt lat="31.8273836" lon="35.0324338">
        <ele>321.5</ele>
        <time>2011-10-14T05:44:58Z</time>
      </trkpt>
      <trkpt lat="31.8274004" lon="35.0326391">
        <ele>324.5</ele>
        <time>2011-10-14T05:45:05Z</time>
      </trkpt>
      <trkpt lat="31.8273987" lon="35.0327992">
        <ele>326.5</ele>
        <time>2011-10-14T05:45:10Z</time>
      </trkpt>
      <trkpt lat="31.8273903" lon="35.0329727">
        <ele>327.5</ele>
        <time>2011-10-14T05:45:15Z</time>
      </trkpt>
      <trkpt lat="31.827378" lon="35.033131">
        <ele>329.5</ele>
        <time>2011-10-14T05:45:20Z</time>
      </trkpt>
      <trkpt lat="31.8273547" lon="35.0333015">
        <ele>329.5</ele>
        <time>2011-10-14T05:45:26Z</time>
      </trkpt>
      <trkpt lat="31.8273453" lon="35.0335521">
        <ele>329.5</ele>
        <time>2011-10-14T05:45:36Z</time>
      </trkpt>
      <trkpt lat="31.8272826" lon="35.0338385">
        <ele>331.5</ele>
        <time>2011-10-14T05:45:47Z</time>
      </trkpt>
      <trkpt lat="31.827241" lon="35.0340193">
        <ele>331.5</ele>
        <time>2011-10-14T05:45:53Z</time>
      </trkpt>
      <trkpt lat="31.8271875" lon="35.0342145">
        <ele>332.5</ele>
        <time>2011-10-14T05:46:00Z</time>
      </trkpt>
      <trkpt lat="31.8271334" lon="35.0343988">
        <ele>333.5</ele>
        <time>2011-10-14T05:46:07Z</time>
      </trkpt>
      <trkpt lat="31.8270518" lon="35.0345824">
        <ele>334.5</ele>
        <time>2011-10-14T05:46:14Z</time>
      </trkpt>
      <trkpt lat="31.8269792" lon="35.0347282">
        <ele>335.5</ele>
        <time>2011-10-14T05:46:20Z</time>
      </trkpt>
      <trkpt lat="31.82689" lon="35.0349494">
        <ele>334.5</ele>
        <time>2011-10-14T05:46:29Z</time>
      </trkpt>
      <trkpt lat="31.8268755" lon="35.0351092">
        <ele>332.5</ele>
        <time>2011-10-14T05:46:36Z</time>
      </trkpt>
      <trkpt lat="31.8268707" lon="35.0352771">
        <ele>334.5</ele>
        <time>2011-10-14T05:46:44Z</time>
      </trkpt>
      <trkpt lat="31.8268793" lon="35.0354452">
        <ele>334.5</ele>
        <time>2011-10-14T05:46:53Z</time>
      </trkpt>
      <trkpt lat="31.8268475" lon="35.0356126">
        <ele>335.5</ele>
        <time>2011-10-14T05:47:01Z</time>
      </trkpt>
      <trkpt lat="31.8268302" lon="35.0357836">
        <ele>338.5</ele>
        <time>2011-10-14T05:47:10Z</time>
      </trkpt>
      <trkpt lat="31.8268178" lon="35.0358922">
        <ele>340.5</ele>
        <time>2011-10-14T05:47:15Z</time>
      </trkpt>
      <trkpt lat="31.8268047" lon="35.0360615">
        <ele>340.5</ele>
        <time>2011-10-14T05:47:23Z</time>
      </trkpt>
      <trkpt lat="31.8268035" lon="35.0363085">
        <ele>339.5</ele>
        <time>2011-10-14T05:47:35Z</time>
      </trkpt>
      <trkpt lat="31.8268399" lon="35.0364716">
        <ele>340.5</ele>
        <time>2011-10-14T05:47:47Z</time>
      </trkpt>
      <trkpt lat="31.8269848" lon="35.0366003">
        <ele>338.5</ele>
        <time>2011-10-14T05:48:03Z</time>
      </trkpt>
      <trkpt lat="31.8271147" lon="35.0366691">
        <ele>337.5</ele>
        <time>2011-10-14T05:48:14Z</time>
      </trkpt>
      <trkpt lat="31.8272367" lon="35.036773">
        <ele>340.5</ele>
        <time>2011-10-14T05:48:25Z</time>
      </trkpt>
      <trkpt lat="31.8273809" lon="35.0369183">
        <ele>343.5</ele>
        <time>2011-10-14T05:48:36Z</time>
      </trkpt>
      <trkpt lat="31.8275212" lon="35.0370735">
        <ele>344.5</ele>
        <time>2011-10-14T05:48:48Z</time>
      </trkpt>
      <trkpt lat="31.8275999" lon="35.0372137">
        <ele>348.5</ele>
        <time>2011-10-14T05:49:01Z</time>
      </trkpt>
      <trkpt lat="31.8276272" lon="35.0373909">
        <ele>354.5</ele>
        <time>2011-10-14T05:49:24Z</time>
      </trkpt>
      <trkpt lat="31.827718" lon="35.0375347">
        <ele>352.5</ele>
        <time>2011-10-14T05:49:36Z</time>
      </trkpt>
      <trkpt lat="31.82779" lon="35.0376862">
        <ele>344.5</ele>
        <time>2011-10-14T05:49:48Z</time>
      </trkpt>
      <trkpt lat="31.8278718" lon="35.0378506">
        <ele>347.5</ele>
        <time>2011-10-14T05:50:00Z</time>
      </trkpt>
      <trkpt lat="31.8279475" lon="35.0379846">
        <ele>348.5</ele>
        <time>2011-10-14T05:50:09Z</time>
      </trkpt>
      <trkpt lat="31.8280267" lon="35.0381689">
        <ele>348.5</ele>
        <time>2011-10-14T05:50:21Z</time>
      </trkpt>
      <trkpt lat="31.8280296" lon="35.0383524">
        <ele>351.5</ele>
        <time>2011-10-14T05:50:33Z</time>
      </trkpt>
      <trkpt lat="31.8280077" lon="35.038527">
        <ele>358.5</ele>
        <time>2011-10-14T05:50:45Z</time>
      </trkpt>
      <trkpt lat="31.8279355" lon="35.0386667">
        <ele>363.5</ele>
        <time>2011-10-14T05:50:56Z</time>
      </trkpt>
      <trkpt lat="31.8278073" lon="35.0387489">
        <ele>364.5</ele>
        <time>2011-10-14T05:51:07Z</time>
      </trkpt>
      <trkpt lat="31.8276727" lon="35.0387756">
        <ele>381.5</ele>
        <time>2011-10-14T05:52:32Z</time>
      </trkpt>
      <trkpt lat="31.8276694" lon="35.0387738">
        <ele>381.5</ele>
        <time>2011-10-14T05:52:36Z</time>
      </trkpt>
      <trkpt lat="31.8275269" lon="35.0387642">
        <ele>382.5</ele>
        <time>2011-10-14T05:52:48Z</time>
      </trkpt>
      <trkpt lat="31.8274267" lon="35.0388753">
        <ele>384.5</ele>
        <time>2011-10-14T05:52:58Z</time>
      </trkpt>
      <trkpt lat="31.8274272" lon="35.0390043">
        <ele>384.5</ele>
        <time>2011-10-14T05:53:05Z</time>
      </trkpt>
      <trkpt lat="31.8274387" lon="35.0391802">
        <ele>384.5</ele>
        <time>2011-10-14T05:53:15Z</time>
      </trkpt>
      <trkpt lat="31.8273834" lon="35.0393334">
        <ele>386.5</ele>
        <time>2011-10-14T05:53:23Z</time>
      </trkpt>
      <trkpt lat="31.8273018" lon="35.0394132">
        <ele>388.5</ele>
        <time>2011-10-14T05:53:28Z</time>
      </trkpt>
      <trkpt lat="31.827165" lon="35.0394541">
        <ele>392.5</ele>
        <time>2011-10-14T05:53:34Z</time>
      </trkpt>
      <trkpt lat="31.8270109" lon="35.0394682">
        <ele>391.5</ele>
        <time>2011-10-14T05:53:41Z</time>
      </trkpt>
      <trkpt lat="31.8269316" lon="35.0395113">
        <ele>390.5</ele>
        <time>2011-10-14T05:53:46Z</time>
      </trkpt>
      <trkpt lat="31.8268043" lon="35.0396018">
        <ele>391.5</ele>
        <time>2011-10-14T05:53:55Z</time>
      </trkpt>
      <trkpt lat="31.8267198" lon="35.0395817">
        <ele>392.5</ele>
        <time>2011-10-14T05:53:59Z</time>
      </trkpt>
      <trkpt lat="31.8265682" lon="35.0395664">
        <ele>393.5</ele>
        <time>2011-10-14T05:54:06Z</time>
      </trkpt>
      <trkpt lat="31.8264349" lon="35.0396081">
        <ele>393.5</ele>
        <time>2011-10-14T05:54:14Z</time>
      </trkpt>
      <trkpt lat="31.8262979" lon="35.0396783">
        <ele>393.5</ele>
        <time>2011-10-14T05:54:25Z</time>
      </trkpt>
      <trkpt lat="31.8261574" lon="35.0397089">
        <ele>393.5</ele>
        <time>2011-10-14T05:54:34Z</time>
      </trkpt>
      <trkpt lat="31.8260275" lon="35.0397773">
        <ele>391.5</ele>
        <time>2011-10-14T05:54:44Z</time>
      </trkpt>
      <trkpt lat="31.8258995" lon="35.0398596">
        <ele>387.5</ele>
        <time>2011-10-14T05:54:55Z</time>
      </trkpt>
      <trkpt lat="31.8257883" lon="35.0399589">
        <ele>386.5</ele>
        <time>2011-10-14T05:55:10Z</time>
      </trkpt>
      <trkpt lat="31.8259183" lon="35.0400334">
        <ele>393.5</ele>
        <time>2011-10-14T05:55:47Z</time>
      </trkpt>
      <trkpt lat="31.8260577" lon="35.0400902">
        <ele>394.5</ele>
        <time>2011-10-14T05:55:58Z</time>
      </trkpt>
      <trkpt lat="31.8261859" lon="35.0401624">
        <ele>398.5</ele>
        <time>2011-10-14T05:56:07Z</time>
      </trkpt>
      <trkpt lat="31.8263082" lon="35.0402594">
        <ele>399.5</ele>
        <time>2011-10-14T05:56:16Z</time>
      </trkpt>
      <trkpt lat="31.826409" lon="35.0403673">
        <ele>398.5</ele>
        <time>2011-10-14T05:56:24Z</time>
      </trkpt>
      <trkpt lat="31.8265168" lon="35.0404888">
        <ele>397.5</ele>
        <time>2011-10-14T05:56:33Z</time>
      </trkpt>
      <trkpt lat="31.8266027" lon="35.0406117">
        <ele>397.5</ele>
        <time>2011-10-14T05:56:42Z</time>
      </trkpt>
      <trkpt lat="31.8266513" lon="35.0407609">
        <ele>397.5</ele>
        <time>2011-10-14T05:56:51Z</time>
      </trkpt>
      <trkpt lat="31.8265673" lon="35.0408953">
        <ele>395.5</ele>
        <time>2011-10-14T05:57:01Z</time>
      </trkpt>
      <trkpt lat="31.8264453" lon="35.0409828">
        <ele>395.5</ele>
        <time>2011-10-14T05:57:11Z</time>
      </trkpt>
      <trkpt lat="31.8263588" lon="35.0411062">
        <ele>394.5</ele>
        <time>2011-10-14T05:57:23Z</time>
      </trkpt>
      <trkpt lat="31.826326" lon="35.04127">
        <ele>397.5</ele>
        <time>2011-10-14T05:57:36Z</time>
      </trkpt>
      <trkpt lat="31.8263096" lon="35.0414449">
        <ele>401.5</ele>
        <time>2011-10-14T05:57:46Z</time>
      </trkpt>
      <trkpt lat="31.8262817" lon="35.0416035">
        <ele>404.5</ele>
        <time>2011-10-14T05:57:56Z</time>
      </trkpt>
      <trkpt lat="31.8261928" lon="35.0417545">
        <ele>407.5</ele>
        <time>2011-10-14T05:58:08Z</time>
      </trkpt>
      <trkpt lat="31.8260736" lon="35.0418479">
        <ele>409.5</ele>
        <time>2011-10-14T05:58:19Z</time>
      </trkpt>
      <trkpt lat="31.8259498" lon="35.0419325">
        <ele>407.5</ele>
        <time>2011-10-14T05:58:33Z</time>
      </trkpt>
      <trkpt lat="31.8258495" lon="35.0420432">
        <ele>407.5</ele>
        <time>2011-10-14T05:58:46Z</time>
      </trkpt>
      <trkpt lat="31.8257134" lon="35.0420285">
        <ele>406.5</ele>
        <time>2011-10-14T06:03:58Z</time>
      </trkpt>
      <trkpt lat="31.8255742" lon="35.0420734">
        <ele>406.5</ele>
        <time>2011-10-14T06:04:09Z</time>
      </trkpt>
      <trkpt lat="31.8254315" lon="35.0420646">
        <ele>407.5</ele>
        <time>2011-10-14T06:04:22Z</time>
      </trkpt>
      <trkpt lat="31.8252874" lon="35.0420282">
        <ele>407.5</ele>
        <time>2011-10-14T06:04:34Z</time>
      </trkpt>
      <trkpt lat="31.8251348" lon="35.042019">
        <ele>410.5</ele>
        <time>2011-10-14T06:04:45Z</time>
      </trkpt>
      <trkpt lat="31.8249993" lon="35.0420122">
        <ele>415.5</ele>
        <time>2011-10-14T06:04:55Z</time>
      </trkpt>
      <trkpt lat="31.8248603" lon="35.041995">
        <ele>418.5</ele>
        <time>2011-10-14T06:05:05Z</time>
      </trkpt>
      <trkpt lat="31.8246873" lon="35.0419857">
        <ele>424.5</ele>
        <time>2011-10-14T06:05:18Z</time>
      </trkpt>
      <trkpt lat="31.8245452" lon="35.042006">
        <ele>426.5</ele>
        <time>2011-10-14T06:05:29Z</time>
      </trkpt>
      <trkpt lat="31.8243684" lon="35.0420342">
        <ele>426.5</ele>
        <time>2011-10-14T06:05:42Z</time>
      </trkpt>
      <trkpt lat="31.824234" lon="35.0420516">
        <ele>428.5</ele>
        <time>2011-10-14T06:05:51Z</time>
      </trkpt>
      <trkpt lat="31.8240958" lon="35.0420975">
        <ele>431.5</ele>
        <time>2011-10-14T06:06:02Z</time>
      </trkpt>
      <trkpt lat="31.8239538" lon="35.0421296">
        <ele>431.5</ele>
        <time>2011-10-14T06:06:14Z</time>
      </trkpt>
      <trkpt lat="31.82381" lon="35.0422069">
        <ele>434.5</ele>
        <time>2011-10-14T06:06:27Z</time>
      </trkpt>
      <trkpt lat="31.8237235" lon="35.0423515">
        <ele>440.5</ele>
        <time>2011-10-14T06:07:39Z</time>
      </trkpt>
      <trkpt lat="31.8235834" lon="35.0424317">
        <ele>440.5</ele>
        <time>2011-10-14T06:07:53Z</time>
      </trkpt>
      <trkpt lat="31.8234542" lon="35.0424944">
        <ele>440.5</ele>
        <time>2011-10-14T06:08:04Z</time>
      </trkpt>
      <trkpt lat="31.8233089" lon="35.0426212">
        <ele>445.5</ele>
        <time>2011-10-14T06:08:17Z</time>
      </trkpt>
      <trkpt lat="31.8231926" lon="35.0427482">
        <ele>450.5</ele>
        <time>2011-10-14T06:08:29Z</time>
      </trkpt>
      <trkpt lat="31.8231114" lon="35.0429183">
        <ele>449.5</ele>
        <time>2011-10-14T06:08:44Z</time>
      </trkpt>
      <trkpt lat="31.8230326" lon="35.0430256">
        <ele>452.5</ele>
        <time>2011-10-14T06:08:52Z</time>
      </trkpt>
      <trkpt lat="31.8229294" lon="35.0431473">
        <ele>453.5</ele>
        <time>2011-10-14T06:09:02Z</time>
      </trkpt>
      <trkpt lat="31.8228248" lon="35.0432993">
        <ele>456.5</ele>
        <time>2011-10-14T06:09:13Z</time>
      </trkpt>
      <trkpt lat="31.8227275" lon="35.0434269">
        <ele>455.5</ele>
        <time>2011-10-14T06:09:22Z</time>
      </trkpt>
      <trkpt lat="31.8226389" lon="35.0435616">
        <ele>456.5</ele>
        <time>2011-10-14T06:09:31Z</time>
      </trkpt>
      <trkpt lat="31.8225446" lon="35.043729">
        <ele>460.5</ele>
        <time>2011-10-14T06:09:42Z</time>
      </trkpt>
      <trkpt lat="31.8224536" lon="35.0438643">
        <ele>461.5</ele>
        <time>2011-10-14T06:09:51Z</time>
      </trkpt>
      <trkpt lat="31.8223215" lon="35.0440116">
        <ele>465.5</ele>
        <time>2011-10-14T06:10:01Z</time>
      </trkpt>
      <trkpt lat="31.8221987" lon="35.0441056">
        <ele>463.5</ele>
        <time>2011-10-14T06:10:13Z</time>
      </trkpt>
      <trkpt lat="31.8220574" lon="35.0441411">
        <ele>465.5</ele>
        <time>2011-10-14T06:10:26Z</time>
      </trkpt>
      <trkpt lat="31.8219187" lon="35.0441563">
        <ele>466.5</ele>
        <time>2011-10-14T06:10:37Z</time>
      </trkpt>
      <trkpt lat="31.8217755" lon="35.0441529">
        <ele>469.5</ele>
        <time>2011-10-14T06:10:49Z</time>
      </trkpt>
      <trkpt lat="31.8216392" lon="35.0441223">
        <ele>470.5</ele>
        <time>2011-10-14T06:11:01Z</time>
      </trkpt>
      <trkpt lat="31.8215041" lon="35.0440998">
        <ele>480.5</ele>
        <time>2011-10-14T06:11:52Z</time>
      </trkpt>
      <trkpt lat="31.8213856" lon="35.0440095">
        <ele>479.5</ele>
        <time>2011-10-14T06:12:00Z</time>
      </trkpt>
      <trkpt lat="31.8212719" lon="35.0438785">
        <ele>480.5</ele>
        <time>2011-10-14T06:12:08Z</time>
      </trkpt>
      <trkpt lat="31.8211379" lon="35.0437543">
        <ele>479.5</ele>
        <time>2011-10-14T06:12:15Z</time>
      </trkpt>
      <trkpt lat="31.8210055" lon="35.0437154">
        <ele>480.5</ele>
        <time>2011-10-14T06:12:20Z</time>
      </trkpt>
      <trkpt lat="31.8208584" lon="35.0436884">
        <ele>480.5</ele>
        <time>2011-10-14T06:12:26Z</time>
      </trkpt>
      <trkpt lat="31.8207363" lon="35.0436663">
        <ele>480.5</ele>
        <time>2011-10-14T06:12:31Z</time>
      </trkpt>
      <trkpt lat="31.8205952" lon="35.0436678">
        <ele>481.5</ele>
        <time>2011-10-14T06:12:37Z</time>
      </trkpt>
      <trkpt lat="31.8204583" lon="35.0436873">
        <ele>480.5</ele>
        <time>2011-10-14T06:12:43Z</time>
      </trkpt>
      <trkpt lat="31.8203254" lon="35.0437645">
        <ele>480.5</ele>
        <time>2011-10-14T06:12:50Z</time>
      </trkpt>
      <trkpt lat="31.8202208" lon="35.0438823">
        <ele>480.5</ele>
        <time>2011-10-14T06:13:00Z</time>
      </trkpt>
      <trkpt lat="31.8201079" lon="35.0439766">
        <ele>480.5</ele>
        <time>2011-10-14T06:13:13Z</time>
      </trkpt>
      <trkpt lat="31.8200445" lon="35.0441289">
        <ele>481.5</ele>
        <time>2011-10-14T06:13:26Z</time>
      </trkpt>
      <trkpt lat="31.819919" lon="35.0441954">
        <ele>482.5</ele>
        <time>2011-10-14T06:13:35Z</time>
      </trkpt>
      <trkpt lat="31.8197901" lon="35.0441373">
        <ele>481.5</ele>
        <time>2011-10-14T06:13:40Z</time>
      </trkpt>
      <trkpt lat="31.8195193" lon="35.0440473">
        <ele>480.5</ele>
        <time>2011-10-14T06:13:46Z</time>
      </trkpt>
      <trkpt lat="31.8192406" lon="35.0439244">
        <ele>481.5</ele>
        <time>2011-10-14T06:13:52Z</time>
      </trkpt>
      <trkpt lat="31.8190348" lon="35.0440223">
        <ele>468.5</ele>
        <time>2011-10-14T06:14:52Z</time>
      </trkpt>
      <trkpt lat="31.8190323" lon="35.0441946">
        <ele>467.5</ele>
        <time>2011-10-14T06:15:01Z</time>
      </trkpt>
      <trkpt lat="31.8190052" lon="35.0443541">
        <ele>468.5</ele>
        <time>2011-10-14T06:15:08Z</time>
      </trkpt>
      <trkpt lat="31.8189555" lon="35.0445183">
        <ele>468.5</ele>
        <time>2011-10-14T06:15:15Z</time>
      </trkpt>
      <trkpt lat="31.8189502" lon="35.0446937">
        <ele>470.5</ele>
        <time>2011-10-14T06:15:22Z</time>
      </trkpt>
      <trkpt lat="31.8189723" lon="35.0448641">
        <ele>473.5</ele>
        <time>2011-10-14T06:15:29Z</time>
      </trkpt>
      <trkpt lat="31.8189869" lon="35.0450221">
        <ele>473.5</ele>
        <time>2011-10-14T06:15:36Z</time>
      </trkpt>
      <trkpt lat="31.8189594" lon="35.0451943">
        <ele>474.5</ele>
        <time>2011-10-14T06:15:44Z</time>
      </trkpt>
      <trkpt lat="31.818894" lon="35.0453592">
        <ele>475.5</ele>
        <time>2011-10-14T06:15:52Z</time>
      </trkpt>
      <trkpt lat="31.8188408" lon="35.0455271">
        <ele>476.5</ele>
        <time>2011-10-14T06:16:00Z</time>
      </trkpt>
      <trkpt lat="31.8188226" lon="35.0457317">
        <ele>474.5</ele>
        <time>2011-10-14T06:16:07Z</time>
      </trkpt>
      <trkpt lat="31.8188332" lon="35.0459061">
        <ele>473.5</ele>
        <time>2011-10-14T06:16:13Z</time>
      </trkpt>
      <trkpt lat="31.8188393" lon="35.0460855">
        <ele>472.5</ele>
        <time>2011-10-14T06:16:20Z</time>
      </trkpt>
      <trkpt lat="31.8187803" lon="35.0462702">
        <ele>474.5</ele>
        <time>2011-10-14T06:16:28Z</time>
      </trkpt>
      <trkpt lat="31.8187111" lon="35.0464138">
        <ele>472.5</ele>
        <time>2011-10-14T06:16:35Z</time>
      </trkpt>
      <trkpt lat="31.8186571" lon="35.0465596">
        <ele>471.5</ele>
        <time>2011-10-14T06:16:41Z</time>
      </trkpt>
      <trkpt lat="31.8186019" lon="35.0467222">
        <ele>474.5</ele>
        <time>2011-10-14T06:16:47Z</time>
      </trkpt>
      <trkpt lat="31.8185486" lon="35.0468745">
        <ele>474.5</ele>
        <time>2011-10-14T06:16:53Z</time>
      </trkpt>
      <trkpt lat="31.8184724" lon="35.0470245">
        <ele>474.5</ele>
        <time>2011-10-14T06:17:01Z</time>
      </trkpt>
      <trkpt lat="31.8184117" lon="35.0471789">
        <ele>477.5</ele>
        <time>2011-10-14T06:17:12Z</time>
      </trkpt>
      <trkpt lat="31.8183468" lon="35.0473206">
        <ele>477.5</ele>
        <time>2011-10-14T06:17:22Z</time>
      </trkpt>
      <trkpt lat="31.8183211" lon="35.0474865">
        <ele>482.5</ele>
        <time>2011-10-14T06:17:33Z</time>
      </trkpt>
      <trkpt lat="31.8182699" lon="35.0476688">
        <ele>480.5</ele>
        <time>2011-10-14T06:17:45Z</time>
      </trkpt>
      <trkpt lat="31.8182196" lon="35.0478296">
        <ele>480.5</ele>
        <time>2011-10-14T06:17:55Z</time>
      </trkpt>
      <trkpt lat="31.8181653" lon="35.0480135">
        <ele>483.5</ele>
        <time>2011-10-14T06:18:07Z</time>
      </trkpt>
      <trkpt lat="31.8181332" lon="35.0481761">
        <ele>486.5</ele>
        <time>2011-10-14T06:18:18Z</time>
      </trkpt>
      <trkpt lat="31.8181037" lon="35.0483394">
        <ele>485.5</ele>
        <time>2011-10-14T06:18:28Z</time>
      </trkpt>
      <trkpt lat="31.8180632" lon="35.0485465">
        <ele>486.5</ele>
        <time>2011-10-14T06:18:41Z</time>
      </trkpt>
      <trkpt lat="31.8180096" lon="35.0486973">
        <ele>489.5</ele>
        <time>2011-10-14T06:18:51Z</time>
      </trkpt>
      <trkpt lat="31.8179755" lon="35.048864">
        <ele>489.5</ele>
        <time>2011-10-14T06:19:02Z</time>
      </trkpt>
      <trkpt lat="31.8179339" lon="35.049022">
        <ele>490.5</ele>
        <time>2011-10-14T06:19:12Z</time>
      </trkpt>
      <trkpt lat="31.8178704" lon="35.0491783">
        <ele>491.5</ele>
        <time>2011-10-14T06:19:22Z</time>
      </trkpt>
      <trkpt lat="31.8178234" lon="35.0493324">
        <ele>493.5</ele>
        <time>2011-10-14T06:19:32Z</time>
      </trkpt>
      <trkpt lat="31.8177716" lon="35.0494823">
        <ele>494.5</ele>
        <time>2011-10-14T06:19:41Z</time>
      </trkpt>
      <trkpt lat="31.8177368" lon="35.0496694">
        <ele>495.5</ele>
        <time>2011-10-14T06:19:51Z</time>
      </trkpt>
      <trkpt lat="31.8176944" lon="35.0498375">
        <ele>498.5</ele>
        <time>2011-10-14T06:20:01Z</time>
      </trkpt>
      <trkpt lat="31.8176575" lon="35.0499918">
        <ele>499.5</ele>
        <time>2011-10-14T06:20:10Z</time>
      </trkpt>
      <trkpt lat="31.8176132" lon="35.0501571">
        <ele>501.5</ele>
        <time>2011-10-14T06:20:21Z</time>
      </trkpt>
      <trkpt lat="31.8175941" lon="35.050323">
        <ele>501.5</ele>
        <time>2011-10-14T06:20:32Z</time>
      </trkpt>
      <trkpt lat="31.8175955" lon="35.0504882">
        <ele>502.5</ele>
        <time>2011-10-14T06:20:43Z</time>
      </trkpt>
      <trkpt lat="31.8175939" lon="35.0506495">
        <ele>504.5</ele>
        <time>2011-10-14T06:20:55Z</time>
      </trkpt>
      <trkpt lat="31.8175557" lon="35.050803">
        <ele>506.5</ele>
        <time>2011-10-14T06:21:06Z</time>
      </trkpt>
      <trkpt lat="31.8175143" lon="35.0509669">
        <ele>507.5</ele>
        <time>2011-10-14T06:21:19Z</time>
      </trkpt>
      <trkpt lat="31.8174689" lon="35.0511206">
        <ele>508.5</ele>
        <time>2011-10-14T06:21:32Z</time>
      </trkpt>
      <trkpt lat="31.8174184" lon="35.0512841">
        <ele>510.5</ele>
        <time>2011-10-14T06:21:44Z</time>
      </trkpt>
      <trkpt lat="31.8173499" lon="35.051431">
        <ele>509.5</ele>
        <time>2011-10-14T06:21:54Z</time>
      </trkpt>
      <trkpt lat="31.8173041" lon="35.0515876">
        <ele>513.5</ele>
        <time>2011-10-14T06:22:07Z</time>
      </trkpt>
      <trkpt lat="31.8172131" lon="35.0517321">
        <ele>515.5</ele>
        <time>2011-10-14T06:22:25Z</time>
      </trkpt>
      <trkpt lat="31.8171071" lon="35.0518486">
        <ele>520.5</ele>
        <time>2011-10-14T06:22:36Z</time>
      </trkpt>
      <trkpt lat="31.8170141" lon="35.051965">
        <ele>521.5</ele>
        <time>2011-10-14T06:22:45Z</time>
      </trkpt>
      <trkpt lat="31.8169357" lon="35.0521183">
        <ele>522.5</ele>
        <time>2011-10-14T06:22:56Z</time>
      </trkpt>
      <trkpt lat="31.8168904" lon="35.0522762">
        <ele>522.5</ele>
        <time>2011-10-14T06:23:08Z</time>
      </trkpt>
      <trkpt lat="31.8168135" lon="35.0524316">
        <ele>526.5</ele>
        <time>2011-10-14T06:23:19Z</time>
      </trkpt>
      <trkpt lat="31.8167416" lon="35.0525823">
        <ele>528.5</ele>
        <time>2011-10-14T06:23:30Z</time>
      </trkpt>
      <trkpt lat="31.8166618" lon="35.0527242">
        <ele>531.5</ele>
        <time>2011-10-14T06:23:42Z</time>
      </trkpt>
      <trkpt lat="31.8166238" lon="35.0528799">
        <ele>533.5</ele>
        <time>2011-10-14T06:23:53Z</time>
      </trkpt>
      <trkpt lat="31.8165397" lon="35.053006">
        <ele>535.5</ele>
        <time>2011-10-14T06:24:08Z</time>
      </trkpt>
      <trkpt lat="31.8164826" lon="35.0531503">
        <ele>539.5</ele>
        <time>2011-10-14T06:24:47Z</time>
      </trkpt>
      <trkpt lat="31.8164649" lon="35.0533165">
        <ele>542.5</ele>
        <time>2011-10-14T06:33:46Z</time>
      </trkpt>
      <trkpt lat="31.8164701" lon="35.053477">
        <ele>544.5</ele>
        <time>2011-10-14T06:33:58Z</time>
      </trkpt>
      <trkpt lat="31.8164108" lon="35.0536363">
        <ele>545.5</ele>
        <time>2011-10-14T06:34:08Z</time>
      </trkpt>
      <trkpt lat="31.8163294" lon="35.0537727">
        <ele>544.5</ele>
        <time>2011-10-14T06:34:17Z</time>
      </trkpt>
      <trkpt lat="31.8162609" lon="35.05391">
        <ele>546.5</ele>
        <time>2011-10-14T06:34:26Z</time>
      </trkpt>
      <trkpt lat="31.8161754" lon="35.0540523">
        <ele>546.5</ele>
        <time>2011-10-14T06:34:36Z</time>
      </trkpt>
      <trkpt lat="31.8160818" lon="35.0541769">
        <ele>549.5</ele>
        <time>2011-10-14T06:34:44Z</time>
      </trkpt>
      <trkpt lat="31.8160456" lon="35.0543441">
        <ele>548.5</ele>
        <time>2011-10-14T06:34:52Z</time>
      </trkpt>
      <trkpt lat="31.8159887" lon="35.0544993">
        <ele>549.5</ele>
        <time>2011-10-14T06:35:00Z</time>
      </trkpt>
      <trkpt lat="31.8158426" lon="35.0544877">
        <ele>548.5</ele>
        <time>2011-10-14T06:35:07Z</time>
      </trkpt>
      <trkpt lat="31.8157187" lon="35.0544239">
        <ele>549.5</ele>
        <time>2011-10-14T06:35:12Z</time>
      </trkpt>
      <trkpt lat="31.815584" lon="35.0543475">
        <ele>550.5</ele>
        <time>2011-10-14T06:35:18Z</time>
      </trkpt>
      <trkpt lat="31.8154457" lon="35.0545213">
        <ele>548.5</ele>
        <time>2011-10-14T06:35:29Z</time>
      </trkpt>
      <trkpt lat="31.8154726" lon="35.0546844">
        <ele>546.5</ele>
        <time>2011-10-14T06:35:34Z</time>
      </trkpt>
      <trkpt lat="31.8155491" lon="35.0548239">
        <ele>546.5</ele>
        <time>2011-10-14T06:35:39Z</time>
      </trkpt>
      <trkpt lat="31.8156237" lon="35.0549703">
        <ele>544.5</ele>
        <time>2011-10-14T06:35:46Z</time>
      </trkpt>
      <trkpt lat="31.8156704" lon="35.0551253">
        <ele>543.5</ele>
        <time>2011-10-14T06:35:52Z</time>
      </trkpt>
      <trkpt lat="31.8157363" lon="35.0553026">
        <ele>542.5</ele>
        <time>2011-10-14T06:35:56Z</time>
      </trkpt>
      <trkpt lat="31.8157706" lon="35.0555757">
        <ele>542.5</ele>
        <time>2011-10-14T06:36:02Z</time>
      </trkpt>
      <trkpt lat="31.8158196" lon="35.0559686">
        <ele>540.5</ele>
        <time>2011-10-14T06:36:10Z</time>
      </trkpt>
      <trkpt lat="31.8158283" lon="35.0561499">
        <ele>538.5</ele>
        <time>2011-10-14T06:36:14Z</time>
      </trkpt>
      <trkpt lat="31.8157874" lon="35.0563409">
        <ele>535.5</ele>
        <time>2011-10-14T06:36:22Z</time>
      </trkpt>
      <trkpt lat="31.8157368" lon="35.0565117">
        <ele>534.5</ele>
        <time>2011-10-14T06:36:29Z</time>
      </trkpt>
      <trkpt lat="31.8157165" lon="35.0566944">
        <ele>532.5</ele>
        <time>2011-10-14T06:36:35Z</time>
      </trkpt>
      <trkpt lat="31.8157233" lon="35.0568808">
        <ele>531.5</ele>
        <time>2011-10-14T06:36:40Z</time>
      </trkpt>
      <trkpt lat="31.8157309" lon="35.0570633">
        <ele>530.5</ele>
        <time>2011-10-14T06:36:44Z</time>
      </trkpt>
      <trkpt lat="31.8158413" lon="35.0574088">
        <ele>526.5</ele>
        <time>2011-10-14T06:36:51Z</time>
      </trkpt>
      <trkpt lat="31.815867" lon="35.0576519">
        <ele>524.5</ele>
        <time>2011-10-14T06:36:56Z</time>
      </trkpt>
      <trkpt lat="31.815816" lon="35.0578043">
        <ele>524.5</ele>
        <time>2011-10-14T06:37:11Z</time>
      </trkpt>
      <trkpt lat="31.8157836" lon="35.0579832">
        <ele>524.5</ele>
        <time>2011-10-14T06:37:19Z</time>
      </trkpt>
      <trkpt lat="31.8156686" lon="35.0580768">
        <ele>523.5</ele>
        <time>2011-10-14T06:37:30Z</time>
      </trkpt>
      <trkpt lat="31.8155479" lon="35.0581554">
        <ele>522.5</ele>
        <time>2011-10-14T06:37:36Z</time>
      </trkpt>
      <trkpt lat="31.8154303" lon="35.0582361">
        <ele>524.5</ele>
        <time>2011-10-14T06:37:41Z</time>
      </trkpt>
      <trkpt lat="31.8153143" lon="35.0583174">
        <ele>524.5</ele>
        <time>2011-10-14T06:37:46Z</time>
      </trkpt>
      <trkpt lat="31.8152041" lon="35.0584517">
        <ele>524.5</ele>
        <time>2011-10-14T06:37:52Z</time>
      </trkpt>
      <trkpt lat="31.8151755" lon="35.0586113">
        <ele>524.5</ele>
        <time>2011-10-14T06:37:57Z</time>
      </trkpt>
      <trkpt lat="31.815176" lon="35.0587862">
        <ele>525.5</ele>
        <time>2011-10-14T06:38:02Z</time>
      </trkpt>
      <trkpt lat="31.815182" lon="35.0589539">
        <ele>525.5</ele>
        <time>2011-10-14T06:38:07Z</time>
      </trkpt>
      <trkpt lat="31.8151852" lon="35.0591233">
        <ele>525.5</ele>
        <time>2011-10-14T06:38:12Z</time>
      </trkpt>
      <trkpt lat="31.8151917" lon="35.0593053">
        <ele>525.5</ele>
        <time>2011-10-14T06:38:17Z</time>
      </trkpt>
      <trkpt lat="31.8152043" lon="35.059493">
        <ele>523.5</ele>
        <time>2011-10-14T06:38:22Z</time>
      </trkpt>
      <trkpt lat="31.8152124" lon="35.0596529">
        <ele>523.5</ele>
        <time>2011-10-14T06:38:26Z</time>
      </trkpt>
      <trkpt lat="31.8151981" lon="35.0598457">
        <ele>525.5</ele>
        <time>2011-10-14T06:38:31Z</time>
      </trkpt>
      <trkpt lat="31.8151307" lon="35.0600229">
        <ele>524.5</ele>
        <time>2011-10-14T06:38:36Z</time>
      </trkpt>
      <trkpt lat="31.81502" lon="35.0601828">
        <ele>526.5</ele>
        <time>2011-10-14T06:38:41Z</time>
      </trkpt>
      <trkpt lat="31.8147863" lon="35.0604039">
        <ele>528.5</ele>
        <time>2011-10-14T06:38:50Z</time>
      </trkpt>
      <trkpt lat="31.8146453" lon="35.0604895">
        <ele>528.5</ele>
        <time>2011-10-14T06:38:55Z</time>
      </trkpt>
      <trkpt lat="31.8145056" lon="35.0605637">
        <ele>529.5</ele>
        <time>2011-10-14T06:39:00Z</time>
      </trkpt>
      <trkpt lat="31.8143769" lon="35.0606611">
        <ele>529.5</ele>
        <time>2011-10-14T06:39:06Z</time>
      </trkpt>
      <trkpt lat="31.8142801" lon="35.0607766">
        <ele>529.5</ele>
        <time>2011-10-14T06:39:13Z</time>
      </trkpt>
      <trkpt lat="31.814185" lon="35.0609425">
        <ele>528.5</ele>
        <time>2011-10-14T06:39:21Z</time>
      </trkpt>
      <trkpt lat="31.8141019" lon="35.0610914">
        <ele>528.5</ele>
        <time>2011-10-14T06:39:28Z</time>
      </trkpt>
      <trkpt lat="31.8140211" lon="35.0612503">
        <ele>530.5</ele>
        <time>2011-10-14T06:39:35Z</time>
      </trkpt>
      <trkpt lat="31.8139463" lon="35.0613992">
        <ele>530.5</ele>
        <time>2011-10-14T06:39:42Z</time>
      </trkpt>
      <trkpt lat="31.8138634" lon="35.0615662">
        <ele>531.5</ele>
        <time>2011-10-14T06:39:50Z</time>
      </trkpt>
      <trkpt lat="31.8137867" lon="35.0617194">
        <ele>532.5</ele>
        <time>2011-10-14T06:39:57Z</time>
      </trkpt>
      <trkpt lat="31.8137266" lon="35.0618663">
        <ele>533.5</ele>
        <time>2011-10-14T06:40:03Z</time>
      </trkpt>
      <trkpt lat="31.8136564" lon="35.0620263">
        <ele>532.5</ele>
        <time>2011-10-14T06:40:10Z</time>
      </trkpt>
      <trkpt lat="31.8135703" lon="35.062209">
        <ele>530.5</ele>
        <time>2011-10-14T06:40:18Z</time>
      </trkpt>
      <trkpt lat="31.8134947" lon="35.062342">
        <ele>532.5</ele>
        <time>2011-10-14T06:40:24Z</time>
      </trkpt>
      <trkpt lat="31.8134134" lon="35.0624693">
        <ele>533.5</ele>
        <time>2011-10-14T06:40:30Z</time>
      </trkpt>
      <trkpt lat="31.81333" lon="35.0626161">
        <ele>535.5</ele>
        <time>2011-10-14T06:40:37Z</time>
      </trkpt>
      <trkpt lat="31.813264" lon="35.0627773">
        <ele>537.5</ele>
        <time>2011-10-14T06:40:44Z</time>
      </trkpt>
      <trkpt lat="31.8132122" lon="35.0629356">
        <ele>539.5</ele>
        <time>2011-10-14T06:40:51Z</time>
      </trkpt>
      <trkpt lat="31.8131753" lon="35.063107">
        <ele>538.5</ele>
        <time>2011-10-14T06:40:59Z</time>
      </trkpt>
      <trkpt lat="31.8131431" lon="35.0632629">
        <ele>538.5</ele>
        <time>2011-10-14T06:41:06Z</time>
      </trkpt>
      <trkpt lat="31.8131081" lon="35.0634264">
        <ele>540.5</ele>
        <time>2011-10-14T06:41:14Z</time>
      </trkpt>
      <trkpt lat="31.8130798" lon="35.0635838">
        <ele>540.5</ele>
        <time>2011-10-14T06:41:22Z</time>
      </trkpt>
      <trkpt lat="31.8130313" lon="35.0637427">
        <ele>540.5</ele>
        <time>2011-10-14T06:41:30Z</time>
      </trkpt>
      <trkpt lat="31.8129083" lon="35.0638273">
        <ele>543.5</ele>
        <time>2011-10-14T06:41:38Z</time>
      </trkpt>
      <trkpt lat="31.8127553" lon="35.0638432">
        <ele>545.5</ele>
        <time>2011-10-14T06:41:47Z</time>
      </trkpt>
      <trkpt lat="31.8126107" lon="35.0638364">
        <ele>546.5</ele>
        <time>2011-10-14T06:41:55Z</time>
      </trkpt>
      <trkpt lat="31.812461" lon="35.0638251">
        <ele>547.5</ele>
        <time>2011-10-14T06:42:02Z</time>
      </trkpt>
      <trkpt lat="31.8123165" lon="35.06385">
        <ele>548.5</ele>
        <time>2011-10-14T06:42:10Z</time>
      </trkpt>
      <trkpt lat="31.8121724" lon="35.0639201">
        <ele>548.5</ele>
        <time>2011-10-14T06:42:19Z</time>
      </trkpt>
      <trkpt lat="31.8120245" lon="35.0640262">
        <ele>548.5</ele>
        <time>2011-10-14T06:42:29Z</time>
      </trkpt>
      <trkpt lat="31.8118837" lon="35.0641081">
        <ele>548.5</ele>
        <time>2011-10-14T06:42:38Z</time>
      </trkpt>
      <trkpt lat="31.8117688" lon="35.0642163">
        <ele>551.5</ele>
        <time>2011-10-14T06:42:47Z</time>
      </trkpt>
      <trkpt lat="31.8116827" lon="35.0643564">
        <ele>550.5</ele>
        <time>2011-10-14T06:42:56Z</time>
      </trkpt>
      <trkpt lat="31.8116116" lon="35.0644965">
        <ele>551.5</ele>
        <time>2011-10-14T06:43:04Z</time>
      </trkpt>
      <trkpt lat="31.8115456" lon="35.0646449">
        <ele>553.5</ele>
        <time>2011-10-14T06:43:12Z</time>
      </trkpt>
      <trkpt lat="31.8114619" lon="35.0648236">
        <ele>555.5</ele>
        <time>2011-10-14T06:43:23Z</time>
      </trkpt>
      <trkpt lat="31.8113859" lon="35.0649696">
        <ele>555.5</ele>
        <time>2011-10-14T06:43:32Z</time>
      </trkpt>
      <trkpt lat="31.811299" lon="35.065116">
        <ele>556.6</ele>
        <time>2011-10-14T06:43:41Z</time>
      </trkpt>
      <trkpt lat="31.8112222" lon="35.0652516">
        <ele>557.6</ele>
        <time>2011-10-14T06:43:49Z</time>
      </trkpt>
      <trkpt lat="31.8111416" lon="35.0654002">
        <ele>559.6</ele>
        <time>2011-10-14T06:43:58Z</time>
      </trkpt>
      <trkpt lat="31.8110715" lon="35.0655367">
        <ele>562.6</ele>
        <time>2011-10-14T06:44:07Z</time>
      </trkpt>
      <trkpt lat="31.8109996" lon="35.0656765">
        <ele>561.6</ele>
        <time>2011-10-14T06:44:16Z</time>
      </trkpt>
      <trkpt lat="31.8109135" lon="35.0658202">
        <ele>563.6</ele>
        <time>2011-10-14T06:44:25Z</time>
      </trkpt>
      <trkpt lat="31.8108252" lon="35.065958">
        <ele>563.6</ele>
        <time>2011-10-14T06:44:34Z</time>
      </trkpt>
      <trkpt lat="31.8107603" lon="35.0661147">
        <ele>565.6</ele>
        <time>2011-10-14T06:44:43Z</time>
      </trkpt>
      <trkpt lat="31.8107073" lon="35.0662727">
        <ele>567.6</ele>
        <time>2011-10-14T06:44:52Z</time>
      </trkpt>
      <trkpt lat="31.8106427" lon="35.0664272">
        <ele>570.6</ele>
        <time>2011-10-14T06:45:02Z</time>
      </trkpt>
      <trkpt lat="31.8105745" lon="35.0665839">
        <ele>571.6</ele>
        <time>2011-10-14T06:45:12Z</time>
      </trkpt>
      <trkpt lat="31.8105058" lon="35.0667343">
        <ele>573.6</ele>
        <time>2011-10-14T06:45:21Z</time>
      </trkpt>
      <trkpt lat="31.8104402" lon="35.0668771">
        <ele>573.6</ele>
        <time>2011-10-14T06:45:29Z</time>
      </trkpt>
      <trkpt lat="31.8103742" lon="35.0670303">
        <ele>575.6</ele>
        <time>2011-10-14T06:45:38Z</time>
      </trkpt>
      <trkpt lat="31.8103097" lon="35.0671826">
        <ele>577.6</ele>
        <time>2011-10-14T06:45:47Z</time>
      </trkpt>
      <trkpt lat="31.8102539" lon="35.067331">
        <ele>579.6</ele>
        <time>2011-10-14T06:45:56Z</time>
      </trkpt>
      <trkpt lat="31.810193" lon="35.0674931">
        <ele>581.6</ele>
        <time>2011-10-14T06:46:06Z</time>
      </trkpt>
      <trkpt lat="31.8101369" lon="35.0676431">
        <ele>581.6</ele>
        <time>2011-10-14T06:46:15Z</time>
      </trkpt>
      <trkpt lat="31.8100806" lon="35.0677916">
        <ele>584.6</ele>
        <time>2011-10-14T06:46:24Z</time>
      </trkpt>
      <trkpt lat="31.8100035" lon="35.0679384">
        <ele>586.6</ele>
        <time>2011-10-14T06:46:34Z</time>
      </trkpt>
      <trkpt lat="31.809924" lon="35.0680789">
        <ele>589.6</ele>
        <time>2011-10-14T06:46:43Z</time>
      </trkpt>
      <trkpt lat="31.8098508" lon="35.0682288">
        <ele>590.6</ele>
        <time>2011-10-14T06:46:51Z</time>
      </trkpt>
      <trkpt lat="31.8097813" lon="35.0683777">
        <ele>591.6</ele>
        <time>2011-10-14T06:46:59Z</time>
      </trkpt>
      <trkpt lat="31.8097035" lon="35.0685243">
        <ele>592.6</ele>
        <time>2011-10-14T06:47:07Z</time>
      </trkpt>
      <trkpt lat="31.8096408" lon="35.068681">
        <ele>592.6</ele>
        <time>2011-10-14T06:47:16Z</time>
      </trkpt>
      <trkpt lat="31.8095764" lon="35.068829">
        <ele>593.6</ele>
        <time>2011-10-14T06:47:25Z</time>
      </trkpt>
      <trkpt lat="31.809499" lon="35.0689787">
        <ele>593.6</ele>
        <time>2011-10-14T06:47:34Z</time>
      </trkpt>
      <trkpt lat="31.8094394" lon="35.0691276">
        <ele>595.6</ele>
        <time>2011-10-14T06:47:42Z</time>
      </trkpt>
      <trkpt lat="31.8093802" lon="35.0692869">
        <ele>596.6</ele>
        <time>2011-10-14T06:47:51Z</time>
      </trkpt>
      <trkpt lat="31.809316" lon="35.0694452">
        <ele>598.6</ele>
        <time>2011-10-14T06:48:01Z</time>
      </trkpt>
      <trkpt lat="31.8092674" lon="35.0696091">
        <ele>600.6</ele>
        <time>2011-10-14T06:48:10Z</time>
      </trkpt>
      <trkpt lat="31.8092227" lon="35.0697804">
        <ele>602.6</ele>
        <time>2011-10-14T06:48:19Z</time>
      </trkpt>
      <trkpt lat="31.8091823" lon="35.0699375">
        <ele>603.6</ele>
        <time>2011-10-14T06:48:27Z</time>
      </trkpt>
      <trkpt lat="31.8091504" lon="35.0701088">
        <ele>604.6</ele>
        <time>2011-10-14T06:48:36Z</time>
      </trkpt>
      <trkpt lat="31.8091346" lon="35.0702807">
        <ele>605.6</ele>
        <time>2011-10-14T06:48:45Z</time>
      </trkpt>
      <trkpt lat="31.8091433" lon="35.070456">
        <ele>605.6</ele>
        <time>2011-10-14T06:48:54Z</time>
      </trkpt>
      <trkpt lat="31.8091616" lon="35.0706252">
        <ele>607.6</ele>
        <time>2011-10-14T06:49:02Z</time>
      </trkpt>
      <trkpt lat="31.8091878" lon="35.070782">
        <ele>608.6</ele>
        <time>2011-10-14T06:49:08Z</time>
      </trkpt>
      <trkpt lat="31.8092193" lon="35.0709647">
        <ele>608.6</ele>
        <time>2011-10-14T06:49:14Z</time>
      </trkpt>
      <trkpt lat="31.8092463" lon="35.0711401">
        <ele>610.6</ele>
        <time>2011-10-14T06:49:20Z</time>
      </trkpt>
      <trkpt lat="31.8092621" lon="35.0713231">
        <ele>611.6</ele>
        <time>2011-10-14T06:49:27Z</time>
      </trkpt>
      <trkpt lat="31.8092834" lon="35.0714864">
        <ele>612.6</ele>
        <time>2011-10-14T06:49:33Z</time>
      </trkpt>
      <trkpt lat="31.8093327" lon="35.0716469">
        <ele>612.6</ele>
        <time>2011-10-14T06:49:39Z</time>
      </trkpt>
      <trkpt lat="31.8093857" lon="35.0718009">
        <ele>611.6</ele>
        <time>2011-10-14T06:49:45Z</time>
      </trkpt>
      <trkpt lat="31.8094525" lon="35.0719624">
        <ele>611.6</ele>
        <time>2011-10-14T06:49:52Z</time>
      </trkpt>
      <trkpt lat="31.8095261" lon="35.0721157">
        <ele>613.6</ele>
        <time>2011-10-14T06:49:59Z</time>
      </trkpt>
      <trkpt lat="31.8095919" lon="35.0722622">
        <ele>614.6</ele>
        <time>2011-10-14T06:50:06Z</time>
      </trkpt>
      <trkpt lat="31.8096674" lon="35.0724013">
        <ele>615.6</ele>
        <time>2011-10-14T06:50:13Z</time>
      </trkpt>
      <trkpt lat="31.8097475" lon="35.0725612">
        <ele>617.6</ele>
        <time>2011-10-14T06:50:21Z</time>
      </trkpt>
      <trkpt lat="31.8098171" lon="35.0727086">
        <ele>619.6</ele>
        <time>2011-10-14T06:50:28Z</time>
      </trkpt>
      <trkpt lat="31.8098718" lon="35.0728682">
        <ele>619.6</ele>
        <time>2011-10-14T06:50:36Z</time>
      </trkpt>
      <trkpt lat="31.8099236" lon="35.0730268">
        <ele>618.6</ele>
        <time>2011-10-14T06:50:44Z</time>
      </trkpt>
      <trkpt lat="31.8099807" lon="35.0731887">
        <ele>620.6</ele>
        <time>2011-10-14T06:50:53Z</time>
      </trkpt>
      <trkpt lat="31.8100312" lon="35.0733707">
        <ele>621.6</ele>
        <time>2011-10-14T06:51:04Z</time>
      </trkpt>
      <trkpt lat="31.8100794" lon="35.0735366">
        <ele>622.6</ele>
        <time>2011-10-14T06:51:14Z</time>
      </trkpt>
      <trkpt lat="31.8101019" lon="35.0736996">
        <ele>624.6</ele>
        <time>2011-10-14T06:51:23Z</time>
      </trkpt>
      <trkpt lat="31.810061" lon="35.0738742">
        <ele>625.6</ele>
        <time>2011-10-14T06:51:31Z</time>
      </trkpt>
      <trkpt lat="31.8100094" lon="35.0740392">
        <ele>626.6</ele>
        <time>2011-10-14T06:51:39Z</time>
      </trkpt>
      <trkpt lat="31.8099348" lon="35.0742088">
        <ele>625.6</ele>
        <time>2011-10-14T06:51:48Z</time>
      </trkpt>
      <trkpt lat="31.8098438" lon="35.0743449">
        <ele>625.6</ele>
        <time>2011-10-14T06:51:56Z</time>
      </trkpt>
      <trkpt lat="31.8097702" lon="35.0744915">
        <ele>625.6</ele>
        <time>2011-10-14T06:52:04Z</time>
      </trkpt>
      <trkpt lat="31.8097258" lon="35.0746579">
        <ele>627.6</ele>
        <time>2011-10-14T06:52:12Z</time>
      </trkpt>
      <trkpt lat="31.8097062" lon="35.0748282">
        <ele>628.6</ele>
        <time>2011-10-14T06:52:20Z</time>
      </trkpt>
      <trkpt lat="31.8096873" lon="35.075001">
        <ele>629.6</ele>
        <time>2011-10-14T06:52:28Z</time>
      </trkpt>
      <trkpt lat="31.8096784" lon="35.0751619">
        <ele>631.6</ele>
        <time>2011-10-14T06:52:36Z</time>
      </trkpt>
      <trkpt lat="31.8096493" lon="35.0753262">
        <ele>632.6</ele>
        <time>2011-10-14T06:52:45Z</time>
      </trkpt>
      <trkpt lat="31.8096152" lon="35.0755009">
        <ele>632.6</ele>
        <time>2011-10-14T06:52:53Z</time>
      </trkpt>
      <trkpt lat="31.8095962" lon="35.0756593">
        <ele>633.6</ele>
        <time>2011-10-14T06:53:01Z</time>
      </trkpt>
      <trkpt lat="31.8095957" lon="35.0758199">
        <ele>633.6</ele>
        <time>2011-10-14T06:53:10Z</time>
      </trkpt>
      <trkpt lat="31.8096109" lon="35.0759852">
        <ele>634.6</ele>
        <time>2011-10-14T06:53:18Z</time>
      </trkpt>
      <trkpt lat="31.8096117" lon="35.0761555">
        <ele>636.6</ele>
        <time>2011-10-14T06:53:26Z</time>
      </trkpt>
      <trkpt lat="31.8095991" lon="35.0763321">
        <ele>637.6</ele>
        <time>2011-10-14T06:53:35Z</time>
      </trkpt>
      <trkpt lat="31.8095731" lon="35.0765072">
        <ele>636.6</ele>
        <time>2011-10-14T06:53:44Z</time>
      </trkpt>
      <trkpt lat="31.8095583" lon="35.0766787">
        <ele>638.6</ele>
        <time>2011-10-14T06:53:53Z</time>
      </trkpt>
      <trkpt lat="31.8095808" lon="35.0768537">
        <ele>641.6</ele>
        <time>2011-10-14T06:54:02Z</time>
      </trkpt>
      <trkpt lat="31.8095968" lon="35.077021">
        <ele>642.6</ele>
        <time>2011-10-14T06:54:10Z</time>
      </trkpt>
      <trkpt lat="31.8096014" lon="35.0771917">
        <ele>643.6</ele>
        <time>2011-10-14T06:54:18Z</time>
      </trkpt>
      <trkpt lat="31.8096027" lon="35.0773611">
        <ele>643.6</ele>
        <time>2011-10-14T06:54:26Z</time>
      </trkpt>
      <trkpt lat="31.8095954" lon="35.0775384">
        <ele>643.6</ele>
        <time>2011-10-14T06:54:35Z</time>
      </trkpt>
      <trkpt lat="31.8095693" lon="35.0776958">
        <ele>644.6</ele>
        <time>2011-10-14T06:54:43Z</time>
      </trkpt>
      <trkpt lat="31.8094619" lon="35.077891">
        <ele>648.6</ele>
        <time>2011-10-14T06:54:54Z</time>
      </trkpt>
      <trkpt lat="31.8093616" lon="35.0780665">
        <ele>649.6</ele>
        <time>2011-10-14T06:55:05Z</time>
      </trkpt>
      <trkpt lat="31.8092267" lon="35.0782017">
        <ele>649.6</ele>
        <time>2011-10-14T06:55:14Z</time>
      </trkpt>
      <trkpt lat="31.8091824" lon="35.0783788">
        <ele>652.6</ele>
        <time>2011-10-14T06:55:23Z</time>
      </trkpt>
      <trkpt lat="31.8091144" lon="35.0785415">
        <ele>651.6</ele>
        <time>2011-10-14T06:55:31Z</time>
      </trkpt>
      <trkpt lat="31.809028" lon="35.0786694">
        <ele>650.6</ele>
        <time>2011-10-14T06:55:38Z</time>
      </trkpt>
      <trkpt lat="31.8089367" lon="35.0787912">
        <ele>653.6</ele>
        <time>2011-10-14T06:55:45Z</time>
      </trkpt>
      <trkpt lat="31.8088427" lon="35.0789323">
        <ele>653.6</ele>
        <time>2011-10-14T06:55:53Z</time>
      </trkpt>
      <trkpt lat="31.8087696" lon="35.0790843">
        <ele>655.6</ele>
        <time>2011-10-14T06:56:01Z</time>
      </trkpt>
      <trkpt lat="31.8087005" lon="35.0792283">
        <ele>655.6</ele>
        <time>2011-10-14T06:56:08Z</time>
      </trkpt>
      <trkpt lat="31.8086338" lon="35.0793683">
        <ele>656.6</ele>
        <time>2011-10-14T06:56:15Z</time>
      </trkpt>
      <trkpt lat="31.8085602" lon="35.0795053">
        <ele>657.6</ele>
        <time>2011-10-14T06:56:23Z</time>
      </trkpt>
      <trkpt lat="31.8084703" lon="35.079647">
        <ele>657.6</ele>
        <time>2011-10-14T06:56:32Z</time>
      </trkpt>
      <trkpt lat="31.808374" lon="35.0797688">
        <ele>656.6</ele>
        <time>2011-10-14T06:56:40Z</time>
      </trkpt>
      <trkpt lat="31.8082509" lon="35.0798637">
        <ele>656.6</ele>
        <time>2011-10-14T06:56:48Z</time>
      </trkpt>
      <trkpt lat="31.808103" lon="35.0799506">
        <ele>654.6</ele>
        <time>2011-10-14T06:56:57Z</time>
      </trkpt>
      <trkpt lat="31.8079576" lon="35.0799835">
        <ele>657.6</ele>
        <time>2011-10-14T06:57:06Z</time>
      </trkpt>
      <trkpt lat="31.8078202" lon="35.0799941">
        <ele>659.6</ele>
        <time>2011-10-14T06:57:15Z</time>
      </trkpt>
      <trkpt lat="31.8076766" lon="35.0800151">
        <ele>659.6</ele>
        <time>2011-10-14T06:57:24Z</time>
      </trkpt>
      <trkpt lat="31.8075385" lon="35.0800279">
        <ele>661.6</ele>
        <time>2011-10-14T06:57:31Z</time>
      </trkpt>
      <trkpt lat="31.8073304" lon="35.0800696">
        <ele>665.6</ele>
        <time>2011-10-14T06:57:41Z</time>
      </trkpt>
      <trkpt lat="31.8072071" lon="35.0801375">
        <ele>668.6</ele>
        <time>2011-10-14T06:57:47Z</time>
      </trkpt>
      <trkpt lat="31.8070926" lon="35.0802364">
        <ele>668.6</ele>
        <time>2011-10-14T06:57:54Z</time>
      </trkpt>
      <trkpt lat="31.8069802" lon="35.0803906">
        <ele>669.6</ele>
        <time>2011-10-14T06:58:02Z</time>
      </trkpt>
      <trkpt lat="31.8069039" lon="35.08055">
        <ele>669.6</ele>
        <time>2011-10-14T06:58:09Z</time>
      </trkpt>
      <trkpt lat="31.8068565" lon="35.0807564">
        <ele>669.6</ele>
        <time>2011-10-14T06:58:18Z</time>
      </trkpt>
      <trkpt lat="31.8067976" lon="35.0809095">
        <ele>670.6</ele>
        <time>2011-10-14T06:58:25Z</time>
      </trkpt>
      <trkpt lat="31.8067129" lon="35.0811087">
        <ele>671.6</ele>
        <time>2011-10-14T06:58:34Z</time>
      </trkpt>
      <trkpt lat="31.8066586" lon="35.0812762">
        <ele>672.6</ele>
        <time>2011-10-14T06:58:41Z</time>
      </trkpt>
      <trkpt lat="31.8066206" lon="35.0814418">
        <ele>673.6</ele>
        <time>2011-10-14T06:58:47Z</time>
      </trkpt>
      <trkpt lat="31.8065831" lon="35.0816174">
        <ele>676.6</ele>
        <time>2011-10-14T06:58:53Z</time>
      </trkpt>
      <trkpt lat="31.8065622" lon="35.0817915">
        <ele>677.6</ele>
        <time>2011-10-14T06:58:59Z</time>
      </trkpt>
      <trkpt lat="31.8065497" lon="35.0819605">
        <ele>678.6</ele>
        <time>2011-10-14T06:59:05Z</time>
      </trkpt>
      <trkpt lat="31.8065429" lon="35.0821201">
        <ele>677.6</ele>
        <time>2011-10-14T06:59:10Z</time>
      </trkpt>
      <trkpt lat="31.8065344" lon="35.0823049">
        <ele>678.6</ele>
        <time>2011-10-14T06:59:16Z</time>
      </trkpt>
      <trkpt lat="31.806531" lon="35.0824983">
        <ele>678.6</ele>
        <time>2011-10-14T06:59:22Z</time>
      </trkpt>
      <trkpt lat="31.8065227" lon="35.0826833">
        <ele>677.6</ele>
        <time>2011-10-14T06:59:28Z</time>
      </trkpt>
      <trkpt lat="31.8065243" lon="35.0828516">
        <ele>678.6</ele>
        <time>2011-10-14T06:59:33Z</time>
      </trkpt>
      <trkpt lat="31.806523" lon="35.083026">
        <ele>678.6</ele>
        <time>2011-10-14T06:59:39Z</time>
      </trkpt>
      <trkpt lat="31.806525" lon="35.0832072">
        <ele>677.6</ele>
        <time>2011-10-14T06:59:45Z</time>
      </trkpt>
      <trkpt lat="31.8065348" lon="35.0833905">
        <ele>677.6</ele>
        <time>2011-10-14T06:59:51Z</time>
      </trkpt>
      <trkpt lat="31.8065702" lon="35.0835486">
        <ele>677.6</ele>
        <time>2011-10-14T06:59:56Z</time>
      </trkpt>
      <trkpt lat="31.8066326" lon="35.0836951">
        <ele>677.6</ele>
        <time>2011-10-14T07:00:01Z</time>
      </trkpt>
      <trkpt lat="31.8067153" lon="35.0838214">
        <ele>678.6</ele>
        <time>2011-10-14T07:00:06Z</time>
      </trkpt>
      <trkpt lat="31.8068241" lon="35.0839376">
        <ele>677.6</ele>
        <time>2011-10-14T07:00:12Z</time>
      </trkpt>
      <trkpt lat="31.8069334" lon="35.0840371">
        <ele>677.6</ele>
        <time>2011-10-14T07:00:19Z</time>
      </trkpt>
      <trkpt lat="31.80702" lon="35.0841621">
        <ele>678.6</ele>
        <time>2011-10-14T07:00:26Z</time>
      </trkpt>
      <trkpt lat="31.8070682" lon="35.0843451">
        <ele>681.6</ele>
        <time>2011-10-14T07:00:34Z</time>
      </trkpt>
      <trkpt lat="31.8070571" lon="35.0845151">
        <ele>682.6</ele>
        <time>2011-10-14T07:00:40Z</time>
      </trkpt>
      <trkpt lat="31.8070232" lon="35.0847013">
        <ele>683.6</ele>
        <time>2011-10-14T07:00:46Z</time>
      </trkpt>
      <trkpt lat="31.8070001" lon="35.0848646">
        <ele>685.6</ele>
        <time>2011-10-14T07:00:51Z</time>
      </trkpt>
      <trkpt lat="31.8069553" lon="35.0850264">
        <ele>684.6</ele>
        <time>2011-10-14T07:00:56Z</time>
      </trkpt>
      <trkpt lat="31.8069195" lon="35.0851835">
        <ele>685.6</ele>
        <time>2011-10-14T07:01:01Z</time>
      </trkpt>
      <trkpt lat="31.8068799" lon="35.0853363">
        <ele>685.6</ele>
        <time>2011-10-14T07:01:06Z</time>
      </trkpt>
      <trkpt lat="31.8068255" lon="35.085506">
        <ele>685.6</ele>
        <time>2011-10-14T07:01:12Z</time>
      </trkpt>
      <trkpt lat="31.8067887" lon="35.0856677">
        <ele>684.6</ele>
        <time>2011-10-14T07:01:18Z</time>
      </trkpt>
      <trkpt lat="31.8067411" lon="35.0858424">
        <ele>685.6</ele>
        <time>2011-10-14T07:01:24Z</time>
      </trkpt>
      <trkpt lat="31.8066872" lon="35.0860158">
        <ele>685.6</ele>
        <time>2011-10-14T07:01:30Z</time>
      </trkpt>
      <trkpt lat="31.8066336" lon="35.0861681">
        <ele>685.6</ele>
        <time>2011-10-14T07:01:35Z</time>
      </trkpt>
      <trkpt lat="31.8065481" lon="35.0865163">
        <ele>689.6</ele>
        <time>2011-10-14T07:01:43Z</time>
      </trkpt>
      <trkpt lat="31.8065147" lon="35.086753">
        <ele>688.6</ele>
        <time>2011-10-14T07:01:48Z</time>
      </trkpt>
      <trkpt lat="31.8064954" lon="35.08694">
        <ele>689.6</ele>
        <time>2011-10-14T07:01:52Z</time>
      </trkpt>
      <trkpt lat="31.8064787" lon="35.0871461">
        <ele>690.6</ele>
        <time>2011-10-14T07:01:57Z</time>
      </trkpt>
      <trkpt lat="31.8064713" lon="35.0873422">
        <ele>690.6</ele>
        <time>2011-10-14T07:02:02Z</time>
      </trkpt>
      <trkpt lat="31.8064586" lon="35.0875397">
        <ele>690.6</ele>
        <time>2011-10-14T07:02:07Z</time>
      </trkpt>
      <trkpt lat="31.8064332" lon="35.0877742">
        <ele>691.6</ele>
        <time>2011-10-14T07:02:13Z</time>
      </trkpt>
      <trkpt lat="31.8063989" lon="35.0880201">
        <ele>691.6</ele>
        <time>2011-10-14T07:02:19Z</time>
      </trkpt>
      <trkpt lat="31.8063489" lon="35.0882971">
        <ele>689.6</ele>
        <time>2011-10-14T07:02:26Z</time>
      </trkpt>
      <trkpt lat="31.8063186" lon="35.088474">
        <ele>689.6</ele>
        <time>2011-10-14T07:02:31Z</time>
      </trkpt>
      <trkpt lat="31.8062988" lon="35.0886477">
        <ele>690.6</ele>
        <time>2011-10-14T07:02:36Z</time>
      </trkpt>
      <trkpt lat="31.806283" lon="35.0888189">
        <ele>691.6</ele>
        <time>2011-10-14T07:02:41Z</time>
      </trkpt>
      <trkpt lat="31.8062699" lon="35.0889834">
        <ele>689.6</ele>
        <time>2011-10-14T07:02:46Z</time>
      </trkpt>
      <trkpt lat="31.8062506" lon="35.0891529">
        <ele>689.6</ele>
        <time>2011-10-14T07:02:51Z</time>
      </trkpt>
      <trkpt lat="31.8062201" lon="35.0893356">
        <ele>690.6</ele>
        <time>2011-10-14T07:02:56Z</time>
      </trkpt>
      <trkpt lat="31.8061784" lon="35.0895086">
        <ele>689.6</ele>
        <time>2011-10-14T07:03:01Z</time>
      </trkpt>
      <trkpt lat="31.8061346" lon="35.0896752">
        <ele>688.6</ele>
        <time>2011-10-14T07:03:06Z</time>
      </trkpt>
      <trkpt lat="31.806087" lon="35.0898367">
        <ele>689.6</ele>
        <time>2011-10-14T07:03:11Z</time>
      </trkpt>
      <trkpt lat="31.8060417" lon="35.089988">
        <ele>691.6</ele>
        <time>2011-10-14T07:03:16Z</time>
      </trkpt>
      <trkpt lat="31.8060079" lon="35.090147">
        <ele>692.6</ele>
        <time>2011-10-14T07:03:21Z</time>
      </trkpt>
      <trkpt lat="31.8059748" lon="35.0903125">
        <ele>692.6</ele>
        <time>2011-10-14T07:03:27Z</time>
      </trkpt>
      <trkpt lat="31.8058001" lon="35.0903167">
        <ele>682.6</ele>
        <time>2011-10-14T07:04:56Z</time>
      </trkpt>
      <trkpt lat="31.8055093" lon="35.0902038">
        <ele>686.6</ele>
        <time>2011-10-14T07:05:02Z</time>
      </trkpt>
      <trkpt lat="31.8051655" lon="35.0899297">
        <ele>688.6</ele>
        <time>2011-10-14T07:05:07Z</time>
      </trkpt>
      <trkpt lat="31.8045816" lon="35.0896762">
        <ele>688.6</ele>
        <time>2011-10-14T07:05:13Z</time>
      </trkpt>
      <trkpt lat="31.8042261" lon="35.0893027">
        <ele>684.6</ele>
        <time>2011-10-14T07:05:18Z</time>
      </trkpt>
      <trkpt lat="31.8038797" lon="35.0893059">
        <ele>679.6</ele>
        <time>2011-10-14T07:05:24Z</time>
      </trkpt>
      <trkpt lat="31.8035344" lon="35.0890077">
        <ele>674.6</ele>
        <time>2011-10-14T07:05:29Z</time>
      </trkpt>
      <trkpt lat="31.8034086" lon="35.0884875">
        <ele>669.6</ele>
        <time>2011-10-14T07:05:34Z</time>
      </trkpt>
      <trkpt lat="31.8032703" lon="35.0880062">
        <ele>665.6</ele>
        <time>2011-10-14T07:05:39Z</time>
      </trkpt>
      <trkpt lat="31.8032456" lon="35.0874793">
        <ele>661.6</ele>
        <time>2011-10-14T07:05:44Z</time>
      </trkpt>
      <trkpt lat="31.8033383" lon="35.0870808">
        <ele>657.6</ele>
        <time>2011-10-14T07:05:48Z</time>
      </trkpt>
      <trkpt lat="31.8034821" lon="35.0865329">
        <ele>653.6</ele>
        <time>2011-10-14T07:05:55Z</time>
      </trkpt>
      <trkpt lat="31.8033209" lon="35.0865074">
        <ele>645.6</ele>
        <time>2011-10-14T07:06:32Z</time>
      </trkpt>
      <trkpt lat="31.8031596" lon="35.0865287">
        <ele>646.6</ele>
        <time>2011-10-14T07:06:43Z</time>
      </trkpt>
      <trkpt lat="31.8030259" lon="35.0865595">
        <ele>643.6</ele>
        <time>2011-10-14T07:06:50Z</time>
      </trkpt>
      <trkpt lat="31.8028612" lon="35.0866443">
        <ele>641.6</ele>
        <time>2011-10-14T07:07:08Z</time>
      </trkpt>
      <trkpt lat="31.8027266" lon="35.0867495">
        <ele>643.6</ele>
        <time>2011-10-14T07:07:19Z</time>
      </trkpt>
      <trkpt lat="31.8025861" lon="35.0868099">
        <ele>644.6</ele>
        <time>2011-10-14T07:07:28Z</time>
      </trkpt>
      <trkpt lat="31.8024543" lon="35.0868566">
        <ele>644.6</ele>
        <time>2011-10-14T07:07:37Z</time>
      </trkpt>
      <trkpt lat="31.8023254" lon="35.0869189">
        <ele>647.6</ele>
        <time>2011-10-14T07:07:48Z</time>
      </trkpt>
      <trkpt lat="31.8022068" lon="35.0870107">
        <ele>650.6</ele>
        <time>2011-10-14T07:07:59Z</time>
      </trkpt>
      <trkpt lat="31.8020579" lon="35.0870808">
        <ele>654.6</ele>
        <time>2011-10-14T07:08:09Z</time>
      </trkpt>
      <trkpt lat="31.8019199" lon="35.0871233">
        <ele>656.6</ele>
        <time>2011-10-14T07:08:18Z</time>
      </trkpt>
      <trkpt lat="31.8017803" lon="35.0871437">
        <ele>658.6</ele>
        <time>2011-10-14T07:08:29Z</time>
      </trkpt>
      <trkpt lat="31.8016436" lon="35.0870956">
        <ele>657.6</ele>
        <time>2011-10-14T07:08:43Z</time>
      </trkpt>
      <trkpt lat="31.8017755" lon="35.0870068">
        <ele>659.6</ele>
        <time>2011-10-14T07:09:18Z</time>
      </trkpt>
      <trkpt lat="31.8018459" lon="35.0868448">
        <ele>661.6</ele>
        <time>2011-10-14T07:09:49Z</time>
      </trkpt>
      <trkpt lat="31.8021118" lon="35.0866231">
        <ele>660.6</ele>
        <time>2011-10-14T07:09:56Z</time>
      </trkpt>
      <trkpt lat="31.8023271" lon="35.0863721">
        <ele>659.6</ele>
        <time>2011-10-14T07:10:02Z</time>
      </trkpt>
      <trkpt lat="31.8024493" lon="35.0859934">
        <ele>657.6</ele>
        <time>2011-10-14T07:10:08Z</time>
      </trkpt>
      <trkpt lat="31.8024606" lon="35.0857326">
        <ele>655.6</ele>
        <time>2011-10-14T07:10:14Z</time>
      </trkpt>
      <trkpt lat="31.8025071" lon="35.0855709">
        <ele>655.6</ele>
        <time>2011-10-14T07:10:19Z</time>
      </trkpt>
      <trkpt lat="31.8026039" lon="35.0852409">
        <ele>655.6</ele>
        <time>2011-10-14T07:10:27Z</time>
      </trkpt>
      <trkpt lat="31.8026151" lon="35.0850353">
        <ele>655.6</ele>
        <time>2011-10-14T07:10:31Z</time>
      </trkpt>
      <trkpt lat="31.8026071" lon="35.0848265">
        <ele>657.6</ele>
        <time>2011-10-14T07:10:35Z</time>
      </trkpt>
      <trkpt lat="31.8026018" lon="35.0844613">
        <ele>656.6</ele>
        <time>2011-10-14T07:10:42Z</time>
      </trkpt>
      <trkpt lat="31.8026591" lon="35.0841133">
        <ele>657.6</ele>
        <time>2011-10-14T07:10:49Z</time>
      </trkpt>
      <trkpt lat="31.8026843" lon="35.0837522">
        <ele>654.6</ele>
        <time>2011-10-14T07:10:55Z</time>
      </trkpt>
      <trkpt lat="31.8026801" lon="35.0834705">
        <ele>651.6</ele>
        <time>2011-10-14T07:11:00Z</time>
      </trkpt>
      <trkpt lat="31.802703" lon="35.0832622">
        <ele>650.6</ele>
        <time>2011-10-14T07:11:04Z</time>
      </trkpt>
      <trkpt lat="31.8027157" lon="35.0830605">
        <ele>651.6</ele>
        <time>2011-10-14T07:11:08Z</time>
      </trkpt>
      <trkpt lat="31.8027309" lon="35.0827947">
        <ele>651.6</ele>
        <time>2011-10-14T07:11:14Z</time>
      </trkpt>
      <trkpt lat="31.8027417" lon="35.0826011">
        <ele>650.6</ele>
        <time>2011-10-14T07:11:19Z</time>
      </trkpt>
      <trkpt lat="31.8027588" lon="35.0824366">
        <ele>651.6</ele>
        <time>2011-10-14T07:11:24Z</time>
      </trkpt>
      <trkpt lat="31.8027687" lon="35.0822049">
        <ele>649.6</ele>
        <time>2011-10-14T07:11:32Z</time>
      </trkpt>
      <trkpt lat="31.8027578" lon="35.0820341">
        <ele>650.6</ele>
        <time>2011-10-14T07:11:44Z</time>
      </trkpt>
      <trkpt lat="31.8027878" lon="35.0818537">
        <ele>646.6</ele>
        <time>2011-10-14T07:12:15Z</time>
      </trkpt>
      <trkpt lat="31.8027805" lon="35.081664">
        <ele>644.6</ele>
        <time>2011-10-14T07:12:21Z</time>
      </trkpt>
      <trkpt lat="31.8027076" lon="35.0815001">
        <ele>643.6</ele>
        <time>2011-10-14T07:12:27Z</time>
      </trkpt>
      <trkpt lat="31.8025863" lon="35.0813987">
        <ele>645.6</ele>
        <time>2011-10-14T07:12:33Z</time>
      </trkpt>
      <trkpt lat="31.802442" lon="35.0813451">
        <ele>649.6</ele>
        <time>2011-10-14T07:12:39Z</time>
      </trkpt>
      <trkpt lat="31.8023058" lon="35.0812817">
        <ele>652.6</ele>
        <time>2011-10-14T07:12:45Z</time>
      </trkpt>
      <trkpt lat="31.8021959" lon="35.0811834">
        <ele>652.6</ele>
        <time>2011-10-14T07:12:51Z</time>
      </trkpt>
      <trkpt lat="31.8020935" lon="35.0810572">
        <ele>652.6</ele>
        <time>2011-10-14T07:12:58Z</time>
      </trkpt>
      <trkpt lat="31.8020028" lon="35.0809338">
        <ele>652.6</ele>
        <time>2011-10-14T07:13:04Z</time>
      </trkpt>
      <trkpt lat="31.8018988" lon="35.0808046">
        <ele>651.6</ele>
        <time>2011-10-14T07:13:11Z</time>
      </trkpt>
      <trkpt lat="31.8017719" lon="35.0807095">
        <ele>651.6</ele>
        <time>2011-10-14T07:13:17Z</time>
      </trkpt>
      <trkpt lat="31.8015081" lon="35.0805855">
        <ele>652.6</ele>
        <time>2011-10-14T07:13:25Z</time>
      </trkpt>
      <trkpt lat="31.8013785" lon="35.080514">
        <ele>654.6</ele>
        <time>2011-10-14T07:13:29Z</time>
      </trkpt>
      <trkpt lat="31.8012417" lon="35.0803479">
        <ele>643.6</ele>
        <time>2011-10-14T07:15:31Z</time>
      </trkpt>
      <trkpt lat="31.8011956" lon="35.0801493">
        <ele>644.6</ele>
        <time>2011-10-14T07:15:36Z</time>
      </trkpt>
      <trkpt lat="31.801117" lon="35.0797988">
        <ele>641.6</ele>
        <time>2011-10-14T07:15:43Z</time>
      </trkpt>
      <trkpt lat="31.8010458" lon="35.0794935">
        <ele>642.6</ele>
        <time>2011-10-14T07:15:48Z</time>
      </trkpt>
      <trkpt lat="31.8009708" lon="35.0790844">
        <ele>641.6</ele>
        <time>2011-10-14T07:15:54Z</time>
      </trkpt>
      <trkpt lat="31.8009389" lon="35.0787538">
        <ele>641.6</ele>
        <time>2011-10-14T07:15:58Z</time>
      </trkpt>
      <trkpt lat="31.8009014" lon="35.0781407">
        <ele>641.6</ele>
        <time>2011-10-14T07:16:04Z</time>
      </trkpt>
      <trkpt lat="31.8008318" lon="35.0774673">
        <ele>642.6</ele>
        <time>2011-10-14T07:16:10Z</time>
      </trkpt>
      <trkpt lat="31.8009135" lon="35.0770075">
        <ele>641.6</ele>
        <time>2011-10-14T07:16:14Z</time>
      </trkpt>
      <trkpt lat="31.8009512" lon="35.0768249">
        <ele>639.6</ele>
        <time>2011-10-14T07:16:20Z</time>
      </trkpt>
      <trkpt lat="31.8010166" lon="35.076451">
        <ele>636.6</ele>
        <time>2011-10-14T07:16:26Z</time>
      </trkpt>
      <trkpt lat="31.8008052" lon="35.0764159">
        <ele>635.6</ele>
        <time>2011-10-14T07:16:31Z</time>
      </trkpt>
      <trkpt lat="31.8004152" lon="35.0762399">
        <ele>635.6</ele>
        <time>2011-10-14T07:16:37Z</time>
      </trkpt>
      <trkpt lat="31.799468" lon="35.0760171">
        <ele>634.6</ele>
        <time>2011-10-14T07:16:45Z</time>
      </trkpt>
      <trkpt lat="31.799424" lon="35.0758368">
        <ele>629.6</ele>
        <time>2011-10-14T07:16:49Z</time>
      </trkpt>
      <trkpt lat="31.7993385" lon="35.0757652">
        <ele>627.6</ele>
        <time>2011-10-14T07:16:54Z</time>
      </trkpt>
      <trkpt lat="31.7991965" lon="35.0757055">
        <ele>630.6</ele>
        <time>2011-10-14T07:16:58Z</time>
      </trkpt>
      <trkpt lat="31.7990577" lon="35.0756507">
        <ele>632.6</ele>
        <time>2011-10-14T07:17:02Z</time>
      </trkpt>
      <trkpt lat="31.7988795" lon="35.0756082">
        <ele>634.6</ele>
        <time>2011-10-14T07:17:07Z</time>
      </trkpt>
      <trkpt lat="31.7987377" lon="35.0755808">
        <ele>635.6</ele>
        <time>2011-10-14T07:17:11Z</time>
      </trkpt>
      <trkpt lat="31.7985558" lon="35.0755475">
        <ele>638.6</ele>
        <time>2011-10-14T07:17:16Z</time>
      </trkpt>
      <trkpt lat="31.7984187" lon="35.0755333">
        <ele>640.6</ele>
        <time>2011-10-14T07:17:20Z</time>
      </trkpt>
      <trkpt lat="31.7982557" lon="35.0755403">
        <ele>643.6</ele>
        <time>2011-10-14T07:17:25Z</time>
      </trkpt>
      <trkpt lat="31.7980983" lon="35.075609">
        <ele>645.6</ele>
        <time>2011-10-14T07:17:30Z</time>
      </trkpt>
      <trkpt lat="31.7980379" lon="35.0757941">
        <ele>646.6</ele>
        <time>2011-10-14T07:17:37Z</time>
      </trkpt>
      <trkpt lat="31.7981819" lon="35.0758199">
        <ele>640.6</ele>
        <time>2011-10-14T07:17:50Z</time>
      </trkpt>
      <trkpt lat="31.7983054" lon="35.0759259">
        <ele>638.6</ele>
        <time>2011-10-14T07:17:57Z</time>
      </trkpt>
      <trkpt lat="31.7985179" lon="35.0759106">
        <ele>637.6</ele>
        <time>2011-10-14T07:18:15Z</time>
      </trkpt>
      <trkpt lat="31.7985635" lon="35.0760665">
        <ele>640.6</ele>
        <time>2011-10-14T07:19:41Z</time>
      </trkpt>
      <trkpt lat="31.7985475" lon="35.0761464">
        <ele>634.6</ele>
        <time>2011-10-14T07:19:48Z</time>
      </trkpt>
      <trkpt lat="31.7986736" lon="35.0762608">
        <ele>626.6</ele>
        <time>2011-10-14T07:19:58Z</time>
      </trkpt>
      <trkpt lat="31.7988309" lon="35.0762946">
        <ele>628.6</ele>
        <time>2011-10-14T07:20:10Z</time>
      </trkpt>
      <trkpt lat="31.7988309" lon="35.0762946">
        <time>2011-10-14T07:23:41Z</time>
      </trkpt>
    </trkseg>
    <trkseg>
      <trkpt lat="31.7988309" lon="35.0762946">
        <time>2011-10-14T07:32:05Z</time>
      </trkpt>
      <trkpt lat="31.7988217" lon="35.0763631">
        <ele>-18.4</ele>
        <time>2011-10-14T07:32:19Z</time>
      </trkpt>
      <trkpt lat="31.7988174" lon="35.076243">
        <ele>633.6</ele>
        <time>2011-10-14T07:32:30Z</time>
      </trkpt>
      <trkpt lat="31.7987001" lon="35.0763241">
        <ele>620.6</ele>
        <time>2011-10-14T07:33:58Z</time>
      </trkpt>
      <trkpt lat="31.7985411" lon="35.0763031">
        <ele>623.6</ele>
        <time>2011-10-14T07:34:08Z</time>
      </trkpt>
      <trkpt lat="31.7984004" lon="35.0762844">
        <ele>625.6</ele>
        <time>2011-10-14T07:34:16Z</time>
      </trkpt>
      <trkpt lat="31.7982473" lon="35.0762419">
        <ele>628.6</ele>
        <time>2011-10-14T07:34:25Z</time>
      </trkpt>
      <trkpt lat="31.7981074" lon="35.0762854">
        <ele>630.6</ele>
        <time>2011-10-14T07:34:32Z</time>
      </trkpt>
      <trkpt lat="31.7979178" lon="35.0763735">
        <ele>634.6</ele>
        <time>2011-10-14T07:34:39Z</time>
      </trkpt>
      <trkpt lat="31.797647" lon="35.0764742">
        <ele>635.6</ele>
        <time>2011-10-14T07:34:44Z</time>
      </trkpt>
      <trkpt lat="31.7971485" lon="35.0765607">
        <ele>637.6</ele>
        <time>2011-10-14T07:34:49Z</time>
      </trkpt>
      <trkpt lat="31.7965482" lon="35.0766211">
        <ele>635.6</ele>
        <time>2011-10-14T07:34:55Z</time>
      </trkpt>
      <trkpt lat="31.7963413" lon="35.0768546">
        <ele>631.6</ele>
        <time>2011-10-14T07:35:00Z</time>
      </trkpt>
      <trkpt lat="31.7964629" lon="35.0770059">
        <ele>630.6</ele>
        <time>2011-10-14T07:35:04Z</time>
      </trkpt>
      <trkpt lat="31.7968118" lon="35.0771023">
        <ele>629.6</ele>
        <time>2011-10-14T07:35:09Z</time>
      </trkpt>
      <trkpt lat="31.7971712" lon="35.0773644">
        <ele>628.6</ele>
        <time>2011-10-14T07:35:14Z</time>
      </trkpt>
      <trkpt lat="31.797474" lon="35.0775749">
        <ele>627.6</ele>
        <time>2011-10-14T07:35:18Z</time>
      </trkpt>
      <trkpt lat="31.7977763" lon="35.0780245">
        <ele>626.6</ele>
        <time>2011-10-14T07:35:25Z</time>
      </trkpt>
      <trkpt lat="31.7976756" lon="35.0783547">
        <ele>625.6</ele>
        <time>2011-10-14T07:35:30Z</time>
      </trkpt>
      <trkpt lat="31.7975655" lon="35.0788505">
        <ele>623.6</ele>
        <time>2011-10-14T07:35:36Z</time>
      </trkpt>
      <trkpt lat="31.7975623" lon="35.0790989">
        <ele>622.6</ele>
        <time>2011-10-14T07:35:40Z</time>
      </trkpt>
      <trkpt lat="31.797552" lon="35.0793071">
        <ele>621.6</ele>
        <time>2011-10-14T07:35:44Z</time>
      </trkpt>
      <trkpt lat="31.7975687" lon="35.0795819">
        <ele>618.6</ele>
        <time>2011-10-14T07:35:49Z</time>
      </trkpt>
      <trkpt lat="31.7976653" lon="35.0799291">
        <ele>615.6</ele>
        <time>2011-10-14T07:35:56Z</time>
      </trkpt>
      <trkpt lat="31.7976205" lon="35.0802074">
        <ele>610.6</ele>
        <time>2011-10-14T07:36:05Z</time>
      </trkpt>
      <trkpt lat="31.7974979" lon="35.0800916">
        <ele>607.6</ele>
        <time>2011-10-14T07:36:11Z</time>
      </trkpt>
      <trkpt lat="31.797285" lon="35.0797832">
        <ele>607.6</ele>
        <time>2011-10-14T07:36:17Z</time>
      </trkpt>
      <trkpt lat="31.7970866" lon="35.0794486">
        <ele>605.6</ele>
        <time>2011-10-14T07:36:22Z</time>
      </trkpt>
      <trkpt lat="31.7969169" lon="35.0789071">
        <ele>601.6</ele>
        <time>2011-10-14T07:36:47Z</time>
      </trkpt>
      <trkpt lat="31.7968973" lon="35.0787379">
        <ele>601.6</ele>
        <time>2011-10-14T07:36:53Z</time>
      </trkpt>
      <trkpt lat="31.7967791" lon="35.078519">
        <ele>600.6</ele>
        <time>2011-10-14T07:37:02Z</time>
      </trkpt>
      <trkpt lat="31.7965379" lon="35.078377">
        <ele>600.6</ele>
        <time>2011-10-14T07:37:07Z</time>
      </trkpt>
      <trkpt lat="31.7961336" lon="35.0782852">
        <ele>599.6</ele>
        <time>2011-10-14T07:37:13Z</time>
      </trkpt>
      <trkpt lat="31.7956998" lon="35.0781363">
        <ele>598.6</ele>
        <time>2011-10-14T07:37:19Z</time>
      </trkpt>
      <trkpt lat="31.7952524" lon="35.0780302">
        <ele>595.6</ele>
        <time>2011-10-14T07:37:35Z</time>
      </trkpt>
      <trkpt lat="31.7951112" lon="35.0779933">
        <ele>593.6</ele>
        <time>2011-10-14T07:37:42Z</time>
      </trkpt>
      <trkpt lat="31.7949533" lon="35.0779819">
        <ele>590.6</ele>
        <time>2011-10-14T07:37:50Z</time>
      </trkpt>
      <trkpt lat="31.7948035" lon="35.0779705">
        <ele>588.6</ele>
        <time>2011-10-14T07:37:55Z</time>
      </trkpt>
      <trkpt lat="31.794647" lon="35.0779332">
        <ele>587.6</ele>
        <time>2011-10-14T07:38:00Z</time>
      </trkpt>
      <trkpt lat="31.7944972" lon="35.0778707">
        <ele>586.6</ele>
        <time>2011-10-14T07:38:05Z</time>
      </trkpt>
      <trkpt lat="31.7941731" lon="35.0777849">
        <ele>586.6</ele>
        <time>2011-10-14T07:38:18Z</time>
      </trkpt>
      <trkpt lat="31.7939749" lon="35.0777374">
        <ele>586.6</ele>
        <time>2011-10-14T07:38:25Z</time>
      </trkpt>
      <trkpt lat="31.7937857" lon="35.0777414">
        <ele>585.6</ele>
        <time>2011-10-14T07:38:30Z</time>
      </trkpt>
      <trkpt lat="31.7934881" lon="35.0777127">
        <ele>584.6</ele>
        <time>2011-10-14T07:38:37Z</time>
      </trkpt>
      <trkpt lat="31.7933469" lon="35.0776508">
        <ele>582.6</ele>
        <time>2011-10-14T07:38:42Z</time>
      </trkpt>
      <trkpt lat="31.793219" lon="35.0775903">
        <ele>581.6</ele>
        <time>2011-10-14T07:38:47Z</time>
      </trkpt>
      <trkpt lat="31.7930341" lon="35.0774598">
        <ele>579.6</ele>
        <time>2011-10-14T07:38:55Z</time>
      </trkpt>
      <trkpt lat="31.79283" lon="35.0772283">
        <ele>578.6</ele>
        <time>2011-10-14T07:39:00Z</time>
      </trkpt>
      <trkpt lat="31.7926693" lon="35.0769852">
        <ele>576.6</ele>
        <time>2011-10-14T07:39:04Z</time>
      </trkpt>
      <trkpt lat="31.7925999" lon="35.0766264">
        <ele>574.6</ele>
        <time>2011-10-14T07:39:10Z</time>
      </trkpt>
      <trkpt lat="31.7926885" lon="35.0762326">
        <ele>573.6</ele>
        <time>2011-10-14T07:39:16Z</time>
      </trkpt>
      <trkpt lat="31.7928036" lon="35.075821">
        <ele>573.6</ele>
        <time>2011-10-14T07:39:22Z</time>
      </trkpt>
      <trkpt lat="31.7929831" lon="35.0752437">
        <ele>574.6</ele>
        <time>2011-10-14T07:39:29Z</time>
      </trkpt>
      <trkpt lat="31.792808" lon="35.0748575">
        <ele>575.6</ele>
        <time>2011-10-14T07:39:36Z</time>
      </trkpt>
      <trkpt lat="31.7926099" lon="35.0745567">
        <ele>575.6</ele>
        <time>2011-10-14T07:39:42Z</time>
      </trkpt>
      <trkpt lat="31.7924043" lon="35.0742294">
        <ele>575.6</ele>
        <time>2011-10-14T07:39:47Z</time>
      </trkpt>
      <trkpt lat="31.7922091" lon="35.0739325">
        <ele>575.6</ele>
        <time>2011-10-14T07:39:51Z</time>
      </trkpt>
      <trkpt lat="31.7918782" lon="35.0735261">
        <ele>575.6</ele>
        <time>2011-10-14T07:39:57Z</time>
      </trkpt>
      <trkpt lat="31.7916476" lon="35.073275">
        <ele>575.6</ele>
        <time>2011-10-14T07:40:03Z</time>
      </trkpt>
      <trkpt lat="31.7915566" lon="35.0730673">
        <ele>568.6</ele>
        <time>2011-10-14T07:40:50Z</time>
      </trkpt>
      <trkpt lat="31.7914333" lon="35.0728996">
        <ele>567.6</ele>
        <time>2011-10-14T07:40:57Z</time>
      </trkpt>
      <trkpt lat="31.7913059" lon="35.0727531">
        <ele>565.6</ele>
        <time>2011-10-14T07:41:03Z</time>
      </trkpt>
      <trkpt lat="31.7912141" lon="35.072607">
        <ele>563.6</ele>
        <time>2011-10-14T07:41:08Z</time>
      </trkpt>
      <trkpt lat="31.7911242" lon="35.072475">
        <ele>562.6</ele>
        <time>2011-10-14T07:41:12Z</time>
      </trkpt>
      <trkpt lat="31.7910053" lon="35.0722893">
        <ele>562.6</ele>
        <time>2011-10-14T07:41:17Z</time>
      </trkpt>
      <trkpt lat="31.7909193" lon="35.0721651">
        <ele>562.6</ele>
        <time>2011-10-14T07:41:21Z</time>
      </trkpt>
      <trkpt lat="31.7907812" lon="35.0719263">
        <ele>561.6</ele>
        <time>2011-10-14T07:41:30Z</time>
      </trkpt>
      <trkpt lat="31.7906401" lon="35.0717631">
        <ele>560.6</ele>
        <time>2011-10-14T07:41:41Z</time>
      </trkpt>
      <trkpt lat="31.7905045" lon="35.0715768">
        <ele>560.6</ele>
        <time>2011-10-14T07:41:50Z</time>
      </trkpt>
      <trkpt lat="31.7904701" lon="35.0712787">
        <ele>560.6</ele>
        <time>2011-10-14T07:42:02Z</time>
      </trkpt>
      <trkpt lat="31.7904768" lon="35.0710305">
        <ele>559.6</ele>
        <time>2011-10-14T07:42:11Z</time>
      </trkpt>
      <trkpt lat="31.7904977" lon="35.0707894">
        <ele>558.6</ele>
        <time>2011-10-14T07:42:20Z</time>
      </trkpt>
      <trkpt lat="31.7904814" lon="35.070543">
        <ele>558.6</ele>
        <time>2011-10-14T07:42:31Z</time>
      </trkpt>
      <trkpt lat="31.7904956" lon="35.0703745">
        <ele>557.6</ele>
        <time>2011-10-14T07:42:40Z</time>
      </trkpt>
      <trkpt lat="31.7904874" lon="35.0701744">
        <ele>557.6</ele>
        <time>2011-10-14T07:42:48Z</time>
      </trkpt>
      <trkpt lat="31.7904466" lon="35.0699617">
        <ele>557.6</ele>
        <time>2011-10-14T07:42:57Z</time>
      </trkpt>
      <trkpt lat="31.7903885" lon="35.0697958">
        <ele>557.6</ele>
        <time>2011-10-14T07:43:05Z</time>
      </trkpt>
      <trkpt lat="31.7903214" lon="35.0695953">
        <ele>558.6</ele>
        <time>2011-10-14T07:43:15Z</time>
      </trkpt>
      <trkpt lat="31.7902227" lon="35.0694608">
        <ele>559.6</ele>
        <time>2011-10-14T07:43:22Z</time>
      </trkpt>
      <trkpt lat="31.7900402" lon="35.069284">
        <ele>560.6</ele>
        <time>2011-10-14T07:43:33Z</time>
      </trkpt>
      <trkpt lat="31.7898928" lon="35.0691416">
        <ele>561.6</ele>
        <time>2011-10-14T07:43:42Z</time>
      </trkpt>
      <trkpt lat="31.7897846" lon="35.0690201">
        <ele>562.6</ele>
        <time>2011-10-14T07:43:49Z</time>
      </trkpt>
      <trkpt lat="31.7896826" lon="35.0689024">
        <ele>563.6</ele>
        <time>2011-10-14T07:43:56Z</time>
      </trkpt>
      <trkpt lat="31.7895749" lon="35.0687948">
        <ele>563.6</ele>
        <time>2011-10-14T07:44:03Z</time>
      </trkpt>
      <trkpt lat="31.789445" lon="35.0686316">
        <ele>564.6</ele>
        <time>2011-10-14T07:44:12Z</time>
      </trkpt>
      <trkpt lat="31.7893405" lon="35.0685118">
        <ele>564.6</ele>
        <time>2011-10-14T07:44:19Z</time>
      </trkpt>
      <trkpt lat="31.7892462" lon="35.0683715">
        <ele>563.6</ele>
        <time>2011-10-14T07:44:26Z</time>
      </trkpt>
      <trkpt lat="31.7891572" lon="35.0682498">
        <ele>562.6</ele>
        <time>2011-10-14T07:44:35Z</time>
      </trkpt>
      <trkpt lat="31.7890905" lon="35.0681051">
        <ele>561.6</ele>
        <time>2011-10-14T07:44:43Z</time>
      </trkpt>
      <trkpt lat="31.789044" lon="35.0678603">
        <ele>561.6</ele>
        <time>2011-10-14T07:44:51Z</time>
      </trkpt>
      <trkpt lat="31.7891045" lon="35.067648">
        <ele>559.6</ele>
        <time>2011-10-14T07:45:03Z</time>
      </trkpt>
      <trkpt lat="31.7891701" lon="35.0675029">
        <ele>561.6</ele>
        <time>2011-10-14T07:45:12Z</time>
      </trkpt>
      <trkpt lat="31.7892193" lon="35.0674262">
        <ele>562.6</ele>
        <time>2011-10-14T07:45:16Z</time>
      </trkpt>
      <trkpt lat="31.7893533" lon="35.0672098">
        <ele>562.6</ele>
        <time>2011-10-14T07:45:30Z</time>
      </trkpt>
      <trkpt lat="31.7894834" lon="35.0670233">
        <ele>562.6</ele>
        <time>2011-10-14T07:45:45Z</time>
      </trkpt>
      <trkpt lat="31.7895512" lon="35.0668709">
        <ele>564.6</ele>
        <time>2011-10-14T07:45:54Z</time>
      </trkpt>
      <trkpt lat="31.7896124" lon="35.0666765">
        <ele>565.6</ele>
        <time>2011-10-14T07:46:04Z</time>
      </trkpt>
      <trkpt lat="31.7896766" lon="35.0665231">
        <ele>566.6</ele>
        <time>2011-10-14T07:46:14Z</time>
      </trkpt>
      <trkpt lat="31.7897101" lon="35.0664563">
        <ele>566.6</ele>
        <time>2011-10-14T07:46:18Z</time>
      </trkpt>
      <trkpt lat="31.78978" lon="35.0663152">
        <ele>567.6</ele>
        <time>2011-10-14T07:46:28Z</time>
      </trkpt>
      <trkpt lat="31.7898756" lon="35.066079">
        <ele>567.6</ele>
        <time>2011-10-14T07:46:44Z</time>
      </trkpt>
      <trkpt lat="31.7899075" lon="35.0659175">
        <ele>567.6</ele>
        <time>2011-10-14T07:46:56Z</time>
      </trkpt>
      <trkpt lat="31.7899345" lon="35.0657494">
        <ele>567.6</ele>
        <time>2011-10-14T07:47:02Z</time>
      </trkpt>
      <trkpt lat="31.7899675" lon="35.0655734">
        <ele>568.6</ele>
        <time>2011-10-14T07:47:09Z</time>
      </trkpt>
      <trkpt lat="31.7899921" lon="35.0654039">
        <ele>570.6</ele>
        <time>2011-10-14T07:47:16Z</time>
      </trkpt>
      <trkpt lat="31.7899884" lon="35.0652136">
        <ele>572.6</ele>
        <time>2011-10-14T07:47:24Z</time>
      </trkpt>
      <trkpt lat="31.7899908" lon="35.0650385">
        <ele>573.6</ele>
        <time>2011-10-14T07:47:31Z</time>
      </trkpt>
      <trkpt lat="31.7899835" lon="35.0648624">
        <ele>574.6</ele>
        <time>2011-10-14T07:47:38Z</time>
      </trkpt>
      <trkpt lat="31.789977" lon="35.0646575">
        <ele>574.6</ele>
        <time>2011-10-14T07:47:48Z</time>
      </trkpt>
      <trkpt lat="31.7900009" lon="35.0644094">
        <ele>576.6</ele>
        <time>2011-10-14T07:47:57Z</time>
      </trkpt>
      <trkpt lat="31.7900149" lon="35.0642315">
        <ele>577.6</ele>
        <time>2011-10-14T07:48:03Z</time>
      </trkpt>
      <trkpt lat="31.7900257" lon="35.0640537">
        <ele>577.6</ele>
        <time>2011-10-14T07:48:09Z</time>
      </trkpt>
      <trkpt lat="31.7900395" lon="35.0638791">
        <ele>578.6</ele>
        <time>2011-10-14T07:48:16Z</time>
      </trkpt>
      <trkpt lat="31.7900771" lon="35.0636946">
        <ele>578.6</ele>
        <time>2011-10-14T07:48:25Z</time>
      </trkpt>
      <trkpt lat="31.7901415" lon="35.0635298">
        <ele>579.6</ele>
        <time>2011-10-14T07:48:34Z</time>
      </trkpt>
      <trkpt lat="31.7902119" lon="35.0633685">
        <ele>580.6</ele>
        <time>2011-10-14T07:48:42Z</time>
      </trkpt>
      <trkpt lat="31.7902234" lon="35.0631613">
        <ele>580.6</ele>
        <time>2011-10-14T07:48:53Z</time>
      </trkpt>
      <trkpt lat="31.7901964" lon="35.0628834">
        <ele>581.6</ele>
        <time>2011-10-14T07:49:07Z</time>
      </trkpt>
      <trkpt lat="31.7901739" lon="35.0627158">
        <ele>581.6</ele>
        <time>2011-10-14T07:49:16Z</time>
      </trkpt>
      <trkpt lat="31.7901389" lon="35.06254">
        <ele>580.6</ele>
        <time>2011-10-14T07:49:25Z</time>
      </trkpt>
      <trkpt lat="31.7900732" lon="35.0623889">
        <ele>581.6</ele>
        <time>2011-10-14T07:49:33Z</time>
      </trkpt>
      <trkpt lat="31.7900069" lon="35.0622458">
        <ele>582.6</ele>
        <time>2011-10-14T07:49:42Z</time>
      </trkpt>
      <trkpt lat="31.7899456" lon="35.0620799">
        <ele>583.6</ele>
        <time>2011-10-14T07:49:50Z</time>
      </trkpt>
      <trkpt lat="31.7899297" lon="35.0619034">
        <ele>585.6</ele>
        <time>2011-10-14T07:49:57Z</time>
      </trkpt>
      <trkpt lat="31.7899201" lon="35.0617428">
        <ele>585.6</ele>
        <time>2011-10-14T07:50:03Z</time>
      </trkpt>
      <trkpt lat="31.7899161" lon="35.0615738">
        <ele>586.6</ele>
        <time>2011-10-14T07:50:10Z</time>
      </trkpt>
      <trkpt lat="31.7899044" lon="35.0614032">
        <ele>587.6</ele>
        <time>2011-10-14T07:50:16Z</time>
      </trkpt>
      <trkpt lat="31.7898803" lon="35.0612331">
        <ele>588.6</ele>
        <time>2011-10-14T07:50:23Z</time>
      </trkpt>
      <trkpt lat="31.7898487" lon="35.0610696">
        <ele>589.6</ele>
        <time>2011-10-14T07:50:30Z</time>
      </trkpt>
      <trkpt lat="31.7898132" lon="35.0608994">
        <ele>588.6</ele>
        <time>2011-10-14T07:50:37Z</time>
      </trkpt>
      <trkpt lat="31.7897815" lon="35.0607381">
        <ele>588.6</ele>
        <time>2011-10-14T07:50:45Z</time>
      </trkpt>
      <trkpt lat="31.7897275" lon="35.0605842">
        <ele>589.6</ele>
        <time>2011-10-14T07:50:51Z</time>
      </trkpt>
      <trkpt lat="31.7896832" lon="35.0604325">
        <ele>589.6</ele>
        <time>2011-10-14T07:50:55Z</time>
      </trkpt>
      <trkpt lat="31.7896233" lon="35.0602739">
        <ele>590.6</ele>
        <time>2011-10-14T07:51:00Z</time>
      </trkpt>
      <trkpt lat="31.7895397" lon="35.0601417">
        <ele>590.6</ele>
        <time>2011-10-14T07:51:05Z</time>
      </trkpt>
      <trkpt lat="31.7894471" lon="35.0600163">
        <ele>590.6</ele>
        <time>2011-10-14T07:51:10Z</time>
      </trkpt>
      <trkpt lat="31.7893429" lon="35.0598802">
        <ele>590.6</ele>
        <time>2011-10-14T07:51:16Z</time>
      </trkpt>
      <trkpt lat="31.7890981" lon="35.0596295">
        <ele>591.6</ele>
        <time>2011-10-14T07:51:24Z</time>
      </trkpt>
      <trkpt lat="31.7888885" lon="35.0593817">
        <ele>593.6</ele>
        <time>2011-10-14T07:51:33Z</time>
      </trkpt>
      <trkpt lat="31.7887619" lon="35.0592288">
        <ele>593.6</ele>
        <time>2011-10-14T07:51:37Z</time>
      </trkpt>
      <trkpt lat="31.7885884" lon="35.0589597">
        <ele>593.6</ele>
        <time>2011-10-14T07:51:45Z</time>
      </trkpt>
      <trkpt lat="31.7884217" lon="35.058634">
        <ele>593.6</ele>
        <time>2011-10-14T07:51:54Z</time>
      </trkpt>
      <trkpt lat="31.7883572" lon="35.0583988">
        <ele>593.6</ele>
        <time>2011-10-14T07:51:59Z</time>
      </trkpt>
      <trkpt lat="31.7882908" lon="35.0582149">
        <ele>594.6</ele>
        <time>2011-10-14T07:52:03Z</time>
      </trkpt>
      <trkpt lat="31.7882565" lon="35.0580151">
        <ele>596.6</ele>
        <time>2011-10-14T07:52:07Z</time>
      </trkpt>
      <trkpt lat="31.7882227" lon="35.0577256">
        <ele>596.6</ele>
        <time>2011-10-14T07:52:13Z</time>
      </trkpt>
      <trkpt lat="31.7881925" lon="35.0573119">
        <ele>595.6</ele>
        <time>2011-10-14T07:52:21Z</time>
      </trkpt>
      <trkpt lat="31.7881693" lon="35.0571201">
        <ele>595.6</ele>
        <time>2011-10-14T07:52:25Z</time>
      </trkpt>
      <trkpt lat="31.78808" lon="35.0567524">
        <ele>594.6</ele>
        <time>2011-10-14T07:52:32Z</time>
      </trkpt>
      <trkpt lat="31.7881479" lon="35.0564076">
        <ele>591.6</ele>
        <time>2011-10-14T07:52:37Z</time>
      </trkpt>
      <trkpt lat="31.7882851" lon="35.0559509">
        <ele>589.6</ele>
        <time>2011-10-14T07:52:44Z</time>
      </trkpt>
      <trkpt lat="31.7884465" lon="35.0554188">
        <ele>587.6</ele>
        <time>2011-10-14T07:52:50Z</time>
      </trkpt>
      <trkpt lat="31.7886767" lon="35.055149">
        <ele>587.6</ele>
        <time>2011-10-14T07:52:54Z</time>
      </trkpt>
      <trkpt lat="31.7889961" lon="35.0551066">
        <ele>587.6</ele>
        <time>2011-10-14T07:53:00Z</time>
      </trkpt>
      <trkpt lat="31.789236" lon="35.0551146">
        <ele>587.6</ele>
        <time>2011-10-14T07:53:07Z</time>
      </trkpt>
      <trkpt lat="31.7895266" lon="35.0552187">
        <ele>587.6</ele>
        <time>2011-10-14T07:53:16Z</time>
      </trkpt>
      <trkpt lat="31.7897064" lon="35.0552782">
        <ele>587.6</ele>
        <time>2011-10-14T07:53:22Z</time>
      </trkpt>
      <trkpt lat="31.7898627" lon="35.0553075">
        <ele>587.6</ele>
        <time>2011-10-14T07:53:27Z</time>
      </trkpt>
      <trkpt lat="31.7900191" lon="35.0553239">
        <ele>587.6</ele>
        <time>2011-10-14T07:53:31Z</time>
      </trkpt>
      <trkpt lat="31.7902513" lon="35.0552958">
        <ele>587.6</ele>
        <time>2011-10-14T07:53:37Z</time>
      </trkpt>
      <trkpt lat="31.7901982" lon="35.0550738">
        <ele>587.6</ele>
        <time>2011-10-14T07:53:49Z</time>
      </trkpt>
      <trkpt lat="31.7900785" lon="35.0549871">
        <ele>586.6</ele>
        <time>2011-10-14T07:53:54Z</time>
      </trkpt>
      <trkpt lat="31.7899626" lon="35.0548922">
        <ele>586.6</ele>
        <time>2011-10-14T07:53:59Z</time>
      </trkpt>
      <trkpt lat="31.789802" lon="35.0546876">
        <ele>585.6</ele>
        <time>2011-10-14T07:54:05Z</time>
      </trkpt>
      <trkpt lat="31.7896295" lon="35.0543745">
        <ele>584.6</ele>
        <time>2011-10-14T07:54:11Z</time>
      </trkpt>
      <trkpt lat="31.7894595" lon="35.0540668">
        <ele>583.6</ele>
        <time>2011-10-14T07:54:18Z</time>
      </trkpt>
      <trkpt lat="31.7893417" lon="35.0538567">
        <ele>583.6</ele>
        <time>2011-10-14T07:54:23Z</time>
      </trkpt>
      <trkpt lat="31.7892048" lon="35.0535441">
        <ele>582.6</ele>
        <time>2011-10-14T07:54:30Z</time>
      </trkpt>
      <trkpt lat="31.7891347" lon="35.0532083">
        <ele>581.6</ele>
        <time>2011-10-14T07:54:37Z</time>
      </trkpt>
      <trkpt lat="31.7892719" lon="35.0528852">
        <ele>579.6</ele>
        <time>2011-10-14T07:54:45Z</time>
      </trkpt>
      <trkpt lat="31.7893988" lon="35.0527583">
        <ele>578.6</ele>
        <time>2011-10-14T07:54:49Z</time>
      </trkpt>
      <trkpt lat="31.7896981" lon="35.0525653">
        <ele>576.6</ele>
        <time>2011-10-14T07:54:57Z</time>
      </trkpt>
      <trkpt lat="31.7899294" lon="35.0524383">
        <ele>577.6</ele>
        <time>2011-10-14T07:55:03Z</time>
      </trkpt>
      <trkpt lat="31.7900794" lon="35.0523718">
        <ele>577.6</ele>
        <time>2011-10-14T07:55:07Z</time>
      </trkpt>
      <trkpt lat="31.7903279" lon="35.0522503">
        <ele>578.6</ele>
        <time>2011-10-14T07:55:14Z</time>
      </trkpt>
      <trkpt lat="31.7904698" lon="35.0521612">
        <ele>578.6</ele>
        <time>2011-10-14T07:55:19Z</time>
      </trkpt>
      <trkpt lat="31.7906097" lon="35.0519431">
        <ele>578.6</ele>
        <time>2011-10-14T07:55:28Z</time>
      </trkpt>
      <trkpt lat="31.7905104" lon="35.0517829">
        <ele>579.6</ele>
        <time>2011-10-14T07:55:35Z</time>
      </trkpt>
      <trkpt lat="31.790411" lon="35.0516265">
        <ele>579.6</ele>
        <time>2011-10-14T07:55:40Z</time>
      </trkpt>
      <trkpt lat="31.7903223" lon="35.051472">
        <ele>579.6</ele>
        <time>2011-10-14T07:55:45Z</time>
      </trkpt>
      <trkpt lat="31.7901356" lon="35.0512074">
        <ele>580.6</ele>
        <time>2011-10-14T07:55:53Z</time>
      </trkpt>
      <trkpt lat="31.7898907" lon="35.0510594">
        <ele>580.6</ele>
        <time>2011-10-14T07:56:00Z</time>
      </trkpt>
      <trkpt lat="31.7895349" lon="35.0509159">
        <ele>582.6</ele>
        <time>2011-10-14T07:56:06Z</time>
      </trkpt>
      <trkpt lat="31.7891397" lon="35.050626">
        <ele>582.6</ele>
        <time>2011-10-14T07:56:13Z</time>
      </trkpt>
      <trkpt lat="31.7889636" lon="35.0503324">
        <ele>582.6</ele>
        <time>2011-10-14T07:56:19Z</time>
      </trkpt>
      <trkpt lat="31.7889526" lon="35.0499074">
        <ele>582.6</ele>
        <time>2011-10-14T07:56:26Z</time>
      </trkpt>
      <trkpt lat="31.7890052" lon="35.049513">
        <ele>581.6</ele>
        <time>2011-10-14T07:56:32Z</time>
      </trkpt>
      <trkpt lat="31.7890681" lon="35.0491441">
        <ele>581.6</ele>
        <time>2011-10-14T07:56:39Z</time>
      </trkpt>
      <trkpt lat="31.7891725" lon="35.0488116">
        <ele>580.6</ele>
        <time>2011-10-14T07:56:45Z</time>
      </trkpt>
      <trkpt lat="31.7892941" lon="35.048502">
        <ele>579.6</ele>
        <time>2011-10-14T07:56:51Z</time>
      </trkpt>
      <trkpt lat="31.7893773" lon="35.0482559">
        <ele>578.6</ele>
        <time>2011-10-14T07:56:56Z</time>
      </trkpt>
      <trkpt lat="31.7894746" lon="35.0478644">
        <ele>576.6</ele>
        <time>2011-10-14T07:57:04Z</time>
      </trkpt>
      <trkpt lat="31.7894867" lon="35.0474707">
        <ele>576.6</ele>
        <time>2011-10-14T07:57:17Z</time>
      </trkpt>
      <trkpt lat="31.7892534" lon="35.0472557">
        <ele>577.6</ele>
        <time>2011-10-14T07:57:23Z</time>
      </trkpt>
      <trkpt lat="31.7890152" lon="35.0470151">
        <ele>578.6</ele>
        <time>2011-10-14T07:57:29Z</time>
      </trkpt>
      <trkpt lat="31.788881" lon="35.046894">
        <ele>578.6</ele>
        <time>2011-10-14T07:57:33Z</time>
      </trkpt>
      <trkpt lat="31.7886182" lon="35.0466926">
        <ele>578.6</ele>
        <time>2011-10-14T07:57:40Z</time>
      </trkpt>
      <trkpt lat="31.78843" lon="35.0465492">
        <ele>578.6</ele>
        <time>2011-10-14T07:57:46Z</time>
      </trkpt>
      <trkpt lat="31.7884312" lon="35.0463585">
        <ele>578.6</ele>
        <time>2011-10-14T07:57:52Z</time>
      </trkpt>
      <trkpt lat="31.7884977" lon="35.0459893">
        <ele>576.6</ele>
        <time>2011-10-14T07:57:59Z</time>
      </trkpt>
      <trkpt lat="31.7885646" lon="35.0458145">
        <ele>576.6</ele>
        <time>2011-10-14T07:58:03Z</time>
      </trkpt>
      <trkpt lat="31.7887571" lon="35.045488">
        <ele>575.6</ele>
        <time>2011-10-14T07:58:11Z</time>
      </trkpt>
      <trkpt lat="31.7888708" lon="35.0453574">
        <ele>575.6</ele>
        <time>2011-10-14T07:58:15Z</time>
      </trkpt>
      <trkpt lat="31.7890419" lon="35.0450809">
        <ele>575.6</ele>
        <time>2011-10-14T07:58:23Z</time>
      </trkpt>
      <trkpt lat="31.7891781" lon="35.0447959">
        <ele>575.6</ele>
        <time>2011-10-14T07:58:30Z</time>
      </trkpt>
      <trkpt lat="31.7892347" lon="35.0444317">
        <ele>576.6</ele>
        <time>2011-10-14T07:58:38Z</time>
      </trkpt>
      <trkpt lat="31.7893157" lon="35.0440772">
        <ele>577.6</ele>
        <time>2011-10-14T07:58:46Z</time>
      </trkpt>
      <trkpt lat="31.7895162" lon="35.0437289">
        <ele>577.6</ele>
        <time>2011-10-14T07:58:59Z</time>
      </trkpt>
      <trkpt lat="31.789693" lon="35.043788">
        <ele>578.6</ele>
        <time>2011-10-14T07:59:10Z</time>
      </trkpt>
      <trkpt lat="31.7898025" lon="35.0439852">
        <ele>575.6</ele>
        <time>2011-10-14T07:59:25Z</time>
      </trkpt>
      <trkpt lat="31.7899848" lon="35.043978">
        <ele>574.6</ele>
        <time>2011-10-14T07:59:43Z</time>
      </trkpt>
      <trkpt lat="31.7901678" lon="35.0439941">
        <ele>575.6</ele>
        <time>2011-10-14T07:59:58Z</time>
      </trkpt>
      <trkpt lat="31.7901704" lon="35.0442262">
        <ele>576.6</ele>
        <time>2011-10-14T08:00:13Z</time>
      </trkpt>
      <trkpt lat="31.7902051" lon="35.0444743">
        <ele>575.6</ele>
        <time>2011-10-14T08:00:30Z</time>
      </trkpt>
      <trkpt lat="31.7903879" lon="35.0446199">
        <ele>576.6</ele>
        <time>2011-10-14T08:00:47Z</time>
      </trkpt>
      <trkpt lat="31.7905754" lon="35.0446096">
        <ele>575.6</ele>
        <time>2011-10-14T08:01:04Z</time>
      </trkpt>
      <trkpt lat="31.7907607" lon="35.044524">
        <ele>575.6</ele>
        <time>2011-10-14T08:01:17Z</time>
      </trkpt>
      <trkpt lat="31.7909429" lon="35.0444701">
        <ele>577.6</ele>
        <time>2011-10-14T08:01:27Z</time>
      </trkpt>
      <trkpt lat="31.7910905" lon="35.0444526">
        <ele>576.6</ele>
        <time>2011-10-14T08:01:36Z</time>
      </trkpt>
      <trkpt lat="31.791251" lon="35.0444191">
        <ele>578.6</ele>
        <time>2011-10-14T08:01:45Z</time>
      </trkpt>
      <trkpt lat="31.7914573" lon="35.0445109">
        <ele>581.6</ele>
        <time>2011-10-14T08:02:06Z</time>
      </trkpt>
      <trkpt lat="31.7915505" lon="35.0446282">
        <ele>582.6</ele>
        <time>2011-10-14T08:02:19Z</time>
      </trkpt>
      <trkpt lat="31.7916674" lon="35.0447275">
        <ele>584.6</ele>
        <time>2011-10-14T08:03:59Z</time>
      </trkpt>
      <trkpt lat="31.7917736" lon="35.0448947">
        <ele>584.6</ele>
        <time>2011-10-14T08:04:12Z</time>
      </trkpt>
      <trkpt lat="31.7918889" lon="35.0449937">
        <ele>586.6</ele>
        <time>2011-10-14T08:04:22Z</time>
      </trkpt>
      <trkpt lat="31.7920334" lon="35.0449785">
        <ele>588.6</ele>
        <time>2011-10-14T08:04:33Z</time>
      </trkpt>
      <trkpt lat="31.7921679" lon="35.0449338">
        <ele>589.6</ele>
        <time>2011-10-14T08:04:44Z</time>
      </trkpt>
      <trkpt lat="31.7923008" lon="35.0448809">
        <ele>591.6</ele>
        <time>2011-10-14T08:04:56Z</time>
      </trkpt>
      <trkpt lat="31.792387" lon="35.0450152">
        <ele>591.6</ele>
        <time>2011-10-14T08:05:03Z</time>
      </trkpt>
      <trkpt lat="31.7924383" lon="35.0451876">
        <ele>592.6</ele>
        <time>2011-10-14T08:05:08Z</time>
      </trkpt>
      <trkpt lat="31.7924548" lon="35.0453715">
        <ele>591.6</ele>
        <time>2011-10-14T08:05:12Z</time>
      </trkpt>
      <trkpt lat="31.7924676" lon="35.0455783">
        <ele>590.6</ele>
        <time>2011-10-14T08:05:17Z</time>
      </trkpt>
      <trkpt lat="31.7925196" lon="35.0458004">
        <ele>592.6</ele>
        <time>2011-10-14T08:05:23Z</time>
      </trkpt>
      <trkpt lat="31.7926441" lon="35.045957">
        <ele>591.6</ele>
        <time>2011-10-14T08:05:30Z</time>
      </trkpt>
      <trkpt lat="31.7927801" lon="35.0460344">
        <ele>592.6</ele>
        <time>2011-10-14T08:05:35Z</time>
      </trkpt>
      <trkpt lat="31.792923" lon="35.0460953">
        <ele>592.6</ele>
        <time>2011-10-14T08:05:40Z</time>
      </trkpt>
      <trkpt lat="31.793074" lon="35.0461497">
        <ele>592.6</ele>
        <time>2011-10-14T08:05:45Z</time>
      </trkpt>
      <trkpt lat="31.7932388" lon="35.0461956">
        <ele>592.6</ele>
        <time>2011-10-14T08:05:51Z</time>
      </trkpt>
      <trkpt lat="31.7932636" lon="35.0460214">
        <ele>593.6</ele>
        <time>2011-10-14T08:06:01Z</time>
      </trkpt>
      <trkpt lat="31.7931648" lon="35.0458159">
        <ele>593.6</ele>
        <time>2011-10-14T08:06:07Z</time>
      </trkpt>
      <trkpt lat="31.7930339" lon="35.045498">
        <ele>592.6</ele>
        <time>2011-10-14T08:06:13Z</time>
      </trkpt>
      <trkpt lat="31.7931961" lon="35.0452709">
        <ele>590.6</ele>
        <time>2011-10-14T08:06:23Z</time>
      </trkpt>
      <trkpt lat="31.793495" lon="35.0452061">
        <ele>590.6</ele>
        <time>2011-10-14T08:06:31Z</time>
      </trkpt>
      <trkpt lat="31.7938556" lon="35.0451326">
        <ele>591.6</ele>
        <time>2011-10-14T08:06:39Z</time>
      </trkpt>
      <trkpt lat="31.7941544" lon="35.0450159">
        <ele>592.6</ele>
        <time>2011-10-14T08:06:45Z</time>
      </trkpt>
      <trkpt lat="31.7944801" lon="35.0448644">
        <ele>592.6</ele>
        <time>2011-10-14T08:06:51Z</time>
      </trkpt>
      <trkpt lat="31.7947284" lon="35.0446204">
        <ele>591.6</ele>
        <time>2011-10-14T08:06:57Z</time>
      </trkpt>
      <trkpt lat="31.7949951" lon="35.0443798">
        <ele>590.6</ele>
        <time>2011-10-14T08:07:02Z</time>
      </trkpt>
      <trkpt lat="31.7952714" lon="35.0440055">
        <ele>589.6</ele>
        <time>2011-10-14T08:07:07Z</time>
      </trkpt>
      <trkpt lat="31.7954465" lon="35.04377">
        <ele>586.6</ele>
        <time>2011-10-14T08:07:17Z</time>
      </trkpt>
      <trkpt lat="31.7956275" lon="35.0436206">
        <ele>579.6</ele>
        <time>2011-10-14T08:07:24Z</time>
      </trkpt>
      <trkpt lat="31.7958354" lon="35.0433777">
        <ele>575.6</ele>
        <time>2011-10-14T08:07:31Z</time>
      </trkpt>
      <trkpt lat="31.7961007" lon="35.0430869">
        <ele>573.6</ele>
        <time>2011-10-14T08:07:37Z</time>
      </trkpt>
      <trkpt lat="31.7964193" lon="35.0426606">
        <ele>570.6</ele>
        <time>2011-10-14T08:07:43Z</time>
      </trkpt>
      <trkpt lat="31.7966836" lon="35.0422437">
        <ele>567.6</ele>
        <time>2011-10-14T08:07:48Z</time>
      </trkpt>
      <trkpt lat="31.7968318" lon="35.0418953">
        <ele>565.6</ele>
        <time>2011-10-14T08:07:56Z</time>
      </trkpt>
      <trkpt lat="31.7969182" lon="35.0417579">
        <ele>563.6</ele>
        <time>2011-10-14T08:08:02Z</time>
      </trkpt>
      <trkpt lat="31.7970318" lon="35.0415819">
        <ele>562.6</ele>
        <time>2011-10-14T08:08:06Z</time>
      </trkpt>
      <trkpt lat="31.7972089" lon="35.041317">
        <ele>560.6</ele>
        <time>2011-10-14T08:08:12Z</time>
      </trkpt>
      <trkpt lat="31.7974108" lon="35.0410857">
        <ele>558.6</ele>
        <time>2011-10-14T08:08:19Z</time>
      </trkpt>
      <trkpt lat="31.7976191" lon="35.0407853">
        <ele>558.6</ele>
        <time>2011-10-14T08:08:23Z</time>
      </trkpt>
      <trkpt lat="31.7978759" lon="35.0403214">
        <ele>557.6</ele>
        <time>2011-10-14T08:08:29Z</time>
      </trkpt>
      <trkpt lat="31.7980748" lon="35.039974">
        <ele>556.6</ele>
        <time>2011-10-14T08:08:34Z</time>
      </trkpt>
      <trkpt lat="31.7983173" lon="35.0396237">
        <ele>555.6</ele>
        <time>2011-10-14T08:08:40Z</time>
      </trkpt>
      <trkpt lat="31.7984879" lon="35.0393653">
        <ele>555.6</ele>
        <time>2011-10-14T08:08:44Z</time>
      </trkpt>
      <trkpt lat="31.7987056" lon="35.039028">
        <ele>555.6</ele>
        <time>2011-10-14T08:08:49Z</time>
      </trkpt>
      <trkpt lat="31.7988855" lon="35.0387115">
        <ele>555.6</ele>
        <time>2011-10-14T08:08:54Z</time>
      </trkpt>
      <trkpt lat="31.799079" lon="35.0383976">
        <ele>556.6</ele>
        <time>2011-10-14T08:09:01Z</time>
      </trkpt>
      <trkpt lat="31.7991494" lon="35.0382172">
        <ele>556.6</ele>
        <time>2011-10-14T08:09:05Z</time>
      </trkpt>
      <trkpt lat="31.7992543" lon="35.0378541">
        <ele>555.6</ele>
        <time>2011-10-14T08:09:15Z</time>
      </trkpt>
      <trkpt lat="31.7994351" lon="35.0375321">
        <ele>551.6</ele>
        <time>2011-10-14T08:09:23Z</time>
      </trkpt>
      <trkpt lat="31.7996368" lon="35.0372667">
        <ele>546.6</ele>
        <time>2011-10-14T08:09:29Z</time>
      </trkpt>
      <trkpt lat="31.7997567" lon="35.037105">
        <ele>544.6</ele>
        <time>2011-10-14T08:09:33Z</time>
      </trkpt>
      <trkpt lat="31.7999368" lon="35.0368384">
        <ele>542.6</ele>
        <time>2011-10-14T08:09:39Z</time>
      </trkpt>
      <trkpt lat="31.8000998" lon="35.0365417">
        <ele>540.6</ele>
        <time>2011-10-14T08:09:45Z</time>
      </trkpt>
      <trkpt lat="31.8002641" lon="35.0361591">
        <ele>537.6</ele>
        <time>2011-10-14T08:09:51Z</time>
      </trkpt>
      <trkpt lat="31.800438" lon="35.035762">
        <ele>535.6</ele>
        <time>2011-10-14T08:09:57Z</time>
      </trkpt>
      <trkpt lat="31.8005673" lon="35.0354054">
        <ele>533.6</ele>
        <time>2011-10-14T08:10:03Z</time>
      </trkpt>
      <trkpt lat="31.8004713" lon="35.0350777">
        <ele>529.6</ele>
        <time>2011-10-14T08:10:10Z</time>
      </trkpt>
      <trkpt lat="31.8002797" lon="35.0349849">
        <ele>524.6</ele>
        <time>2011-10-14T08:10:18Z</time>
      </trkpt>
      <trkpt lat="31.8001772" lon="35.0349483">
        <ele>522.6</ele>
        <time>2011-10-14T08:10:22Z</time>
      </trkpt>
      <trkpt lat="31.8000532" lon="35.0348367">
        <ele>521.6</ele>
        <time>2011-10-14T08:10:28Z</time>
      </trkpt>
      <trkpt lat="31.7999421" lon="35.034746">
        <ele>518.6</ele>
        <time>2011-10-14T08:10:33Z</time>
      </trkpt>
      <trkpt lat="31.7998129" lon="35.0346322">
        <ele>516.6</ele>
        <time>2011-10-14T08:10:39Z</time>
      </trkpt>
      <trkpt lat="31.7996583" lon="35.0345006">
        <ele>513.6</ele>
        <time>2011-10-14T08:10:46Z</time>
      </trkpt>
      <trkpt lat="31.7995299" lon="35.0344069">
        <ele>509.6</ele>
        <time>2011-10-14T08:10:54Z</time>
      </trkpt>
      <trkpt lat="31.7993902" lon="35.03426">
        <ele>506.6</ele>
        <time>2011-10-14T08:11:05Z</time>
      </trkpt>
      <trkpt lat="31.799263" lon="35.0341283">
        <ele>503.6</ele>
        <time>2011-10-14T08:11:31Z</time>
      </trkpt>
      <trkpt lat="31.7990552" lon="35.0338933">
        <ele>504.6</ele>
        <time>2011-10-14T08:11:39Z</time>
      </trkpt>
      <trkpt lat="31.7989963" lon="35.0337339">
        <ele>504.6</ele>
        <time>2011-10-14T08:11:43Z</time>
      </trkpt>
      <trkpt lat="31.798931" lon="35.0335652">
        <ele>504.6</ele>
        <time>2011-10-14T08:11:48Z</time>
      </trkpt>
      <trkpt lat="31.798902" lon="35.0332706">
        <ele>504.6</ele>
        <time>2011-10-14T08:11:54Z</time>
      </trkpt>
      <trkpt lat="31.7989106" lon="35.0328707">
        <ele>505.6</ele>
        <time>2011-10-14T08:12:00Z</time>
      </trkpt>
      <trkpt lat="31.798942" lon="35.0326911">
        <ele>505.6</ele>
        <time>2011-10-14T08:12:07Z</time>
      </trkpt>
      <trkpt lat="31.7990821" lon="35.0326141">
        <ele>505.6</ele>
        <time>2011-10-14T08:12:13Z</time>
      </trkpt>
      <trkpt lat="31.7993418" lon="35.0324949">
        <ele>505.6</ele>
        <time>2011-10-14T08:12:23Z</time>
      </trkpt>
      <trkpt lat="31.7995374" lon="35.0323462">
        <ele>505.6</ele>
        <time>2011-10-14T08:12:29Z</time>
      </trkpt>
      <trkpt lat="31.799694" lon="35.0323364">
        <ele>507.6</ele>
        <time>2011-10-14T08:12:34Z</time>
      </trkpt>
      <trkpt lat="31.7998295" lon="35.0322301">
        <ele>507.6</ele>
        <time>2011-10-14T08:12:40Z</time>
      </trkpt>
      <trkpt lat="31.7999584" lon="35.0320642">
        <ele>505.6</ele>
        <time>2011-10-14T08:12:46Z</time>
      </trkpt>
      <trkpt lat="31.8001929" lon="35.0317417">
        <ele>504.6</ele>
        <time>2011-10-14T08:12:51Z</time>
      </trkpt>
      <trkpt lat="31.8004482" lon="35.0312575">
        <ele>502.6</ele>
        <time>2011-10-14T08:12:56Z</time>
      </trkpt>
      <trkpt lat="31.8005314" lon="35.0308818">
        <ele>499.6</ele>
        <time>2011-10-14T08:13:01Z</time>
      </trkpt>
      <trkpt lat="31.8007054" lon="35.0303587">
        <ele>497.6</ele>
        <time>2011-10-14T08:13:08Z</time>
      </trkpt>
      <trkpt lat="31.8007845" lon="35.0299131">
        <ele>494.6</ele>
        <time>2011-10-14T08:13:14Z</time>
      </trkpt>
      <trkpt lat="31.8009133" lon="35.0294616">
        <ele>489.6</ele>
        <time>2011-10-14T08:13:21Z</time>
      </trkpt>
      <trkpt lat="31.8011309" lon="35.0291436">
        <ele>486.6</ele>
        <time>2011-10-14T08:13:27Z</time>
      </trkpt>
      <trkpt lat="31.8013116" lon="35.0288595">
        <ele>480.6</ele>
        <time>2011-10-14T08:13:35Z</time>
      </trkpt>
      <trkpt lat="31.8014106" lon="35.0287198">
        <ele>476.6</ele>
        <time>2011-10-14T08:13:40Z</time>
      </trkpt>
      <trkpt lat="31.8015346" lon="35.0287783">
        <ele>459.6</ele>
        <time>2011-10-14T08:14:15Z</time>
      </trkpt>
      <trkpt lat="31.8015626" lon="35.0285916">
        <ele>434.6</ele>
        <time>2011-10-14T08:14:57Z</time>
      </trkpt>
      <trkpt lat="31.8017475" lon="35.0283427">
        <ele>432.6</ele>
        <time>2011-10-14T08:15:04Z</time>
      </trkpt>
      <trkpt lat="31.8019072" lon="35.0280282">
        <ele>430.6</ele>
        <time>2011-10-14T08:15:10Z</time>
      </trkpt>
      <trkpt lat="31.8021666" lon="35.027648">
        <ele>428.6</ele>
        <time>2011-10-14T08:15:17Z</time>
      </trkpt>
      <trkpt lat="31.8024536" lon="35.0272588">
        <ele>426.5</ele>
        <time>2011-10-14T08:15:23Z</time>
      </trkpt>
      <trkpt lat="31.8025715" lon="35.026888">
        <ele>426.5</ele>
        <time>2011-10-14T08:15:27Z</time>
      </trkpt>
      <trkpt lat="31.8027105" lon="35.0264722">
        <ele>426.5</ele>
        <time>2011-10-14T08:15:31Z</time>
      </trkpt>
      <trkpt lat="31.8030748" lon="35.0260048">
        <ele>425.5</ele>
        <time>2011-10-14T08:15:37Z</time>
      </trkpt>
      <trkpt lat="31.8036184" lon="35.0256559">
        <ele>423.5</ele>
        <time>2011-10-14T08:15:43Z</time>
      </trkpt>
      <trkpt lat="31.8039782" lon="35.0254095">
        <ele>422.5</ele>
        <time>2011-10-14T08:15:48Z</time>
      </trkpt>
      <trkpt lat="31.8042678" lon="35.0252232">
        <ele>420.5</ele>
        <time>2011-10-14T08:15:54Z</time>
      </trkpt>
      <trkpt lat="31.8044252" lon="35.0250897">
        <ele>415.5</ele>
        <time>2011-10-14T08:16:01Z</time>
      </trkpt>
      <trkpt lat="31.8045465" lon="35.0249666">
        <ele>414.5</ele>
        <time>2011-10-14T08:16:06Z</time>
      </trkpt>
      <trkpt lat="31.8048711" lon="35.0247527">
        <ele>410.5</ele>
        <time>2011-10-14T08:16:13Z</time>
      </trkpt>
      <trkpt lat="31.8053956" lon="35.0243834">
        <ele>408.5</ele>
        <time>2011-10-14T08:16:19Z</time>
      </trkpt>
      <trkpt lat="31.8057023" lon="35.0241746">
        <ele>407.5</ele>
        <time>2011-10-14T08:16:23Z</time>
      </trkpt>
      <trkpt lat="31.8062294" lon="35.0240432">
        <ele>404.5</ele>
        <time>2011-10-14T08:16:29Z</time>
      </trkpt>
      <trkpt lat="31.8067638" lon="35.0238294">
        <ele>400.5</ele>
        <time>2011-10-14T08:16:35Z</time>
      </trkpt>
      <trkpt lat="31.8070836" lon="35.0236033">
        <ele>397.5</ele>
        <time>2011-10-14T08:16:39Z</time>
      </trkpt>
      <trkpt lat="31.8074036" lon="35.0232989">
        <ele>395.5</ele>
        <time>2011-10-14T08:16:43Z</time>
      </trkpt>
      <trkpt lat="31.8078318" lon="35.0228679">
        <ele>392.5</ele>
        <time>2011-10-14T08:16:49Z</time>
      </trkpt>
      <trkpt lat="31.8083295" lon="35.0223813">
        <ele>390.5</ele>
        <time>2011-10-14T08:16:55Z</time>
      </trkpt>
      <trkpt lat="31.808768" lon="35.0219341">
        <ele>388.5</ele>
        <time>2011-10-14T08:17:01Z</time>
      </trkpt>
      <trkpt lat="31.8090801" lon="35.0213743">
        <ele>388.5</ele>
        <time>2011-10-14T08:17:07Z</time>
      </trkpt>
      <trkpt lat="31.8093011" lon="35.0207212">
        <ele>388.5</ele>
        <time>2011-10-14T08:17:13Z</time>
      </trkpt>
      <trkpt lat="31.8094333" lon="35.0201388">
        <ele>389.5</ele>
        <time>2011-10-14T08:17:19Z</time>
      </trkpt>
      <trkpt lat="31.8095143" lon="35.0197745">
        <ele>386.5</ele>
        <time>2011-10-14T08:17:26Z</time>
      </trkpt>
      <trkpt lat="31.8095149" lon="35.0195918">
        <ele>383.5</ele>
        <time>2011-10-14T08:17:31Z</time>
      </trkpt>
      <trkpt lat="31.8095151" lon="35.0194933">
        <ele>377.5</ele>
        <time>2011-10-14T08:18:02Z</time>
      </trkpt>
      <trkpt lat="31.8095151" lon="35.0194933">
        <time>2011-10-14T08:18:09Z</time>
      </trkpt>
    </trkseg>
  </trk>
</gpx>